Provisional Data: West Branch Owego Creek near Speedsville, NY


Please select a monitoring station.
Please select start date.
Please select start date.

Toggle Unit: C/F Toggle Unit: C/F
Sample Time Temperature (C) Temperature (F) Specific Conductivity (mS/cm) pH   Turbidity (NTU+) DO (mg/L)
6/29/2021 12:00:00 AM 19.63 67.334 0.21 7.42 8.57 8.21
6/29/2021 12:15:00 AM 19.58 67.244 0.211 7.42 7.67 8.19
6/29/2021 12:30:00 AM 19.53 67.154 0.211 7.41 7.23 8.16
6/29/2021 12:45:00 AM 19.48 67.064 0.212 7.4 7.24 8.13
6/29/2021 1:00:00 AM 19.41 66.938 0.212 7.38 6.35 8.1
6/29/2021 1:15:00 AM 19.34 66.812 0.213 7.36 5.98 8.05
6/29/2021 1:30:00 AM 19.31 66.758 0.214 7.36 5.9 8.04
6/29/2021 1:45:00 AM 19.16 66.488 0.212 7.33 5.62 7.96
6/29/2021 2:00:00 AM 18.91 66.038 0.212 7.29 4.44 7.86
6/29/2021 2:15:00 AM 19.05 66.29 0.213 7.3 4.8 7.92
6/29/2021 2:30:00 AM 18.96 66.128 0.211 7.3 5.4 7.85
6/29/2021 2:45:00 AM 18.95 66.11 0.213 7.3 4.59 7.88
6/29/2021 3:00:00 AM 18.96 66.128 0.215 7.3 4.76 7.86
6/29/2021 3:15:00 AM 18.92 66.056 0.215 7.31 7.13 7.88
6/29/2021 3:30:00 AM 18.74 65.732 0.212 7.29 3.76 7.9
6/29/2021 3:45:00 AM 18.71 65.67799 0.215 7.27 4.13 7.86
6/29/2021 4:00:00 AM 18.81 65.858 0.214 7.31 5.07 7.95
6/29/2021 4:15:00 AM 18.68 65.624 0.214 7.3 4.83 7.91
6/29/2021 4:30:00 AM 18.72 65.696 0.215 7.31 3.96 7.93
6/29/2021 4:45:00 AM 18.69 65.642 0.215 7.31 4.19 7.96
6/29/2021 5:00:00 AM 18.5 65.3 0.212 7.27 7.6 7.85
6/29/2021 5:15:00 AM 18.48 65.264 0.215 7.27 3.92 7.82
6/29/2021 5:30:00 AM 18.22 64.796 0.21 7.2 3.96 7.58
6/29/2021 5:45:00 AM 18.24 64.832 0.209 7.21 3.96 7.66
6/29/2021 6:00:00 AM 18.14 64.652 0.209 7.2 3.5 7.63
6/29/2021 6:15:00 AM 18.11 64.598 0.21 7.18 4.82 7.53
6/29/2021 6:30:00 AM 18.12 64.616 0.208 7.16 3.37 7.63
6/29/2021 6:45:00 AM 18.05 64.49 0.207 7.16 3.49 7.51
6/29/2021 7:00:00 AM 18.06 64.508 0.207 7.14 3.29 7.57
6/29/2021 7:15:00 AM 17.97 64.346 0.206 7.14 3.07 7.56
6/29/2021 7:30:00 AM 17.82 64.076 0.204 7.08 3.6 7.22
6/29/2021 7:45:00 AM 17.65 63.77 0.202 7.06 3.54 7.02
6/29/2021 8:00:00 AM 17.69 63.842 0.202 7.05 2.91 7.01
6/29/2021 8:15:00 AM 17.7 63.86 0.201 7.05 3.03 7.03
6/29/2021 8:30:00 AM 17.61 63.698 0.201 7.05 3.42 6.97
6/29/2021 8:45:00 AM 17.67 63.806 0.199 7.05 3.16 6.92
6/29/2021 9:00:00 AM 17.68 63.824 0.202 7.02 2.9 6.95
6/29/2021 9:15:00 AM 17.52 63.536 0.198 6.99 3.07 6.78
6/29/2021 9:30:00 AM 17.57 63.626 0.2 6.98 3.76 6.76
6/29/2021 9:45:00 AM 17.58 63.644 0.2 6.97 3.56 6.71
6/29/2021 10:00:00 AM 17.55 63.59 0.197 6.96 2.9 6.68
6/29/2021 10:15:00 AM 17.4 63.32 0.193 6.88 3.1 6.56
6/29/2021 10:30:00 AM 17.41 63.338 0.192 6.84 2.56 6.48
6/29/2021 10:45:00 AM 17.23 63.014 0.188 6.85 2.58 6.48
6/29/2021 11:00:00 AM 17.27 63.086 0.191 6.83 2.49 6.46
6/29/2021 11:15:00 AM 17.14 62.852 0.186 6.8 3.55 6.26
6/29/2021 11:30:00 AM 17.04 62.672 0.186 6.76 2.58 6.23
6/29/2021 11:45:00 AM 17.02 62.636 0.184 6.77 2.78 6.28
6/29/2021 12:00:00 PM 16.91 62.438 0.182 6.75 2.4 5.98
6/29/2021 12:15:00 PM 16.87 62.366 0.178 6.74 1.83 5.82
6/29/2021 12:30:00 PM 16.96 62.528 0.18 6.74 2.47 6.03
6/29/2021 12:45:00 PM 17.09 62.762 0.179 6.74 2.7 6.09
6/29/2021 1:00:00 PM 17.19 62.942 0.179 6.72 2.96 6.14
6/29/2021 1:15:00 PM 17.45 63.41 0.173 6.67 2.43 6.24
6/29/2021 1:30:00 PM 17.69 63.842 0.177 6.7 2.79 6.32
6/29/2021 1:45:00 PM 17.82 64.076 0.176 6.7 5.03 6.2
6/29/2021 2:00:00 PM 18.08 64.544 0.179 6.73 2.97 6.35
6/29/2021 2:15:00 PM 18.16 64.688 0.177 6.72 2.33 6.26
6/29/2021 2:30:00 PM 18.32 64.976 0.178 6.72 2.42 6.28
6/29/2021 2:45:00 PM 18.21 64.778 0.174 6.71 2.26 6.16
6/29/2021 3:00:00 PM 18.22 64.796 0.175 6.7 2.35 6.14
6/29/2021 3:15:00 PM 18.29 64.922 0.175 6.71 2.25 6.26
6/29/2021 3:30:00 PM 18.18 64.724 0.172 6.68 2.34 6.16
6/29/2021 3:45:00 PM 18.15 64.67 0.172 6.66 2.55 6.11
6/29/2021 4:00:00 PM 18.12 64.616 0.167 6.66 2.04 6.15
6/29/2021 4:15:00 PM 18.04 64.472 0.166 6.64 1.9 6.03
6/29/2021 4:30:00 PM 17.93 64.274 0.165 6.64 2.18 5.95
6/29/2021 4:45:00 PM 17.72 63.896 0.164 6.62 1.8 5.87
6/29/2021 5:00:00 PM 17.66 63.788 0.164 6.62 1.81 5.8
6/29/2021 5:15:00 PM 17.56 63.608 0.162 6.61 1.67 5.71
6/29/2021 5:30:00 PM 17.41 63.338 0.165 6.62 1.76 5.65
6/29/2021 5:45:00 PM 17.36 63.248 0.166 6.6 1.61 5.49
6/29/2021 6:00:00 PM 17.27 63.086 0.167 6.59 1.43 5.33
6/29/2021 6:15:00 PM 17.2 62.96 0.165 6.59 1.37 5.31
6/29/2021 6:30:00 PM 17.03 62.654 0.163 6.58 1.61 5.15
6/29/2021 6:45:00 PM 17.01 62.618 0.165 6.58 1.44 5.13
6/29/2021 7:00:00 PM 16.65 61.97 0.163 6.54 1.69 4.8
6/29/2021 7:15:00 PM 16.74 62.132 0.161 6.56 1.32 4.95
6/29/2021 7:30:00 PM 16.5 61.7 0.159 6.53 1.43 4.78
6/29/2021 7:45:00 PM 16.54 61.772 0.16 6.54 1.28 4.71
6/29/2021 8:00:00 PM 16.44 61.592 0.159 6.53 1.16 4.65
6/29/2021 8:15:00 PM 16.13 61.034 0.156 6.5 0.94 4.52
6/29/2021 8:30:00 PM 16.18 61.124 0.156 6.51 1.23 4.64
6/29/2021 8:45:00 PM 16.18 61.124 0.158 6.51 1.02 4.55
6/29/2021 9:00:00 PM 16.16 61.088 0.157 6.5 0.98 4.43
6/29/2021 9:15:00 PM 15.95 60.71 0.159 6.51 0.8 4.28
6/29/2021 9:30:00 PM 15.8 60.44 0.156 6.5 1.8 4.17
6/29/2021 9:45:00 PM 15.79 60.422 0.152 6.46 1.11 4.18
6/29/2021 10:00:00 PM 15.88 60.584 0.149 6.45 1.81 4.26
6/29/2021 10:15:00 PM 15.79 60.422 0.15 6.45 0.97 4.15
6/29/2021 10:30:00 PM 16.65 61.97 0.14 6.43 13.97 4.71
6/29/2021 10:45:00 PM 19.65 67.37 0.165 6.75 18.4 6.24
6/29/2021 11:00:00 PM 20.17 68.306 0.183 6.93 13.08 6.85
6/29/2021 11:15:00 PM 20.48 68.864 0.192 7.12 13.29 7.44
6/29/2021 11:30:00 PM 20.59 69.062 0.195 7.27 16.17 7.72
6/29/2021 11:45:00 PM 20.6 69.08 0.196 7.34 14.49 7.83
6/30/2021 12:00:00 AM 20.58 69.044 0.196 7.36 12.45 7.86
6/30/2021 12:15:00 AM 20.53 68.954 0.196 7.35 11.37 7.82
6/30/2021 12:30:00 AM 20.44 68.792 0.195 7.32 11.54 7.79
6/30/2021 12:45:00 AM 20.4 68.72 0.194 7.33 11.3 7.76
6/30/2021 1:00:00 AM 20.33 68.594 0.192 7.34 14.13 7.84
6/30/2021 1:15:00 AM 20.25 68.45 0.189 7.35 16.55 7.91
6/30/2021 1:30:00 AM 20.17 68.306 0.187 7.36 14.37 8.01
6/30/2021 1:45:00 AM 20.1 68.18 0.186 7.38 15.35 8.06
6/30/2021 2:00:00 AM 20.04 68.07201 0.186 7.39 14.4 8.09
6/30/2021 2:15:00 AM 19.99 67.982 0.186 7.39 13.71 8.12
6/30/2021 2:30:00 AM 19.92 67.856 0.186 7.38 14.72 8.1
6/30/2021 2:45:00 AM 19.89 67.802 0.187 7.38 14.73 8.1
6/30/2021 3:00:00 AM 19.82 67.676 0.188 7.37 12.93 8.12
6/30/2021 3:15:00 AM 19.77 67.586 0.188 7.38 13.39 8.16
6/30/2021 3:30:00 AM 19.73 67.514 0.189 7.39 12.61 8.18
6/30/2021 3:45:00 AM 19.69 67.442 0.19 7.4 13.86 8.18
6/30/2021 4:00:00 AM 19.65 67.37 0.191 7.39 13.42 8.18
6/30/2021 4:15:00 AM 19.62 67.316 0.192 7.4 10.66 8.21
6/30/2021 4:30:00 AM 19.59 67.262 0.193 7.4 9.82 8.22
6/30/2021 4:45:00 AM 19.56 67.208 0.194 7.41 9.9 8.24
6/30/2021 5:00:00 AM 19.53 67.154 0.194 7.41 9.53 8.24
6/30/2021 5:15:00 AM 19.51 67.118 0.195 7.41 8.85 8.26
6/30/2021 5:30:00 AM 19.48 67.064 0.195 7.41 9.96 8.27
6/30/2021 5:45:00 AM 19.46 67.028 0.196 7.41 9.34 8.27
6/30/2021 6:00:00 AM 19.44 66.992 0.197 7.41 8.45 8.28
6/30/2021 6:15:00 AM 19.42 66.956 0.198 7.41 8.48 8.3
6/30/2021 6:30:00 AM 19.4 66.92 0.199 7.41 7.15 8.3
6/30/2021 6:45:00 AM 19.39 66.902 0.2 7.41 8.93 8.33
6/30/2021 7:00:00 AM 19.38 66.884 0.201 7.41 6.55 8.34
6/30/2021 7:15:00 AM 19.37 66.866 0.202 7.42 7.44 8.36
6/30/2021 7:30:00 AM 19.37 66.866 0.202 7.42 6.33 8.39
6/30/2021 7:45:00 AM 19.36 66.848 0.202 7.42 5.91 8.4
6/30/2021 8:00:00 AM 19.35 66.83 0.203 7.42 5.7 8.42
6/30/2021 8:15:00 AM 19.35 66.83 0.203 7.43 6.37 8.43
6/30/2021 8:30:00 AM 19.34 66.812 0.203 7.43 6.1 8.45
6/30/2021 8:45:00 AM 19.35 66.83 0.202 7.43 9.57 8.46
6/30/2021 9:00:00 AM 19.37 66.866 0.202 7.44 12.68 8.47
6/30/2021 9:15:00 AM 19.45 67.01 0.201 7.45 5.29 8.53
6/30/2021 9:30:00 AM 19.52 67.136 0.2 7.46 4.54 8.59
6/30/2021 9:45:00 AM 19.58 67.244 0.199 7.47 4.97 8.62
6/30/2021 10:00:00 AM 19.62 67.316 0.198 7.48 4.75 8.67
6/30/2021 10:15:00 AM 19.72 67.496 0.196 7.49 4.56 8.7
6/30/2021 10:30:00 AM 19.82 67.676 0.194 7.49 4.99 8.76
6/30/2021 10:45:00 AM 19.88 67.784 0.192 7.5 4.91 8.77
6/30/2021 11:00:00 AM 19.92 67.856 0.19 7.51 5.51 8.79
6/30/2021 11:15:00 AM 19.99 67.982 0.188 7.51 4.23 8.8
6/30/2021 11:30:00 AM 20.09 68.162 0.186 7.51 5.06 8.81
6/30/2021 11:45:00 AM 20.19 68.342 0.184 7.51 3.65 8.85
6/30/2021 12:00:00 PM 20.32 68.576 0.182 7.52 4.55 8.86
6/30/2021 12:15:00 PM 20.47 68.846 0.18 7.52 4.28 8.88
6/30/2021 12:30:00 PM 20.7 69.26 0.179 7.53 3.84 8.91
6/30/2021 12:45:00 PM 20.84 69.512 0.177 7.54 4.32 8.93
6/30/2021 1:00:00 PM 21.04 69.872 0.176 7.54 4.35 8.95
6/30/2021 1:15:00 PM 21.21 70.17799 0.176 7.54 4.13 8.93
6/30/2021 1:30:00 PM 21.48 70.664 0.175 7.55 4.45 8.97
6/30/2021 1:45:00 PM 21.62 70.916 0.174 7.56 4.28 8.96
6/30/2021 2:00:00 PM 21.83 71.294 0.174 7.56 3.85 8.98
6/30/2021 2:15:00 PM 22.16 71.888 0.174 7.57 3.99 8.99
6/30/2021 2:30:00 PM 22.42 72.356 0.174 7.57 4.66 8.98
6/30/2021 2:45:00 PM 22.67 72.806 0.174 7.58 3.85 8.96
6/30/2021 3:00:00 PM 22.72 72.896 0.174 7.55 4.25 8.91
6/30/2021 3:15:00 PM 22.71 72.878 0.174 7.54 4.08 8.83
6/30/2021 3:30:00 PM 22.63 72.734 0.175 7.55 4.31 8.77
6/30/2021 3:45:00 PM 22.54 72.57201 0.175 7.51 4.41 8.67
6/30/2021 4:00:00 PM 22.4 72.32 0.175 7.51 4.08 8.54
6/30/2021 4:15:00 PM 22.17 71.906 0.173 7.5 5.47 8.43
6/30/2021 4:30:00 PM 22.03 71.654 0.174 7.51 6.3 8.38
6/30/2021 4:45:00 PM 21.87 71.366 0.174 7.51 6.59 8.33
6/30/2021 5:00:00 PM 21.77 71.186 0.174 7.53 6.8 8.32
6/30/2021 5:15:00 PM 21.64 70.952 0.174 7.55 8.03 8.33
6/30/2021 5:30:00 PM 21.57 70.826 0.175 7.57 7.66 8.37
6/30/2021 5:45:00 PM 21.48 70.664 0.175 7.57 7.76 8.4
6/30/2021 6:00:00 PM 21.39 70.502 0.175 7.57 7.68 8.4
6/30/2021 6:15:00 PM 21.32 70.376 0.175 7.57 8.57 8.39
6/30/2021 6:30:00 PM 21.23 70.214 0.174 7.55 7.52 8.34
6/30/2021 6:45:00 PM 21.15 70.07 0.174 7.53 7.88 8.31
6/30/2021 7:00:00 PM 21.09 69.962 0.174 7.52 7.85 8.31
6/30/2021 7:15:00 PM 21.03 69.854 0.174 7.5 9.03 8.28
6/30/2021 7:30:00 PM 20.95 69.71 0.174 7.49 9.46 8.24
6/30/2021 7:45:00 PM 20.86 69.548 0.174 7.48 8.5 8.22
6/30/2021 8:00:00 PM 20.77 69.386 0.175 7.46 8.57 8.21
6/30/2021 8:15:00 PM 20.68 69.224 0.175 7.45 7.5 8.19
6/30/2021 8:30:00 PM 20.59 69.062 0.176 7.44 7.45 8.17
6/30/2021 8:45:00 PM 20.49 68.882 0.177 7.43 7.91 8.17
6/30/2021 9:00:00 PM 20.4 68.72 0.178 7.43 11.41 8.17
6/30/2021 9:15:00 PM 20.32 68.576 0.179 7.42 9.1 8.16
6/30/2021 9:30:00 PM 20.24 68.432 0.179 7.4 8.5 8.13
6/30/2021 9:45:00 PM 20.17 68.306 0.18 7.4 9.44 8.1
6/30/2021 10:00:00 PM 20.12 68.216 0.181 7.39 6.59 8.08
6/30/2021 10:15:00 PM 20.07 68.126 0.182 7.38 7.57 8.06
6/30/2021 10:30:00 PM 20.02 68.036 0.183 7.37 6.54 8.04
6/30/2021 10:45:00 PM 19.97 67.946 0.183 7.36 9.81 8.02
6/30/2021 11:00:00 PM 19.92 67.856 0.184 7.36 5.39 8.01
6/30/2021 11:15:00 PM 19.87 67.766 0.184 7.36 5.51 8
6/30/2021 11:30:00 PM 19.82 67.676 0.184 7.35 4.88 8
6/30/2021 11:45:00 PM 19.78 67.604 0.185 7.35 5.42 7.99
7/1/2021 12:00:00 AM 19.73 67.514 0.185 7.34 4.65 7.99
7/1/2021 12:15:00 AM 19.69 67.442 0.186 7.33 5.56 7.97
7/1/2021 12:30:00 AM 19.65 67.37 0.186 7.33 4.7 7.96
7/1/2021 12:45:00 AM 19.6 67.28 0.186 7.32 4.27 7.96
7/1/2021 1:00:00 AM 19.57 67.226 0.187 7.32 5.19 7.94
7/1/2021 1:15:00 AM 19.53 67.154 0.187 7.31 4.96 7.93
7/1/2021 1:30:00 AM 19.49 67.082 0.187 7.3 4.68 7.92
7/1/2021 1:45:00 AM 19.44 66.992 0.188 7.29 5.14 7.89
7/1/2021 2:00:00 AM 19.45 67.01 0.188 7.29 4.15 7.9
7/1/2021 2:15:00 AM 19.4 66.92 0.188 7.28 5.29 7.87
7/1/2021 2:30:00 AM 19.35 66.83 0.189 7.26 4 7.84
7/1/2021 2:45:00 AM 19.25 66.65 0.188 7.24 4.3 7.77
7/1/2021 3:00:00 AM 19.24 66.632 0.189 7.23 3.81 7.71
7/1/2021 3:15:00 AM 19.16 66.488 0.189 7.2 3.99 7.7
7/1/2021 3:30:00 AM 19 66.2 0.188 7.19 3.28 7.62
7/1/2021 3:45:00 AM 18.75 65.75 0.188 7.12 3.6 7.5
7/1/2021 4:00:00 AM 18.81 65.858 0.189 7.11 4.34 7.45
7/1/2021 4:15:00 AM 18.54 65.372 0.186 7.05 3.34 7.23
7/1/2021 4:30:00 AM 18.35 65.03 0.184 7.03 3.25 7.01
7/1/2021 4:45:00 AM 18.45 65.21 0.188 7.06 3.79 6.95
7/1/2021 5:00:00 AM 18.36 65.048 0.184 7.05 3.01 7.16
7/1/2021 5:15:00 AM 18.34 65.012 0.186 7.04 3.22 7.04
7/1/2021 5:30:00 AM 18.26 64.868 0.184 7.02 2.74 7.15
7/1/2021 5:45:00 AM 18.18 64.724 0.184 7.03 2.99 7.03
7/1/2021 6:00:00 AM 18.29 64.922 0.187 7.05 3.29 7.12
7/1/2021 6:15:00 AM 18.22 64.796 0.185 7.01 3.83 7.15
7/1/2021 6:30:00 AM 18.3 64.94 0.188 7.04 3.53 7.16
7/1/2021 6:45:00 AM 18.34 65.012 0.188 7.04 3.66 7.16
7/1/2021 7:00:00 AM 18.19 64.742 0.186 7.02 2.71 7.16
7/1/2021 7:15:00 AM 18.12 64.616 0.186 7.04 3.14 7.07
7/1/2021 7:30:00 AM 18.37 65.066 0.188 7.1 2.83 7.43
7/1/2021 7:45:00 AM 18.35 65.03 0.19 7.05 3.94 7.37
7/1/2021 8:00:00 AM 18.44 65.192 0.19 7.13 4.26 7.62
7/1/2021 8:15:00 AM 18.53 65.354 0.191 7.14 3.04 7.68
7/1/2021 8:30:00 AM 18.39 65.102 0.19 7.12 3.54 7.64
7/1/2021 8:45:00 AM 18.42 65.156 0.19 7.13 3.57 7.67
7/1/2021 9:00:00 AM 18.48 65.264 0.19 7.17 3.18 7.82
7/1/2021 9:15:00 AM 18.58 65.444 0.191 7.19 3.51 7.93
7/1/2021 9:30:00 AM 18.52 65.336 0.19 7.19 2.87 7.9
7/1/2021 9:45:00 AM 18.6 65.48 0.19 7.21 3.52 8.06
7/1/2021 10:00:00 AM 18.38 65.084 0.189 7.19 2.78 8.01
7/1/2021 10:15:00 AM 18.49 65.282 0.189 7.21 2.79 8.15
7/1/2021 10:30:00 AM 18.53 65.354 0.189 7.22 3.05 8.19
7/1/2021 10:45:00 AM 18.5 65.3 0.189 7.2 2.85 8.13
7/1/2021 11:00:00 AM 18.49 65.282 0.188 7.22 2.64 8.26
7/1/2021 11:15:00 AM 18.5 65.3 0.188 7.22 2.85 8.24
7/1/2021 11:30:00 AM 18.53 65.354 0.188 7.22 2.53 8.27
7/1/2021 11:45:00 AM 18.44 65.192 0.187 7.2 2.17 8.26
7/1/2021 12:00:00 PM 18.48 65.264 0.186 7.19 2.58 8.27
7/1/2021 12:15:00 PM 18.42 65.156 0.186 7.2 2.35 8.28
7/1/2021 12:30:00 PM 18.51 65.318 0.186 7.21 2.33 8.27
7/1/2021 12:45:00 PM 18.6 65.48 0.186 7.23 2.01 8.47
7/1/2021 1:00:00 PM 18.63 65.534 0.186 7.25 2.69 8.53
7/1/2021 1:15:00 PM 18.74 65.732 0.186 7.27 2.18 8.57
7/1/2021 1:30:00 PM 18.46 65.228 0.183 7.22 2.28 8.38
7/1/2021 1:45:00 PM 18.74 65.732 0.185 7.27 2.37 8.58
7/1/2021 2:00:00 PM 18.78 65.804 0.186 7.29 2.39 8.59
7/1/2021 2:15:00 PM 18.74 65.732 0.185 7.29 2.19 8.59
7/1/2021 2:30:00 PM 18.77 65.786 0.185 7.33 4.02 8.68
7/1/2021 2:45:00 PM 18.76 65.768 0.186 7.36 1.73 8.72
7/1/2021 3:00:00 PM 18.84 65.912 0.186 7.42 2.63 8.82
7/1/2021 3:15:00 PM 18.83 65.894 0.186 7.45 2.24 8.85
7/1/2021 3:30:00 PM 18.79 65.82201 0.186 7.48 2.23 8.85
7/1/2021 3:45:00 PM 18.75 65.75 0.186 7.49 2.65 8.81
7/1/2021 4:00:00 PM 18.68 65.624 0.183 7.53 4.9 8.82
7/1/2021 4:15:00 PM 18.63 65.534 0.182 7.53 6.62 8.81
7/1/2021 4:30:00 PM 18.59 65.462 0.18 7.53 9.4 8.79
7/1/2021 4:45:00 PM 18.54 65.372 0.179 7.52 11.96 8.77
7/1/2021 5:00:00 PM 18.47 65.246 0.179 7.51 12.33 8.78
7/1/2021 5:15:00 PM 18.4 65.12 0.176 7.5 40.82 8.77
7/1/2021 5:30:00 PM 18.26 64.868 0.172 7.38 108.57 8.66
7/1/2021 5:45:00 PM 18.15 64.67 0.146 7.32 237.18 8.66
7/1/2021 6:00:00 PM 18.07 64.526 0.146 7.26 252 8.63
7/1/2021 6:15:00 PM 17.97 64.346 0.147 7.26 185.33 8.67
7/1/2021 6:30:00 PM 17.9 64.22 0.148 7.27 169.14 8.68
7/1/2021 6:45:00 PM 17.79 64.022 0.12 7.21 318.15 8.71
7/1/2021 7:00:00 PM 17.64 63.752 0.086 7.12 435.99 8.77
7/1/2021 7:15:00 PM 17.54 63.572 0.069 7.03 604.39 8.81
7/1/2021 7:30:00 PM 17.51 63.518 0.069 6.99 511.8 8.82
7/1/2021 7:45:00 PM 17.53 63.554 0.08 7.01 550.96 8.81
7/1/2021 8:00:00 PM 17.58 63.644 0.095 7.06 303.22 8.79
7/1/2021 8:15:00 PM 17.62 63.716 0.107 7.09 240.05 8.77
7/1/2021 8:30:00 PM 17.65 63.77 0.116 7.11 189.47 8.75
7/1/2021 8:45:00 PM 17.68 63.824 0.119 7.13 110.84 8.74
7/1/2021 9:00:00 PM 17.69 63.842 0.119 7.13 110.16 8.73
7/1/2021 9:15:00 PM 17.7 63.86 0.116 7.14 122.34 8.73
7/1/2021 9:30:00 PM 17.7 63.86 0.114 7.13 95.87 8.71
7/1/2021 9:45:00 PM 17.69 63.842 0.111 7.13 80.73 8.72
7/1/2021 10:00:00 PM 17.67 63.806 0.11 7.13 68.62 8.73
7/1/2021 10:15:00 PM 17.65 63.77 0.109 7.14 69.44 8.74
7/1/2021 10:30:00 PM 17.63 63.734 0.109 7.14 64.21 8.74
7/1/2021 10:45:00 PM 17.61 63.698 0.109 7.13 71.79 8.75
7/1/2021 11:00:00 PM 17.59 63.662 0.109 7.14 72.05 8.75
7/1/2021 11:15:00 PM 17.56 63.608 0.109 7.13 60.33 8.76
7/1/2021 11:30:00 PM 17.53 63.554 0.109 7.14 74.49 8.77
7/1/2021 11:45:00 PM 17.5 63.5 0.109 7.15 67.31 8.78
7/2/2021 12:00:00 AM 17.48 63.464 0.11 7.16 42.87 8.78
7/2/2021 12:15:00 AM 17.45 63.41 0.11 7.15 54.89 8.79
7/2/2021 12:30:00 AM 17.42 63.356 0.111 7.16 66.29 8.79
7/2/2021 12:45:00 AM 17.39 63.302 0.111 7.15 48.87 8.8
7/2/2021 1:00:00 AM 17.35 63.23 0.111 7.16 47.67 8.81
7/2/2021 1:15:00 AM 17.32 63.176 0.111 7.16 47.68 8.82
7/2/2021 1:30:00 AM 17.29 63.122 0.112 7.17 53.83 8.83
7/2/2021 1:45:00 AM 17.26 63.068 0.112 7.16 36.73 8.83
7/2/2021 2:00:00 AM 17.22 62.996 0.112 7.17 50.53 8.84
7/2/2021 2:15:00 AM 17.19 62.942 0.113 7.17 35.94 8.84
7/2/2021 2:30:00 AM 17.16 62.888 0.113 7.18 41.76 8.85
7/2/2021 2:45:00 AM 17.12 62.816 0.113 7.18 35.63 8.86
7/2/2021 3:00:00 AM 17.09 62.762 0.113 7.18 32.81 8.88
7/2/2021 3:15:00 AM 17.05 62.69 0.113 7.18 38.26 8.88
7/2/2021 3:30:00 AM 17.02 62.636 0.113 7.17 32.45 8.89
7/2/2021 3:45:00 AM 16.98 62.564 0.113 7.17 28.65 8.9
7/2/2021 4:00:00 AM 16.93 62.474 0.113 7.18 29.49 8.92
7/2/2021 4:15:00 AM 16.89 62.402 0.113 7.19 28.12 8.92
7/2/2021 4:30:00 AM 16.84 62.312 0.114 7.2 38.36 8.93
7/2/2021 4:45:00 AM 16.8 62.24 0.114 7.2 25.35 8.94
7/2/2021 5:00:00 AM 16.74 62.132 0.114 7.21 28.2 8.95
7/2/2021 5:15:00 AM 16.69 62.042 0.114 7.21 23.9 8.96
7/2/2021 5:30:00 AM 16.63 61.934 0.114 7.22 24.82 8.97
7/2/2021 5:45:00 AM 16.58 61.844 0.115 7.22 23.65 8.99
7/2/2021 6:00:00 AM 16.53 61.754 0.115 7.22 22.59 8.99
7/2/2021 6:15:00 AM 16.48 61.664 0.115 7.23 21.52 9.01
7/2/2021 6:30:00 AM 16.44 61.592 0.115 7.23 20.04 9.03
7/2/2021 6:45:00 AM 16.4 61.52 0.115 7.23 19.88 9.04
7/2/2021 7:00:00 AM 16.38 61.484 0.116 7.23 20.49 9.07
7/2/2021 7:15:00 AM 16.36 61.448 0.116 7.24 18.22 9.07
7/2/2021 7:30:00 AM 16.34 61.412 0.116 7.25 17.86 9.09
7/2/2021 7:45:00 AM 16.33 61.394 0.117 7.26 17.38 9.11
7/2/2021 8:00:00 AM 16.33 61.394 0.117 7.27 16.3 9.13
7/2/2021 8:15:00 AM 16.34 61.412 0.117 7.27 16.78 9.16
7/2/2021 8:30:00 AM 16.33 61.394 0.117 7.28 15.19 9.18
7/2/2021 8:45:00 AM 16.33 61.394 0.118 7.29 14.92 9.19
7/2/2021 9:00:00 AM 16.34 61.412 0.118 7.29 14.69 9.21
7/2/2021 9:15:00 AM 16.33 61.394 0.118 7.3 14.51 9.21
7/2/2021 9:30:00 AM 16.32 61.376 0.119 7.3 13.62 9.22
7/2/2021 9:45:00 AM 16.32 61.376 0.119 7.3 14.56 9.24
7/2/2021 10:00:00 AM 16.32 61.376 0.119 7.31 12.93 9.24
7/2/2021 10:15:00 AM 16.32 61.376 0.12 7.31 12.14 9.24
7/2/2021 10:30:00 AM 16.32 61.376 0.12 7.32 13.28 9.26
7/2/2021 10:45:00 AM 16.33 61.394 0.12 7.33 11.31 9.29
7/2/2021 11:00:00 AM 16.35 61.43 0.12 7.34 10.99 9.3
7/2/2021 11:15:00 AM 16.37 61.466 0.121 7.35 11.92 9.31
7/2/2021 11:30:00 AM 16.38 61.484 0.121 7.35 11.71 9.32
7/2/2021 11:45:00 AM 16.49 61.682 0.121 7.36 11.11 9.34
7/2/2021 12:00:00 PM 16.55 61.79 0.122 7.37 10.14 9.37
7/2/2021 12:15:00 PM 16.61 61.898 0.122 7.37 9.7 9.38
7/2/2021 12:30:00 PM 16.69 62.042 0.122 7.39 10.14 9.4
7/2/2021 12:45:00 PM 16.73 62.114 0.122 7.39 9.63 9.41
7/2/2021 1:00:00 PM 16.96 62.528 0.123 7.41 10.28 9.42
7/2/2021 1:15:00 PM 17.11 62.798 0.123 7.42 9.54 9.43
7/2/2021 1:30:00 PM 17.35 63.23 0.123 7.43 8.91 9.43
7/2/2021 1:45:00 PM 17.54 63.572 0.124 7.45 8.52 9.41
7/2/2021 2:00:00 PM 17.69 63.842 0.124 7.45 8.23 9.39
7/2/2021 2:15:00 PM 17.78 64.004 0.124 7.46 8.07 9.35
7/2/2021 2:30:00 PM 17.96 64.328 0.125 7.46 7.64 9.34
7/2/2021 2:45:00 PM 18.05 64.49 0.125 7.47 8.01 9.32
7/2/2021 3:00:00 PM 18.12 64.616 0.125 7.48 7.92 9.3
7/2/2021 3:15:00 PM 18.18 64.724 0.126 7.48 7.76 9.26
7/2/2021 3:30:00 PM 18.28 64.904 0.126 7.48 7.04 9.23
7/2/2021 3:45:00 PM 18.32 64.976 0.126 7.47 7.13 9.18
7/2/2021 4:00:00 PM 18.4 65.12 0.127 7.48 7.51 9.15
7/2/2021 4:15:00 PM 18.42 65.156 0.127 7.47 7.26 9.11
7/2/2021 4:30:00 PM 18.47 65.246 0.127 7.47 7.26 9.07
7/2/2021 4:45:00 PM 18.46 65.228 0.128 7.46 7.74 9.03
7/2/2021 5:00:00 PM 18.4 65.12 0.128 7.46 7.29 9
7/2/2021 5:15:00 PM 18.37 65.066 0.128 7.46 6.85 8.99
7/2/2021 5:30:00 PM 18.31 64.958 0.128 7.45 7.29 8.96
7/2/2021 5:45:00 PM 18.28 64.904 0.129 7.45 7.36 8.96
7/2/2021 6:00:00 PM 18.23 64.814 0.129 7.44 7.59 8.94
7/2/2021 6:15:00 PM 18.17 64.706 0.129 7.44 6.97 8.93
7/2/2021 6:30:00 PM 18.11 64.598 0.13 7.43 7.02 8.92
7/2/2021 6:45:00 PM 18.05 64.49 0.13 7.43 6.98 8.92
7/2/2021 7:00:00 PM 18.01 64.418 0.13 7.42 7.25 8.91
7/2/2021 7:15:00 PM 17.97 64.346 0.13 7.42 7.18 8.89
7/2/2021 7:30:00 PM 17.94 64.292 0.13 7.42 7.29 8.88
7/2/2021 7:45:00 PM 17.9 64.22 0.131 7.41 7.06 8.86
7/2/2021 8:00:00 PM 17.87 64.166 0.131 7.41 7.77 8.85
7/2/2021 8:15:00 PM 17.83 64.094 0.131 7.4 7.7 8.85
7/2/2021 8:30:00 PM 17.79 64.022 0.131 7.4 7.23 8.83
7/2/2021 8:45:00 PM 17.76 63.968 0.132 7.39 7.35 8.82
7/2/2021 9:00:00 PM 17.73 63.914 0.132 7.39 7.49 8.82
7/2/2021 9:15:00 PM 17.7 63.86 0.132 7.38 8.25 8.83
7/2/2021 9:30:00 PM 17.66 63.788 0.133 7.38 7.43 8.81
7/2/2021 9:45:00 PM 17.62 63.716 0.133 7.38 8.44 8.81
7/2/2021 10:00:00 PM 17.57 63.626 0.133 7.38 8.14 8.81
7/2/2021 10:15:00 PM 17.52 63.536 0.134 7.38 7.74 8.82
7/2/2021 10:30:00 PM 17.47 63.446 0.134 7.38 7.73 8.82
7/2/2021 10:45:00 PM 17.42 63.356 0.134 7.37 9 8.83
7/2/2021 11:00:00 PM 17.38 63.284 0.135 7.37 8.05 8.84
7/2/2021 11:15:00 PM 17.33 63.194 0.135 7.37 7.89 8.84
7/2/2021 11:30:00 PM 17.29 63.122 0.136 7.37 7.88 8.85
7/2/2021 11:45:00 PM 17.24 63.032 0.136 7.37 7.83 8.85
7/3/2021 12:00:00 AM 17.2 62.96 0.137 7.37 7.56 8.85
7/3/2021 12:15:00 AM 17.16 62.888 0.137 7.38 7.26 8.86
7/3/2021 12:30:00 AM 17.13 62.834 0.138 7.38 7.12 8.87
7/3/2021 12:45:00 AM 17.09 62.762 0.138 7.38 7.42 8.88
7/3/2021 1:00:00 AM 17.06 62.708 0.138 7.38 7.88 8.89
7/3/2021 1:15:00 AM 17.03 62.654 0.139 7.38 7.4 8.9
7/3/2021 1:30:00 AM 16.99 62.582 0.139 7.38 7.83 8.91
7/3/2021 1:45:00 AM 16.96 62.528 0.139 7.38 7.03 8.92
7/3/2021 2:00:00 AM 16.92 62.456 0.139 7.38 6.93 8.92
7/3/2021 2:15:00 AM 16.89 62.402 0.139 7.38 6.96 8.92
7/3/2021 2:30:00 AM 16.84 62.312 0.139 7.38 7.76 8.95
7/3/2021 2:45:00 AM 16.79 62.222 0.138 7.38 8.12 8.96
7/3/2021 3:00:00 AM 16.75 62.15 0.138 7.38 8.06 8.96
7/3/2021 3:15:00 AM 16.7 62.06 0.138 7.37 7.65 8.96
7/3/2021 3:30:00 AM 16.66 61.988 0.139 7.37 8.12 8.96
7/3/2021 3:45:00 AM 16.63 61.934 0.139 7.37 7.98 8.97
7/3/2021 4:00:00 AM 16.59 61.862 0.14 7.37 7.84 8.97
7/3/2021 4:15:00 AM 16.55 61.79 0.141 7.37 7.35 8.97
7/3/2021 4:30:00 AM 16.52 61.736 0.142 7.37 7.73 8.98
7/3/2021 4:45:00 AM 16.48 61.664 0.142 7.37 7.47 8.99
7/3/2021 5:00:00 AM 16.45 61.61 0.143 7.37 6.89 9
7/3/2021 5:15:00 AM 16.41 61.538 0.143 7.37 7.41 9
7/3/2021 5:30:00 AM 16.37 61.466 0.144 7.37 6.99 9.02
7/3/2021 5:45:00 AM 16.33 61.394 0.144 7.38 7.19 9.02
7/3/2021 6:00:00 AM 16.29 61.322 0.145 7.38 7.69 9.03
7/3/2021 6:15:00 AM 16.25 61.25 0.145 7.38 7.27 9.05
7/3/2021 6:30:00 AM 16.22 61.196 0.145 7.38 6.89 9.06
7/3/2021 6:45:00 AM 16.19 61.142 0.145 7.38 7.41 9.08
7/3/2021 7:00:00 AM 16.17 61.106 0.145 7.39 7.27 9.11
7/3/2021 7:15:00 AM 16.15 61.07 0.146 7.39 7.33 9.14
7/3/2021 7:30:00 AM 16.14 61.052 0.145 7.4 7.07 9.17
7/3/2021 7:45:00 AM 16.11 60.998 0.145 7.41 7.24 9.2
7/3/2021 8:00:00 AM 16.09 60.962 0.145 7.41 7.85 9.21
7/3/2021 8:15:00 AM 16.06 60.908 0.144 7.41 8 9.23
7/3/2021 8:30:00 AM 16.05 60.89 0.143 7.41 8.24 9.26
7/3/2021 8:45:00 AM 16.04 60.872 0.142 7.42 8.1 9.3
7/3/2021 9:00:00 AM 16.03 60.854 0.142 7.42 8.1 9.32
7/3/2021 9:15:00 AM 16.01 60.818 0.141 7.42 7.69 9.33
7/3/2021 9:30:00 AM 16.02 60.836 0.141 7.43 6.91 9.35
7/3/2021 9:45:00 AM 16.05 60.89 0.141 7.43 6.61 9.4
7/3/2021 10:00:00 AM 16.06 60.908 0.141 7.44 6.6 9.42
7/3/2021 10:15:00 AM 16.13 61.034 0.141 7.45 6.14 9.45
7/3/2021 10:30:00 AM 16.14 61.052 0.141 7.45 6.21 9.43
7/3/2021 10:45:00 AM 16.18 61.124 0.141 7.46 5.91 9.44
7/3/2021 11:00:00 AM 16.17 61.106 0.141 7.46 5.57 9.43
7/3/2021 11:15:00 AM 16.13 61.034 0.142 7.47 5.67 9.43
7/3/2021 11:30:00 AM 16.14 61.052 0.142 7.47 6.12 9.44
7/3/2021 11:45:00 AM 16.27 61.286 0.142 7.47 5.81 9.47
7/3/2021 12:00:00 PM 16.41 61.538 0.142 7.48 6.37 9.5
7/3/2021 12:15:00 PM 16.5 61.7 0.143 7.49 6.92 9.48
7/3/2021 12:30:00 PM 16.61 61.898 0.143 7.49 6.61 9.47
7/3/2021 12:45:00 PM 16.68 62.024 0.143 7.5 6.92 9.48
7/3/2021 1:00:00 PM 16.69 62.042 0.143 7.5 6.28 9.48
7/3/2021 1:15:00 PM 16.71 62.078 0.143 7.51 5.71 9.46
7/3/2021 1:30:00 PM 16.75 62.15 0.143 7.51 5.88 9.45
7/3/2021 1:45:00 PM 16.75 62.15 0.143 7.51 5.97 9.43
7/3/2021 2:00:00 PM 16.77 62.186 0.142 7.51 5.62 9.42
7/3/2021 2:15:00 PM 16.76 62.168 0.141 7.51 5.74 9.39
7/3/2021 2:30:00 PM 16.79 62.222 0.14 7.51 5.77 9.39
7/3/2021 2:45:00 PM 16.93 62.474 0.14 7.51 5.61 9.41
7/3/2021 3:00:00 PM 17.08 62.744 0.139 7.52 6.28 9.43
7/3/2021 3:15:00 PM 17.15 62.87 0.138 7.52 6.38 9.42
7/3/2021 3:30:00 PM 17.36 63.248 0.138 7.53 6.07 9.42
7/3/2021 3:45:00 PM 17.47 63.446 0.137 7.53 6.37 9.41
7/3/2021 4:00:00 PM 17.5 63.5 0.137 7.54 6.41 9.4
7/3/2021 4:15:00 PM 17.56 63.608 0.136 7.54 6.47 9.4
7/3/2021 4:30:00 PM 17.58 63.644 0.136 7.54 6.35 9.38
7/3/2021 4:45:00 PM 17.52 63.536 0.135 7.53 6.81 9.36
7/3/2021 5:00:00 PM 17.54 63.572 0.135 7.53 6.6 9.34
7/3/2021 5:15:00 PM 17.5 63.5 0.135 7.53 6.58 9.3
7/3/2021 5:30:00 PM 17.46 63.428 0.135 7.52 7.47 9.27
7/3/2021 5:45:00 PM 17.4 63.32 0.135 7.51 6.9 9.24
7/3/2021 6:00:00 PM 17.33 63.194 0.135 7.5 6.87 9.22
7/3/2021 6:15:00 PM 17.29 63.122 0.135 7.49 7.67 9.2
7/3/2021 6:30:00 PM 17.28 63.104 0.135 7.48 7.1 9.19
7/3/2021 6:45:00 PM 17.29 63.122 0.135 7.48 7.17 9.18
7/3/2021 7:00:00 PM 17.29 63.122 0.135 7.47 7.19 9.16
7/3/2021 7:15:00 PM 17.27 63.086 0.135 7.47 6.54 9.15
7/3/2021 7:30:00 PM 17.26 63.068 0.136 7.46 7 9.12
7/3/2021 7:45:00 PM 17.24 63.032 0.138 7.46 7.08 9.09
7/3/2021 8:00:00 PM 17.23 63.014 0.141 7.45 6.62 9.07
7/3/2021 8:15:00 PM 17.22 62.996 0.144 7.44 6.89 9.04
7/3/2021 8:30:00 PM 17.21 62.978 0.147 7.44 6.51 9.01
7/3/2021 8:45:00 PM 17.19 62.942 0.148 7.43 6.96 8.99
7/3/2021 9:00:00 PM 17.16 62.888 0.148 7.42 7.1 8.98
7/3/2021 9:15:00 PM 17.1 62.78 0.147 7.41 6.9 8.97
7/3/2021 9:30:00 PM 17.04 62.672 0.146 7.41 6.94 8.97
7/3/2021 9:45:00 PM 16.98 62.564 0.144 7.41 7.01 8.97
7/3/2021 10:00:00 PM 16.91 62.438 0.143 7.4 7.82 8.97
7/3/2021 10:15:00 PM 16.83 62.294 0.142 7.39 7.48 8.98
7/3/2021 10:30:00 PM 16.76 62.168 0.141 7.39 6.73 8.99
7/3/2021 10:45:00 PM 16.68 62.024 0.14 7.39 7.23 9
7/3/2021 11:00:00 PM 16.61 61.898 0.139 7.38 7.35 9.01
7/3/2021 11:15:00 PM 16.54 61.772 0.139 7.37 6.78 9.02
7/3/2021 11:30:00 PM 16.47 61.646 0.138 7.38 7.03 9.04
7/3/2021 11:45:00 PM 16.41 61.538 0.138 7.38 7.23 9.05
7/4/2021 12:00:00 AM 16.35 61.43 0.138 7.37 7.93 9.06
7/4/2021 12:15:00 AM 16.29 61.322 0.138 7.37 7.48 9.07
7/4/2021 12:30:00 AM 16.23 61.214 0.138 7.37 7.34 9.08
7/4/2021 12:45:00 AM 16.17 61.106 0.139 7.37 7.28 9.09
7/4/2021 1:00:00 AM 16.1 60.98 0.139 7.37 6.93 9.11
7/4/2021 1:15:00 AM 16.03 60.854 0.139 7.37 7 9.12
7/4/2021 1:30:00 AM 15.96 60.728 0.139 7.37 6.63 9.13
7/4/2021 1:45:00 AM 15.9 60.62 0.139 7.36 6.79 9.14
7/4/2021 2:00:00 AM 15.84 60.512 0.139 7.36 6.29 9.16
7/4/2021 2:15:00 AM 15.78 60.404 0.139 7.37 5.91 9.17
7/4/2021 2:30:00 AM 15.72 60.296 0.14 7.36 6.32 9.18
7/4/2021 2:45:00 AM 15.67 60.206 0.14 7.36 5.95 9.2
7/4/2021 3:00:00 AM 15.62 60.116 0.14 7.36 6.52 9.21
7/4/2021 3:15:00 AM 15.57 60.026 0.14 7.37 5.8 9.22
7/4/2021 3:30:00 AM 15.52 59.936 0.14 7.36 6.05 9.22
7/4/2021 3:45:00 AM 15.46 59.828 0.14 7.36 6.08 9.24
7/4/2021 4:00:00 AM 15.41 59.738 0.141 7.36 6.04 9.25
7/4/2021 4:15:00 AM 15.36 59.648 0.141 7.36 6.23 9.26
7/4/2021 4:30:00 AM 15.31 59.558 0.141 7.36 5.99 9.27
7/4/2021 4:45:00 AM 15.25 59.45 0.141 7.37 5.82 9.29
7/4/2021 5:00:00 AM 15.2 59.36 0.141 7.36 6.13 9.29
7/4/2021 5:15:00 AM 15.15 59.27 0.141 7.36 5.65 9.31
7/4/2021 5:30:00 AM 15.1 59.18 0.142 7.36 5.74 9.32
7/4/2021 5:45:00 AM 15.05 59.09 0.142 7.36 4.92 9.33
7/4/2021 6:00:00 AM 15 59 0.142 7.36 5.2 9.35
7/4/2021 6:15:00 AM 14.95 58.91 0.142 7.37 4.9 9.37
7/4/2021 6:30:00 AM 14.9 58.82 0.142 7.37 4.82 9.39
7/4/2021 6:45:00 AM 14.86 58.748 0.142 7.37 4.47 9.41
7/4/2021 7:00:00 AM 14.82 58.676 0.142 7.37 4.6 9.44
7/4/2021 7:15:00 AM 14.79 58.622 0.142 7.38 4.88 9.47
7/4/2021 7:30:00 AM 14.76 58.568 0.143 7.39 4.63 9.51
7/4/2021 7:45:00 AM 14.74 58.532 0.143 7.39 5.09 9.54
7/4/2021 8:00:00 AM 14.73 58.514 0.143 7.39 4.44 9.57
7/4/2021 8:15:00 AM 14.73 58.514 0.143 7.41 4.16 9.6
7/4/2021 8:30:00 AM 14.74 58.532 0.143 7.41 3.66 9.63
7/4/2021 8:45:00 AM 14.77 58.586 0.143 7.41 3.97 9.64
7/4/2021 9:00:00 AM 14.8 58.64 0.143 7.42 3.66 9.66
7/4/2021 9:15:00 AM 14.83 58.694 0.143 7.43 3.81 9.68
7/4/2021 9:30:00 AM 14.91 58.838 0.143 7.44 3.4 9.7
7/4/2021 9:45:00 AM 15.01 59.018 0.143 7.45 3.36 9.72
7/4/2021 10:00:00 AM 15.06 59.108 0.143 7.46 3.58 9.71
7/4/2021 10:15:00 AM 15.13 59.234 0.143 7.47 3.32 9.73
7/4/2021 10:30:00 AM 15.24 59.432 0.143 7.47 3.41 9.73
7/4/2021 10:45:00 AM 15.38 59.684 0.143 7.48 3.25 9.73
7/4/2021 11:00:00 AM 15.51 59.918 0.143 7.49 3.35 9.72
7/4/2021 11:15:00 AM 15.7 60.26 0.143 7.5 2.83 9.74
7/4/2021 11:30:00 AM 15.89 60.602 0.144 7.51 3.08 9.74
7/4/2021 11:45:00 AM 16.08 60.944 0.144 7.52 3.04 9.73
7/4/2021 12:00:00 PM 16.29 61.322 0.144 7.53 3.1 9.73
7/4/2021 12:15:00 PM 16.37 61.466 0.144 7.54 2.84 9.71
7/4/2021 12:30:00 PM 16.55 61.79 0.144 7.55 2.89 9.69
7/4/2021 12:45:00 PM 16.65 61.97 0.144 7.56 3.05 9.69
7/4/2021 1:00:00 PM 16.85 62.33 0.144 7.57 2.98 9.69
7/4/2021 1:15:00 PM 17.05 62.69 0.144 7.58 3.04 9.67
7/4/2021 1:30:00 PM 17.24 63.032 0.144 7.58 3.03 9.64
7/4/2021 1:45:00 PM 17.4 63.32 0.144 7.59 2.97 9.62
7/4/2021 2:00:00 PM 17.43 63.374 0.144 7.6 2.92 9.58
7/4/2021 2:15:00 PM 17.55 63.59 0.144 7.6 2.9 9.57
7/4/2021 2:30:00 PM 17.75 63.95 0.144 7.6 2.77 9.54
7/4/2021 2:45:00 PM 17.83 64.094 0.144 7.61 2.83 9.53
7/4/2021 3:00:00 PM 17.8 64.04 0.144 7.61 2.96 9.49
7/4/2021 3:15:00 PM 17.91 64.238 0.145 7.61 2.99 9.48
7/4/2021 3:30:00 PM 17.95 64.31 0.145 7.61 2.67 9.46
7/4/2021 3:45:00 PM 17.99 64.382 0.145 7.61 2.97 9.43
7/4/2021 4:00:00 PM 18.1 64.58 0.145 7.61 2.79 9.42
7/4/2021 4:15:00 PM 18.11 64.598 0.145 7.61 3.01 9.39
7/4/2021 4:30:00 PM 18.09 64.562 0.146 7.6 2.96 9.34
7/4/2021 4:45:00 PM 18.04 64.472 0.146 7.59 3.28 9.3
7/4/2021 5:00:00 PM 17.97 64.346 0.146 7.58 3.11 9.27
7/4/2021 5:15:00 PM 17.93 64.274 0.147 7.58 3.16 9.25
7/4/2021 5:30:00 PM 17.86 64.148 0.147 7.57 3.14 9.22
7/4/2021 5:45:00 PM 17.81 64.058 0.147 7.55 3.23 9.17
7/4/2021 6:00:00 PM 17.77 63.986 0.147 7.54 3.17 9.14
7/4/2021 6:15:00 PM 17.7 63.86 0.147 7.53 3.43 9.11
7/4/2021 6:30:00 PM 17.64 63.752 0.147 7.52 3.12 9.07
7/4/2021 6:45:00 PM 17.58 63.644 0.147 7.51 3.52 9.05
7/4/2021 7:00:00 PM 17.53 63.554 0.147 7.5 3.46 9.04
7/4/2021 7:15:00 PM 17.47 63.446 0.147 7.49 3.6 9.02
7/4/2021 7:30:00 PM 17.42 63.356 0.147 7.48 3.32 9.01
7/4/2021 7:45:00 PM 17.38 63.284 0.147 7.48 3.78 9
7/4/2021 8:00:00 PM 17.33 63.194 0.147 7.47 3.95 8.98
7/4/2021 8:15:00 PM 17.28 63.104 0.147 7.46 3.95 8.97
7/4/2021 8:30:00 PM 17.24 63.032 0.147 7.46 3.98 8.97
7/4/2021 8:45:00 PM 17.19 62.942 0.147 7.46 3.59 8.96
7/4/2021 9:00:00 PM 17.14 62.852 0.147 7.46 3.84 8.95
7/4/2021 9:15:00 PM 17.09 62.762 0.147 7.45 3.94 8.94
7/4/2021 9:30:00 PM 17.03 62.654 0.148 7.44 4.43 8.94
7/4/2021 9:45:00 PM 16.96 62.528 0.148 7.43 3.98 8.94
7/4/2021 10:00:00 PM 16.89 62.402 0.148 7.43 4.3 8.95
7/4/2021 10:15:00 PM 16.82 62.276 0.148 7.43 4.4 8.96
7/4/2021 10:30:00 PM 16.74 62.132 0.149 7.42 4.37 8.96
7/4/2021 10:45:00 PM 16.66 61.988 0.149 7.42 4.27 8.97
7/4/2021 11:00:00 PM 16.57 61.826 0.149 7.42 4.32 8.99
7/4/2021 11:15:00 PM 16.49 61.682 0.149 7.41 4.53 9
7/4/2021 11:30:00 PM 16.41 61.538 0.15 7.41 4.43 9.02
7/4/2021 11:45:00 PM 16.32 61.376 0.15 7.41 4.37 9.04
7/5/2021 12:00:00 AM 16.24 61.232 0.151 7.41 4.54 9.05
7/5/2021 12:15:00 AM 16.15 61.07 0.152 7.41 4.18 9.07
7/5/2021 12:30:00 AM 16.07 60.926 0.152 7.41 4.15 9.08
7/5/2021 12:45:00 AM 15.98 60.764 0.153 7.4 4.28 9.1
7/5/2021 1:00:00 AM 15.9 60.62 0.153 7.41 4.11 9.11
7/5/2021 1:15:00 AM 15.81 60.458 0.154 7.4 4.1 9.13
7/5/2021 1:30:00 AM 15.73 60.314 0.154 7.4 3.94 9.15
7/5/2021 1:45:00 AM 15.65 60.17 0.155 7.41 3.74 9.17
7/5/2021 2:00:00 AM 15.56 60.008 0.155 7.4 4.2 9.19
7/5/2021 2:15:00 AM 15.48 59.864 0.155 7.41 4.01 9.2
7/5/2021 2:30:00 AM 15.4 59.72 0.155 7.4 4.09 9.21
7/5/2021 2:45:00 AM 15.32 59.576 0.155 7.41 3.76 9.23
7/5/2021 3:00:00 AM 15.25 59.45 0.155 7.4 3.79 9.25
7/5/2021 3:15:00 AM 15.17 59.306 0.155 7.4 3.79 9.27
7/5/2021 3:30:00 AM 15.1 59.18 0.155 7.4 3.78 9.28
7/5/2021 3:45:00 AM 15.03 59.054 0.155 7.4 3.78 9.31
7/5/2021 4:00:00 AM 14.95 58.91 0.155 7.4 3.92 9.32
7/5/2021 4:15:00 AM 14.89 58.802 0.155 7.4 3.94 9.34
7/5/2021 4:30:00 AM 14.82 58.676 0.155 7.4 4.27 9.35
7/5/2021 4:45:00 AM 14.75 58.55 0.155 7.4 4.08 9.37
7/5/2021 5:00:00 AM 14.69 58.442 0.155 7.39 4.37 9.38
7/5/2021 5:15:00 AM 14.63 58.334 0.155 7.4 4.54 9.4
7/5/2021 5:30:00 AM 14.57 58.226 0.155 7.4 5.58 9.42
7/5/2021 5:45:00 AM 14.51 58.118 0.155 7.4 3.84 9.43
7/5/2021 6:00:00 AM 14.45 58.01 0.154 7.39 3.64 9.45
7/5/2021 6:15:00 AM 14.4 57.92 0.154 7.4 3.12 9.47
7/5/2021 6:30:00 AM 14.35 57.83 0.154 7.4 3.36 9.5
7/5/2021 6:45:00 AM 14.31 57.758 0.154 7.4 3.37 9.53
7/5/2021 7:00:00 AM 14.27 57.686 0.154 7.4 3.45 9.56
7/5/2021 7:15:00 AM 14.25 57.65 0.154 7.41 3.46 9.59
7/5/2021 7:30:00 AM 14.22 57.596 0.154 7.42 3.19 9.62
7/5/2021 7:45:00 AM 14.21 57.578 0.154 7.42 3.11 9.65
7/5/2021 8:00:00 AM 14.21 57.578 0.153 7.43 2.95 9.68
7/5/2021 8:15:00 AM 14.22 57.596 0.153 7.44 2.76 9.72
7/5/2021 8:30:00 AM 14.24 57.632 0.153 7.45 2.69 9.76
7/5/2021 8:45:00 AM 14.28 57.704 0.153 7.46 2.45 9.79
7/5/2021 9:00:00 AM 14.34 57.812 0.153 7.47 2.41 9.82
7/5/2021 9:15:00 AM 14.42 57.956 0.154 7.47 2.52 9.85
7/5/2021 9:30:00 AM 14.51 58.118 0.154 7.49 2.29 9.88
7/5/2021 9:45:00 AM 14.61 58.298 0.154 7.49 2.38 9.9
7/5/2021 10:00:00 AM 14.73 58.514 0.154 7.51 2.26 9.92
7/5/2021 10:15:00 AM 14.87 58.766 0.154 7.52 2.48 9.94
7/5/2021 10:30:00 AM 15.02 59.036 0.154 7.53 2.16 9.94
7/5/2021 10:45:00 AM 15.17 59.306 0.154 7.54 2.31 9.94
7/5/2021 11:00:00 AM 15.35 59.63 0.154 7.55 2.02 9.95
7/5/2021 11:15:00 AM 15.56 60.008 0.154 7.56 2.24 9.96
7/5/2021 11:30:00 AM 15.78 60.404 0.154 7.58 2.29 9.94
7/5/2021 11:45:00 AM 16.02 60.836 0.154 7.59 2.44 9.93
7/5/2021 12:00:00 PM 16.29 61.322 0.154 7.6 2.39 9.92
7/5/2021 12:15:00 PM 16.57 61.826 0.155 7.62 2.13 9.91
7/5/2021 12:30:00 PM 16.87 62.366 0.155 7.64 2.15 9.9
7/5/2021 12:45:00 PM 17.17 62.906 0.155 7.65 2.15 9.88
7/5/2021 1:00:00 PM 17.44 63.392 0.155 7.67 2.41 9.86
7/5/2021 1:15:00 PM 17.7 63.86 0.155 7.68 2.15 9.84
7/5/2021 1:30:00 PM 17.98 64.364 0.155 7.7 2.52 9.82
7/5/2021 1:45:00 PM 18.21 64.778 0.155 7.72 2.22 9.79
7/5/2021 2:00:00 PM 18.41 65.138 0.155 7.73 2.45 9.75
7/5/2021 2:15:00 PM 18.63 65.534 0.156 7.74 2.57 9.71
7/5/2021 2:30:00 PM 18.79 65.82201 0.156 7.75 2.46 9.66
7/5/2021 2:45:00 PM 18.88 65.984 0.156 7.76 3.52 9.62
7/5/2021 3:00:00 PM 18.96 66.128 0.156 7.76 3.97 9.57
7/5/2021 3:15:00 PM 19.01 66.218 0.156 7.75 3.83 9.51
7/5/2021 3:30:00 PM 19.05 66.29 0.156 7.74 3.77 9.46
7/5/2021 3:45:00 PM 19.07 66.326 0.156 7.72 3.6 9.42
7/5/2021 4:00:00 PM 19.09 66.362 0.155 7.72 3.29 9.38
7/5/2021 4:15:00 PM 19.1 66.38 0.155 7.72 3.11 9.35
7/5/2021 4:30:00 PM 19.09 66.362 0.155 7.71 3.21 9.31
7/5/2021 4:45:00 PM 19.07 66.326 0.155 7.7 2.68 9.27
7/5/2021 5:00:00 PM 19.05 66.29 0.155 7.69 2.87 9.23
7/5/2021 5:15:00 PM 19.01 66.218 0.156 7.67 2.77 9.19
7/5/2021 5:30:00 PM 18.97 66.146 0.156 7.66 2.79 9.14
7/5/2021 5:45:00 PM 18.92 66.056 0.157 7.64 2.84 9.09
7/5/2021 6:00:00 PM 18.88 65.984 0.157 7.63 2.77 9.06
7/5/2021 6:15:00 PM 18.84 65.912 0.157 7.62 2.63 9.02
7/5/2021 6:30:00 PM 18.8 65.84 0.158 7.6 2.8 8.99
7/5/2021 6:45:00 PM 18.75 65.75 0.159 7.6 2.67 8.96
7/5/2021 7:00:00 PM 18.71 65.67799 0.159 7.57 2.8 8.94
7/5/2021 7:15:00 PM 18.66 65.588 0.16 7.56 2.68 8.91
7/5/2021 7:30:00 PM 18.61 65.498 0.161 7.55 2.51 8.87
7/5/2021 7:45:00 PM 18.55 65.39 0.163 7.53 4.41 8.85
7/5/2021 8:00:00 PM 18.5 65.3 0.164 7.52 2.71 8.81
7/5/2021 8:15:00 PM 18.46 65.228 0.165 7.51 2.84 8.77
7/5/2021 8:30:00 PM 18.41 65.138 0.166 7.5 2.77 8.74
7/5/2021 8:45:00 PM 18.37 65.066 0.167 7.49 3.23 8.71
7/5/2021 9:00:00 PM 18.33 64.994 0.168 7.48 3.2 8.68
7/5/2021 9:15:00 PM 18.3 64.94 0.169 7.47 3.25 8.66
7/5/2021 9:30:00 PM 18.26 64.868 0.17 7.46 3.48 8.64
7/5/2021 9:45:00 PM 18.23 64.814 0.171 7.46 3.54 8.62
7/5/2021 10:00:00 PM 18.19 64.742 0.171 7.45 3.6 8.62
7/5/2021 10:15:00 PM 18.16 64.688 0.171 7.44 3.47 8.6
7/5/2021 10:30:00 PM 18.13 64.634 0.171 7.43 4.1 8.6
7/5/2021 10:45:00 PM 18.1 64.58 0.171 7.43 3.87 8.59
7/5/2021 11:00:00 PM 18.06 64.508 0.171 7.42 3.82 8.58
7/5/2021 11:15:00 PM 18.03 64.454 0.17 7.42 4.15 8.59
7/5/2021 11:30:00 PM 17.99 64.382 0.17 7.42 4.64 8.6
7/5/2021 11:45:00 PM 17.95 64.31 0.17 7.41 4.14 8.61
7/6/2021 12:00:00 AM 17.91 64.238 0.169 7.41 3.8 8.6
7/6/2021 12:15:00 AM 17.87 64.166 0.169 7.41 4.88 8.61
7/6/2021 12:30:00 AM 17.83 64.094 0.169 7.41 4.27 8.63
7/6/2021 12:45:00 AM 17.79 64.022 0.168 7.4 3.77 8.62
7/6/2021 1:00:00 AM 17.75 63.95 0.168 7.4 3.95 8.63
7/6/2021 1:15:00 AM 17.7 63.86 0.168 7.39 3.85 8.62
7/6/2021 1:30:00 AM 17.65 63.77 0.168 7.39 3.7 8.63
7/6/2021 1:45:00 AM 17.61 63.698 0.168 7.38 3.65 8.63
7/6/2021 2:00:00 AM 17.56 63.608 0.168 7.38 3.76 8.64
7/6/2021 2:15:00 AM 17.51 63.518 0.168 7.38 3.65 8.64
7/6/2021 2:30:00 AM 17.46 63.428 0.167 7.37 3.67 8.63
7/6/2021 2:45:00 AM 17.41 63.338 0.167 7.37 4.17 8.62
7/6/2021 3:00:00 AM 17.37 63.266 0.167 7.36 3.59 8.62
7/6/2021 3:15:00 AM 17.33 63.194 0.168 7.36 3.43 8.63
7/6/2021 3:30:00 AM 17.29 63.122 0.168 7.36 3.57 8.64
7/6/2021 3:45:00 AM 17.24 63.032 0.168 7.36 3.55 8.66
7/6/2021 4:00:00 AM 17.2 62.96 0.168 7.36 3.5 8.68
7/6/2021 4:15:00 AM 17.16 62.888 0.168 7.36 3.62 8.68
7/6/2021 4:30:00 AM 17.13 62.834 0.168 7.36 3.8 8.69
7/6/2021 4:45:00 AM 17.09 62.762 0.168 7.36 3.97 8.69
7/6/2021 5:00:00 AM 17.06 62.708 0.168 7.36 3.61 8.69
7/6/2021 5:15:00 AM 17.03 62.654 0.168 7.35 3.72 8.69
7/6/2021 5:30:00 AM 17 62.6 0.168 7.35 3.52 8.68
7/6/2021 5:45:00 AM 16.97 62.546 0.168 7.34 3.78 8.69
7/6/2021 6:00:00 AM 16.93 62.474 0.168 7.35 3.81 8.71
7/6/2021 6:15:00 AM 16.91 62.438 0.168 7.34 3.32 8.71
7/6/2021 6:30:00 AM 16.89 62.402 0.168 7.34 3.45 8.72
7/6/2021 6:45:00 AM 16.89 62.402 0.169 7.34 3.35 8.74
7/6/2021 7:00:00 AM 16.9 62.42 0.169 7.34 3.36 8.79
7/6/2021 7:15:00 AM 16.91 62.438 0.169 7.35 2.86 8.85
7/6/2021 7:30:00 AM 16.93 62.474 0.169 7.37 2.89 8.92
7/6/2021 7:45:00 AM 16.97 62.546 0.169 7.38 3.2 9
7/6/2021 8:00:00 AM 17.02 62.636 0.169 7.39 3.27 9.07
7/6/2021 8:15:00 AM 17.06 62.708 0.168 7.4 3.22 9.12
7/6/2021 8:30:00 AM 17.1 62.78 0.168 7.42 2.74 9.16
7/6/2021 8:45:00 AM 17.14 62.852 0.168 7.42 2.99 9.2
7/6/2021 9:00:00 AM 17.18 62.924 0.168 7.43 2.52 9.22
7/6/2021 9:15:00 AM 17.2 62.96 0.168 7.43 2.83 9.2
7/6/2021 9:30:00 AM 17.24 63.032 0.168 7.44 2.26 9.21
7/6/2021 9:45:00 AM 17.28 63.104 0.168 7.44 2.67 9.24
7/6/2021 10:00:00 AM 17.33 63.194 0.168 7.45 2.27 9.26
7/6/2021 10:15:00 AM 17.42 63.356 0.168 7.46 2.37 9.31
7/6/2021 10:30:00 AM 17.53 63.554 0.168 7.47 2.55 9.36
7/6/2021 10:45:00 AM 17.61 63.698 0.168 7.49 2.48 9.4
7/6/2021 11:00:00 AM 17.7 63.86 0.168 7.51 2.1 9.42
7/6/2021 11:15:00 AM 17.9 64.22 0.168 7.53 2.47 9.48
7/6/2021 11:30:00 AM 18.04 64.472 0.168 7.57 2.2 9.5
7/6/2021 11:45:00 AM 18.16 64.688 0.168 7.59 2.15 9.52
7/6/2021 12:00:00 PM 18.28 64.904 0.168 7.61 2.11 9.53
7/6/2021 12:15:00 PM 18.51 65.318 0.167 7.63 2.07 9.54
7/6/2021 12:30:00 PM 18.71 65.67799 0.167 7.66 2.01 9.55
7/6/2021 12:45:00 PM 18.89 66.002 0.167 7.68 2.04 9.57
7/6/2021 1:00:00 PM 19.17 66.506 0.168 7.7 1.96 9.57
7/6/2021 1:15:00 PM 19.34 66.812 0.168 7.72 2.06 9.56
7/6/2021 1:30:00 PM 19.24 66.632 0.168 7.72 1.92 9.45
7/6/2021 1:45:00 PM 19.37 66.866 0.168 7.72 1.93 9.41
7/6/2021 2:00:00 PM 19.63 67.334 0.168 7.73 2.03 9.44
7/6/2021 2:15:00 PM 19.71 67.478 0.168 7.74 2.24 9.39
7/6/2021 2:30:00 PM 19.61 67.298 0.166 7.73 4.41 9.2
7/6/2021 2:45:00 PM 19.54 67.172 0.166 7.7 4.29 9.07
7/6/2021 3:00:00 PM 19.51 67.118 0.166 7.68 5.03 8.98
7/6/2021 3:15:00 PM 19.47 67.046 0.167 7.66 4.17 8.96
7/6/2021 3:30:00 PM 19.47 67.046 0.167 7.66 3.7 9.01
7/6/2021 3:45:00 PM 19.38 66.884 0.167 7.66 3.58 9.02
7/6/2021 4:00:00 PM 19.34 66.812 0.167 7.66 3.59 9.05
7/6/2021 4:15:00 PM 19.4 66.92 0.167 7.66 3.09 9.11
7/6/2021 4:30:00 PM 19.48 67.064 0.167 7.67 3.27 9.15
7/6/2021 4:45:00 PM 19.49 67.082 0.167 7.69 3.62 9.15
7/6/2021 5:00:00 PM 19.52 67.136 0.167 7.69 3.22 9.16
7/6/2021 5:15:00 PM 19.47 67.046 0.166 7.68 3.59 9.08
7/6/2021 5:30:00 PM 19.42 66.956 0.165 7.66 4.21 8.99
7/6/2021 5:45:00 PM 19.37 66.866 0.165 7.64 5.19 8.93
7/6/2021 6:00:00 PM 19.32 66.776 0.164 7.63 7.15 8.9
7/6/2021 6:15:00 PM 19.21 66.578 0.163 7.62 7.31 8.87
7/6/2021 6:30:00 PM 19.12 66.416 0.163 7.6 8.73 8.83
7/6/2021 6:45:00 PM 19.08 66.344 0.162 7.57 10.01 8.79
7/6/2021 7:00:00 PM 19.06 66.308 0.161 7.54 11.2 8.75
7/6/2021 7:15:00 PM 19.04 66.272 0.161 7.53 11.75 8.74
7/6/2021 7:30:00 PM 19.01 66.218 0.16 7.52 12.55 8.72
7/6/2021 7:45:00 PM 18.97 66.146 0.161 7.51 12.39 8.7
7/6/2021 8:00:00 PM 18.92 66.056 0.161 7.49 10.86 8.68
7/6/2021 8:15:00 PM 18.86 65.948 0.163 7.47 10.4 8.67
7/6/2021 8:30:00 PM 18.79 65.82201 0.164 7.47 9.46 8.66
7/6/2021 8:45:00 PM 18.73 65.714 0.164 7.45 9.26 8.64
7/6/2021 9:00:00 PM 18.67 65.606 0.165 7.45 9.33 8.63
7/6/2021 9:15:00 PM 18.62 65.516 0.166 7.44 8.92 8.62
7/6/2021 9:30:00 PM 18.58 65.444 0.167 7.44 8.8 8.61
7/6/2021 9:45:00 PM 18.54 65.372 0.168 7.43 8.53 8.61
7/6/2021 10:00:00 PM 18.5 65.3 0.168 7.42 8.15 8.6
7/6/2021 10:15:00 PM 18.46 65.228 0.169 7.41 7.88 8.6
7/6/2021 10:30:00 PM 18.42 65.156 0.169 7.4 7.83 8.61
7/6/2021 10:45:00 PM 18.38 65.084 0.169 7.4 7.35 8.62
7/6/2021 11:00:00 PM 18.34 65.012 0.168 7.4 6.78 8.63
7/6/2021 11:15:00 PM 18.3 64.94 0.168 7.39 7.08 8.64
7/6/2021 11:30:00 PM 18.25 64.85 0.167 7.38 7.38 8.65
7/6/2021 11:45:00 PM 18.21 64.778 0.166 7.38 6.76 8.65
7/7/2021 12:00:00 AM 18.18 64.724 0.165 7.37 7.03 8.66
7/7/2021 12:15:00 AM 18.14 64.652 0.164 7.36 8.93 8.67
7/7/2021 12:30:00 AM 18.11 64.598 0.164 7.36 7.29 8.68
7/7/2021 12:45:00 AM 18.07 64.526 0.163 7.36 6.66 8.68
7/7/2021 1:00:00 AM 18.04 64.472 0.163 7.35 6.45 8.69
7/7/2021 1:15:00 AM 18 64.4 0.163 7.35 6.01 8.7
7/7/2021 1:30:00 AM 17.96 64.328 0.163 7.36 6.44 8.71
7/7/2021 1:45:00 AM 17.92 64.256 0.163 7.37 5.84 8.72
7/7/2021 2:00:00 AM 17.88 64.184 0.164 7.36 5.61 8.72
7/7/2021 2:15:00 AM 17.84 64.112 0.164 7.37 6.02 8.73
7/7/2021 2:30:00 AM 17.8 64.04 0.165 7.37 6.22 8.73
7/7/2021 2:45:00 AM 17.76 63.968 0.165 7.38 5.6 8.74
7/7/2021 3:00:00 AM 17.73 63.914 0.165 7.38 5.43 8.75
7/7/2021 3:15:00 AM 17.7 63.86 0.166 7.38 5.62 8.75
7/7/2021 3:30:00 AM 17.66 63.788 0.166 7.38 5.74 8.76
7/7/2021 3:45:00 AM 17.63 63.734 0.167 7.38 12.5 8.76
7/7/2021 4:00:00 AM 17.59 63.662 0.167 7.38 5.4 8.77
7/7/2021 4:15:00 AM 17.56 63.608 0.168 7.38 5.95 8.78
7/7/2021 4:30:00 AM 17.53 63.554 0.168 7.39 5.32 8.79
7/7/2021 4:45:00 AM 17.49 63.482 0.169 7.39 5.4 8.79
7/7/2021 5:00:00 AM 17.46 63.428 0.169 7.39 5.47 8.8
7/7/2021 5:15:00 AM 17.43 63.374 0.17 7.39 5.36 8.8
7/7/2021 5:30:00 AM 17.4 63.32 0.17 7.4 5.33 8.81
7/7/2021 5:45:00 AM 17.38 63.284 0.17 7.4 4.78 8.81
7/7/2021 6:00:00 AM 17.35 63.23 0.171 7.4 4.8 8.82
7/7/2021 6:15:00 AM 17.33 63.194 0.171 7.4 4.93 8.84
7/7/2021 6:30:00 AM 17.3 63.14 0.171 7.41 4.57 8.85
7/7/2021 6:45:00 AM 17.28 63.104 0.171 7.41 4.48 8.87
7/7/2021 7:00:00 AM 17.27 63.086 0.171 7.41 4.57 8.9
7/7/2021 7:15:00 AM 17.27 63.086 0.172 7.42 4.12 8.93
7/7/2021 7:30:00 AM 17.28 63.104 0.172 7.43 4.05 8.99
7/7/2021 7:45:00 AM 17.28 63.104 0.172 7.44 3.64 9.04
7/7/2021 8:00:00 AM 17.26 63.068 0.172 7.45 4.01 9.06
7/7/2021 8:15:00 AM 17.28 63.104 0.171 7.45 3.7 9.11
7/7/2021 8:30:00 AM 17.32 63.176 0.171 7.46 3.56 9.16
7/7/2021 8:45:00 AM 17.32 63.176 0.171 7.46 3.28 9.18
7/7/2021 9:00:00 AM 17.32 63.176 0.171 7.46 3.2 9.2
7/7/2021 9:15:00 AM 17.36 63.248 0.171 7.47 3.31 9.22
7/7/2021 9:30:00 AM 17.41 63.338 0.171 7.48 3.01 9.25
7/7/2021 9:45:00 AM 17.46 63.428 0.171 7.48 2.98 9.27
7/7/2021 10:00:00 AM 17.52 63.536 0.171 7.49 2.9 9.29
7/7/2021 10:15:00 AM 17.64 63.752 0.17 7.51 2.84 9.33
7/7/2021 10:30:00 AM 17.78 64.004 0.17 7.53 2.92 9.36
7/7/2021 10:45:00 AM 17.94 64.292 0.17 7.54 2.54 9.38
7/7/2021 11:00:00 AM 18.1 64.58 0.17 7.56 2.53 9.4
7/7/2021 11:15:00 AM 18.31 64.958 0.169 7.58 2.73 9.43
7/7/2021 11:30:00 AM 18.51 65.318 0.169 7.61 2.53 9.45
7/7/2021 11:45:00 AM 18.71 65.67799 0.169 7.63 2.5 9.47
7/7/2021 12:00:00 PM 18.86 65.948 0.169 7.65 2.57 9.46
7/7/2021 12:15:00 PM 19.06 66.308 0.168 7.66 2.65 9.46
7/7/2021 12:30:00 PM 19.2 66.56 0.168 7.68 2.62 9.44
7/7/2021 12:45:00 PM 19.28 66.704 0.168 7.68 2.48 9.38
7/7/2021 1:00:00 PM 19.49 67.082 0.168 7.69 2.54 9.39
7/7/2021 1:15:00 PM 19.72 67.496 0.167 7.7 2.13 9.39
7/7/2021 1:30:00 PM 19.84 67.712 0.167 7.71 2.1 9.39
7/7/2021 1:45:00 PM 19.8 67.64 0.167 7.71 2.38 9.33
7/7/2021 2:00:00 PM 20.04 68.07201 0.167 7.72 2.26 9.33
7/7/2021 2:15:00 PM 20.1 68.18 0.167 7.72 2.22 9.29
7/7/2021 2:30:00 PM 20.35 68.63 0.167 7.74 2.34 9.29
7/7/2021 2:45:00 PM 20.52 68.936 0.167 7.75 2.25 9.3
7/7/2021 3:00:00 PM 20.42 68.756 0.167 7.74 2.38 9.21
7/7/2021 3:15:00 PM 20.6 69.08 0.166 7.74 2.49 9.21
7/7/2021 3:30:00 PM 20.77 69.386 0.166 7.75 2.22 9.21
7/7/2021 3:45:00 PM 20.73 69.314 0.166 7.75 2.5 9.13
7/7/2021 4:00:00 PM 20.61 69.098 0.167 7.72 2.97 9
7/7/2021 4:15:00 PM 20.58 69.044 0.167 7.7 2.62 8.93
7/7/2021 4:30:00 PM 20.6 69.08 0.167 7.68 2.58 8.89
7/7/2021 4:45:00 PM 20.58 69.044 0.167 7.66 2.41 8.87
7/7/2021 5:00:00 PM 20.51 68.918 0.167 7.65 2.74 8.84
7/7/2021 5:15:00 PM 20.51 68.918 0.167 7.64 2.88 8.86
7/7/2021 5:30:00 PM 20.41 68.738 0.167 7.63 3.08 8.84
7/7/2021 5:45:00 PM 20.32 68.576 0.167 7.62 2.86 8.79
7/7/2021 6:00:00 PM 20.29 68.522 0.168 7.61 2.87 8.75
7/7/2021 6:15:00 PM 20.27 68.486 0.168 7.6 2.75 8.7
7/7/2021 6:30:00 PM 20.26 68.468 0.168 7.58 2.74 8.67
7/7/2021 6:45:00 PM 20.24 68.432 0.168 7.57 2.76 8.63
7/7/2021 7:00:00 PM 20.2 68.36 0.168 7.56 2.87 8.59
7/7/2021 7:15:00 PM 20.15 68.27 0.169 7.54 2.84 8.54
7/7/2021 7:30:00 PM 20.11 68.198 0.169 7.53 3.3 8.5
7/7/2021 7:45:00 PM 20.08 68.144 0.169 7.51 3.01 8.46
7/7/2021 8:00:00 PM 20.04 68.07201 0.17 7.49 3.15 8.42
7/7/2021 8:15:00 PM 20 68 0.17 7.48 3.46 8.38
7/7/2021 8:30:00 PM 19.96 67.92799 0.17 7.46 3.12 8.35
7/7/2021 8:45:00 PM 19.91 67.838 0.171 7.45 2.98 8.32
7/7/2021 9:00:00 PM 19.86 67.748 0.171 7.45 3.48 8.29
7/7/2021 9:15:00 PM 19.81 67.658 0.171 7.44 3.89 8.27
7/7/2021 9:30:00 PM 19.76 67.568 0.172 7.44 3.59 8.25
7/7/2021 9:45:00 PM 19.72 67.496 0.172 7.43 3.7 8.24
7/7/2021 10:00:00 PM 19.68 67.424 0.172 7.43 3.55 8.23
7/7/2021 10:15:00 PM 19.59 67.262 0.16 7.45 20.75 8.46
7/7/2021 10:30:00 PM 19.5 67.1 0.156 7.41 37.22 8.46
7/7/2021 10:45:00 PM 19.42 66.956 0.154 7.4 50.84 8.46
7/7/2021 11:00:00 PM 19.3 66.74 0.142 7.31 199.91 8.47
7/7/2021 11:15:00 PM 19.23 66.614 0.13 7.27 160.4 8.45
7/7/2021 11:30:00 PM 19.13 66.434 0.124 7.25 159.25 8.43
7/7/2021 11:45:00 PM 19.04 66.272 0.12 7.21 148.86 8.43
7/8/2021 12:00:00 AM 19 66.2 0.123 7.2 126.13 8.39
7/8/2021 12:15:00 AM 18.94 66.092 0.125 7.18 128.52 8.38
7/8/2021 12:30:00 AM 18.85 65.93 0.119 7.17 102.34 8.42
7/8/2021 12:45:00 AM 18.75 65.75 0.114 7.16 91.07 8.45
7/8/2021 1:00:00 AM 18.67 65.606 0.114 7.16 90.88 8.48
7/8/2021 1:15:00 AM 18.64 65.552 0.118 7.15 63.13 8.48
7/8/2021 1:30:00 AM 18.61 65.498 0.122 7.16 60.58 8.48
7/8/2021 1:45:00 AM 18.59 65.462 0.127 7.17 65.56 8.49
7/8/2021 2:00:00 AM 18.56 65.408 0.129 7.19 36.94 8.51
7/8/2021 2:15:00 AM 18.51 65.318 0.129 7.2 45.81 8.54
7/8/2021 2:30:00 AM 18.47 65.246 0.131 7.21 52.82 8.55
7/8/2021 2:45:00 AM 18.47 65.246 0.135 7.22 52.51 8.55
7/8/2021 3:00:00 AM 18.5 65.3 0.141 7.24 45.5 8.54
7/8/2021 3:15:00 AM 18.52 65.336 0.146 7.25 42.67 8.53
7/8/2021 3:30:00 AM 18.5 65.3 0.148 7.27 41.99 8.55
7/8/2021 3:45:00 AM 18.39 65.102 0.143 7.27 43.03 8.59
7/8/2021 4:00:00 AM 18.22 64.796 0.134 7.25 40.78 8.64
7/8/2021 4:15:00 AM 18.05 64.49 0.13 7.24 45.89 8.68
7/8/2021 4:30:00 AM 17.97 64.346 0.131 7.24 46.06 8.7
7/8/2021 4:45:00 AM 17.94 64.292 0.136 7.25 34.56 8.71
7/8/2021 5:00:00 AM 17.95 64.31 0.142 7.26 37.31 8.69
7/8/2021 5:15:00 AM 17.96 64.328 0.146 7.27 43.42 8.69
7/8/2021 5:30:00 AM 17.94 64.292 0.149 7.27 32.66 8.69
7/8/2021 5:45:00 AM 17.91 64.238 0.15 7.27 28.17 8.71
7/8/2021 6:00:00 AM 17.87 64.166 0.149 7.27 27.07 8.72
7/8/2021 6:15:00 AM 17.83 64.094 0.148 7.27 30.48 8.72
7/8/2021 6:30:00 AM 17.79 64.022 0.146 7.26 23.94 8.75
7/8/2021 6:45:00 AM 17.77 63.986 0.144 7.25 24.46 8.75
7/8/2021 7:00:00 AM 17.75 63.95 0.142 7.25 27.33 8.76
7/8/2021 7:15:00 AM 17.74 63.932 0.139 7.24 31.19 8.78
7/8/2021 7:30:00 AM 17.73 63.914 0.137 7.24 28.95 8.8
7/8/2021 7:45:00 AM 17.72 63.896 0.135 7.23 27.8 8.81
7/8/2021 8:00:00 AM 17.71 63.878 0.133 7.23 29.68 8.81
7/8/2021 8:15:00 AM 17.7 63.86 0.131 7.23 28.97 8.82
7/8/2021 8:30:00 AM 17.69 63.842 0.13 7.23 27.41 8.82
7/8/2021 8:45:00 AM 17.7 63.86 0.129 7.22 26.94 8.84
7/8/2021 9:00:00 AM 17.71 63.878 0.128 7.23 28.37 8.87
7/8/2021 9:15:00 AM 17.74 63.932 0.127 7.23 18.31 8.9
7/8/2021 9:30:00 AM 17.78 64.004 0.127 7.24 26.39 8.93
7/8/2021 9:45:00 AM 17.82 64.076 0.127 7.25 29.89 8.96
7/8/2021 10:00:00 AM 17.87 64.166 0.126 7.27 27.05 8.99
7/8/2021 10:15:00 AM 17.94 64.292 0.126 7.27 23.07 9.03
7/8/2021 10:30:00 AM 18.01 64.418 0.126 7.28 23.71 9.07
7/8/2021 10:45:00 AM 18.12 64.616 0.126 7.3 21.64 9.1
7/8/2021 11:00:00 AM 18.19 64.742 0.126 7.31 22 9.12
7/8/2021 11:15:00 AM 18.29 64.922 0.126 7.32 20.74 9.16
7/8/2021 11:30:00 AM 18.36 65.048 0.126 7.34 18.94 9.17
7/8/2021 11:45:00 AM 18.43 65.174 0.126 7.35 17.1 9.16
7/8/2021 12:00:00 PM 18.49 65.282 0.127 7.36 16.33 9.15
7/8/2021 12:15:00 PM 18.49 65.282 0.127 7.36 16.29 9.12
7/8/2021 12:30:00 PM 18.49 65.282 0.127 7.35 15.48 9.09
7/8/2021 12:45:00 PM 18.48 65.264 0.127 7.35 16.16 9.08
7/8/2021 1:00:00 PM 18.47 65.246 0.127 7.35 14.95 9.06
7/8/2021 1:15:00 PM 18.46 65.228 0.128 7.35 14.18 9.03
7/8/2021 1:30:00 PM 18.46 65.228 0.128 7.34 13.14 9.02
7/8/2021 1:45:00 PM 18.46 65.228 0.128 7.34 13.37 9.02
7/8/2021 2:00:00 PM 18.53 65.354 0.128 7.35 12.51 9.06
7/8/2021 2:15:00 PM 18.62 65.516 0.129 7.37 11.47 9.11
7/8/2021 2:30:00 PM 18.69 65.642 0.129 7.39 11.71 9.16
7/8/2021 2:45:00 PM 18.72 65.696 0.129 7.39 11.28 9.14
7/8/2021 3:00:00 PM 18.78 65.804 0.129 7.4 10.89 9.12
7/8/2021 3:15:00 PM 18.77 65.786 0.13 7.4 10.51 9.07
7/8/2021 3:30:00 PM 18.74 65.732 0.13 7.39 10.71 9.03
7/8/2021 3:45:00 PM 18.72 65.696 0.13 7.39 9.51 9.01
7/8/2021 4:00:00 PM 18.74 65.732 0.13 7.39 10.1 9.02
7/8/2021 4:15:00 PM 18.76 65.768 0.131 7.4 9.56 9.04
7/8/2021 4:30:00 PM 18.81 65.858 0.131 7.41 9.03 9.06
7/8/2021 4:45:00 PM 18.85 65.93 0.131 7.42 9.08 9.07
7/8/2021 5:00:00 PM 18.88 65.984 0.131 7.42 9.36 9.05
7/8/2021 5:15:00 PM 18.88 65.984 0.132 7.42 8.58 9.03
7/8/2021 5:30:00 PM 18.85 65.93 0.132 7.41 8.68 8.99
7/8/2021 5:45:00 PM 18.81 65.858 0.132 7.41 8.6 8.95
7/8/2021 6:00:00 PM 18.77 65.786 0.133 7.4 8.31 8.91
7/8/2021 6:15:00 PM 18.74 65.732 0.133 7.39 8.37 8.88
7/8/2021 6:30:00 PM 18.72 65.696 0.133 7.38 8.06 8.84
7/8/2021 6:45:00 PM 18.7 65.66 0.134 7.38 7.93 8.81
7/8/2021 7:00:00 PM 18.7 65.66 0.134 7.37 7.79 8.8
7/8/2021 7:15:00 PM 18.68 65.624 0.134 7.36 7.61 8.77
7/8/2021 7:30:00 PM 18.66 65.588 0.135 7.35 8.36 8.75
7/8/2021 7:45:00 PM 18.63 65.534 0.135 7.36 7.47 8.73
7/8/2021 8:00:00 PM 18.6 65.48 0.135 7.34 7.88 8.71
7/8/2021 8:15:00 PM 18.57 65.426 0.135 7.34 7.73 8.7
7/8/2021 8:30:00 PM 18.53 65.354 0.135 7.33 7.82 8.68
7/8/2021 8:45:00 PM 18.5 65.3 0.135 7.32 8.14 8.65
7/8/2021 9:00:00 PM 18.46 65.228 0.136 7.31 7.94 8.64
7/8/2021 9:15:00 PM 18.43 65.174 0.136 7.3 8.65 8.63
7/8/2021 9:30:00 PM 18.4 65.12 0.137 7.29 8.99 8.63
7/8/2021 9:45:00 PM 18.36 65.048 0.137 7.29 8.62 8.62
7/8/2021 10:00:00 PM 18.33 64.994 0.137 7.29 8.72 8.62
7/8/2021 10:15:00 PM 18.28 64.904 0.137 7.27 8.59 8.63
7/8/2021 10:30:00 PM 18.25 64.85 0.138 7.28 8.42 8.63
7/8/2021 10:45:00 PM 18.21 64.778 0.138 7.27 8.29 8.64
7/8/2021 11:00:00 PM 18.17 64.706 0.138 7.26 7.82 8.64
7/8/2021 11:15:00 PM 18.13 64.634 0.139 7.27 8.09 8.65
7/8/2021 11:30:00 PM 18.09 64.562 0.139 7.27 8.21 8.65
7/8/2021 11:45:00 PM 18.06 64.508 0.14 7.26 8.07 8.66
7/9/2021 12:00:00 AM 18.02 64.436 0.14 7.26 7.34 8.67
7/9/2021 12:15:00 AM 17.98 64.364 0.14 7.27 7.23 8.68
7/9/2021 12:30:00 AM 17.95 64.31 0.141 7.27 7.1 8.68
7/9/2021 12:45:00 AM 17.91 64.238 0.141 7.27 6.93 8.7
7/9/2021 1:00:00 AM 17.88 64.184 0.141 7.27 7 8.7
7/9/2021 1:15:00 AM 17.85 64.13 0.141 7.27 7.24 8.7
7/9/2021 1:30:00 AM 17.82 64.076 0.141 7.27 6.73 8.71
7/9/2021 1:45:00 AM 17.79 64.022 0.142 7.27 6.7 8.72
7/9/2021 2:00:00 AM 17.76 63.968 0.142 7.27 6.86 8.72
7/9/2021 2:15:00 AM 17.72 63.896 0.142 7.27 6.56 8.73
7/9/2021 2:30:00 AM 17.69 63.842 0.142 7.28 6.69 8.74
7/9/2021 2:45:00 AM 17.65 63.77 0.142 7.28 6.4 8.74
7/9/2021 3:00:00 AM 17.61 63.698 0.143 7.29 6.96 8.75
7/9/2021 3:15:00 AM 17.57 63.626 0.143 7.28 6.42 8.76
7/9/2021 3:30:00 AM 17.53 63.554 0.143 7.29 6.47 8.77
7/9/2021 3:45:00 AM 17.49 63.482 0.144 7.29 6.55 8.78
7/9/2021 4:00:00 AM 17.45 63.41 0.144 7.29 6.52 8.78
7/9/2021 4:15:00 AM 17.42 63.356 0.144 7.29 6.3 8.8
7/9/2021 4:30:00 AM 17.38 63.284 0.144 7.29 6.78 8.8
7/9/2021 4:45:00 AM 17.34 63.212 0.144 7.29 6.62 8.81
7/9/2021 5:00:00 AM 17.3 63.14 0.144 7.29 6.54 8.82
7/9/2021 5:15:00 AM 17.26 63.068 0.145 7.3 7 8.82
7/9/2021 5:30:00 AM 17.21 62.978 0.145 7.3 6.44 8.83
7/9/2021 5:45:00 AM 17.17 62.906 0.145 7.3 6.24 8.85
7/9/2021 6:00:00 AM 17.14 62.852 0.145 7.3 5.94 8.85
7/9/2021 6:15:00 AM 17.1 62.78 0.145 7.3 6.08 8.87
7/9/2021 6:30:00 AM 17.07 62.726 0.145 7.3 6.02 8.88
7/9/2021 6:45:00 AM 17.05 62.69 0.145 7.3 5.86 8.9
7/9/2021 7:00:00 AM 17.02 62.636 0.145 7.29 5.67 8.92
7/9/2021 7:15:00 AM 17 62.6 0.145 7.29 5.48 8.95
7/9/2021 7:30:00 AM 16.99 62.582 0.146 7.29 5.11 8.97
7/9/2021 7:45:00 AM 16.97 62.546 0.146 7.3 5.65 9
7/9/2021 8:00:00 AM 16.97 62.546 0.146 7.3 5.18 9.05
7/9/2021 8:15:00 AM 16.98 62.564 0.146 7.32 5.4 9.1
7/9/2021 8:30:00 AM 16.99 62.582 0.146 7.32 4.78 9.15
7/9/2021 8:45:00 AM 17.04 62.672 0.147 7.34 4.45 9.22
7/9/2021 9:00:00 AM 17.06 62.708 0.147 7.35 4.53 9.24
7/9/2021 9:15:00 AM 17.08 62.744 0.147 7.36 4.01 9.26
7/9/2021 9:30:00 AM 17.14 62.852 0.147 7.37 4.22 9.31
7/9/2021 9:45:00 AM 17.16 62.888 0.147 7.39 3.79 9.31
7/9/2021 10:00:00 AM 17.21 62.978 0.147 7.4 3.97 9.34
7/9/2021 10:15:00 AM 17.35 63.23 0.147 7.41 3.71 9.37
7/9/2021 10:30:00 AM 17.38 63.284 0.147 7.43 3.61 9.37
7/9/2021 10:45:00 AM 17.45 63.41 0.147 7.45 3.85 9.4
7/9/2021 11:00:00 AM 17.62 63.716 0.148 7.47 3.79 9.44
7/9/2021 11:15:00 AM 17.72 63.896 0.148 7.48 3.45 9.44
7/9/2021 11:30:00 AM 17.83 64.094 0.148 7.49 3.27 9.44
7/9/2021 11:45:00 AM 18.01 64.418 0.148 7.51 3.27 9.46
7/9/2021 12:00:00 PM 18.14 64.652 0.148 7.51 3.3 9.45
7/9/2021 12:15:00 PM 18.29 64.922 0.148 7.53 3.05 9.46
7/9/2021 12:30:00 PM 18.52 65.336 0.148 7.54 3.2 9.46
7/9/2021 12:45:00 PM 18.64 65.552 0.148 7.56 2.74 9.45
7/9/2021 1:00:00 PM 18.8 65.84 0.148 7.57 3.06 9.44
7/9/2021 1:15:00 PM 19.02 66.236 0.148 7.58 2.98 9.43
7/9/2021 1:30:00 PM 19.17 66.506 0.148 7.59 3.26 9.41
7/9/2021 1:45:00 PM 19.28 66.704 0.148 7.6 3.14 9.39
7/9/2021 2:00:00 PM 19.44 66.992 0.148 7.6 2.86 9.38
7/9/2021 2:15:00 PM 19.65 67.37 0.148 7.62 2.85 9.38
7/9/2021 2:30:00 PM 19.83 67.694 0.148 7.62 2.92 9.35
7/9/2021 2:45:00 PM 19.75 67.55 0.148 7.62 2.9 9.27
7/9/2021 3:00:00 PM 19.63 67.334 0.147 7.59 3.09 9.13
7/9/2021 3:15:00 PM 19.56 67.208 0.144 7.56 6.73 9.01
7/9/2021 3:30:00 PM 19.4 66.92 0.139 7.5 17.01 8.91
7/9/2021 3:45:00 PM 19.21 66.578 0.138 7.44 47.35 8.8
7/9/2021 4:00:00 PM 19.14 66.452 0.122 7.32 143.36 8.71
7/9/2021 4:15:00 PM 19.12 66.416 0.119 7.28 95.11 8.64
7/9/2021 4:30:00 PM 19.1 66.38 0.119 7.25 74.61 8.58
7/9/2021 4:45:00 PM 19.16 66.488 0.121 7.24 69.74 8.56
7/9/2021 5:00:00 PM 19.16 66.488 0.124 7.24 50.82 8.6
7/9/2021 5:15:00 PM 19.18 66.524 0.127 7.24 40.08 8.63
7/9/2021 5:30:00 PM 19.16 66.488 0.128 7.24 37.25 8.64
7/9/2021 5:45:00 PM 19.12 66.416 0.129 7.25 25 8.64
7/9/2021 6:00:00 PM 19.07 66.326 0.131 7.25 23.63 8.64
7/9/2021 6:15:00 PM 19.01 66.218 0.134 7.26 18.95 8.62
7/9/2021 6:30:00 PM 18.95 66.11 0.136 7.26 16.98 8.62
7/9/2021 6:45:00 PM 18.9 66.02 0.138 7.27 15.64 8.63
7/9/2021 7:00:00 PM 18.85 65.93 0.14 7.28 14.3 8.64
7/9/2021 7:15:00 PM 18.8 65.84 0.141 7.28 11.83 8.65
7/9/2021 7:30:00 PM 18.76 65.768 0.143 7.29 12.29 8.67
7/9/2021 7:45:00 PM 18.71 65.67799 0.144 7.3 14.34 8.65
7/9/2021 8:00:00 PM 18.67 65.606 0.144 7.29 16.7 8.66
7/9/2021 8:15:00 PM 18.63 65.534 0.144 7.3 15.87 8.65
7/9/2021 8:30:00 PM 18.58 65.444 0.144 7.3 14.75 8.65
7/9/2021 8:45:00 PM 18.54 65.372 0.144 7.29 13.94 8.65
7/9/2021 9:00:00 PM 18.5 65.3 0.144 7.3 13.18 8.64
7/9/2021 9:15:00 PM 18.48 65.264 0.144 7.3 12.02 8.64
7/9/2021 9:30:00 PM 18.46 65.228 0.145 7.29 12.3 8.63
7/9/2021 9:45:00 PM 18.45 65.21 0.146 7.29 10.87 8.62
7/9/2021 10:00:00 PM 18.44 65.192 0.147 7.3 10.79 8.62
7/9/2021 10:15:00 PM 18.42 65.156 0.149 7.31 10.24 8.63
7/9/2021 10:30:00 PM 18.4 65.12 0.151 7.3 10.43 8.63
7/9/2021 10:45:00 PM 18.37 65.066 0.153 7.31 9.69 8.63
7/9/2021 11:00:00 PM 18.33 64.994 0.154 7.32 9.1 8.64
7/9/2021 11:15:00 PM 18.29 64.922 0.155 7.32 9.07 8.65
7/9/2021 11:30:00 PM 18.26 64.868 0.156 7.31 8.68 8.65
7/9/2021 11:45:00 PM 18.22 64.796 0.156 7.32 8.28 8.66
7/10/2021 12:00:00 AM 18.19 64.742 0.155 7.32 8.53 8.67
7/10/2021 12:15:00 AM 18.14 64.652 0.155 7.31 8.08 8.67
7/10/2021 12:30:00 AM 18.1 64.58 0.154 7.32 8.87 8.68
7/10/2021 12:45:00 AM 18.06 64.508 0.152 7.31 9.4 8.69
7/10/2021 1:00:00 AM 18.02 64.436 0.151 7.31 9.92 8.69
7/10/2021 1:15:00 AM 17.99 64.382 0.15 7.31 10.98 8.69
7/10/2021 1:30:00 AM 17.95 64.31 0.148 7.3 11.94 8.69
7/10/2021 1:45:00 AM 17.91 64.238 0.147 7.3 12.95 8.69
7/10/2021 2:00:00 AM 17.87 64.166 0.146 7.29 12.66 8.7
7/10/2021 2:15:00 AM 17.82 64.076 0.145 7.29 13.04 8.7
7/10/2021 2:30:00 AM 17.78 64.004 0.144 7.29 14.04 8.71
7/10/2021 2:45:00 AM 17.73 63.914 0.143 7.29 13.3 8.71
7/10/2021 3:00:00 AM 17.68 63.824 0.142 7.28 13.87 8.72
7/10/2021 3:15:00 AM 17.63 63.734 0.142 7.29 13.37 8.74
7/10/2021 3:30:00 AM 17.58 63.644 0.141 7.28 13.74 8.74
7/10/2021 3:45:00 AM 17.54 63.572 0.141 7.27 13.32 8.74
7/10/2021 4:00:00 AM 17.49 63.482 0.141 7.28 12.21 8.76
7/10/2021 4:15:00 AM 17.45 63.41 0.141 7.28 11.44 8.77
7/10/2021 4:30:00 AM 17.4 63.32 0.141 7.28 11.42 8.78
7/10/2021 4:45:00 AM 17.36 63.248 0.141 7.28 12.08 8.79
7/10/2021 5:00:00 AM 17.32 63.176 0.141 7.28 11.76 8.81
7/10/2021 5:15:00 AM 17.28 63.104 0.141 7.28 10.64 8.81
7/10/2021 5:30:00 AM 17.23 63.014 0.141 7.28 10.35 8.81
7/10/2021 5:45:00 AM 17.19 62.942 0.141 7.28 10.42 8.83
7/10/2021 6:00:00 AM 17.15 62.87 0.141 7.28 9.59 8.84
7/10/2021 6:15:00 AM 17.11 62.798 0.141 7.28 9.1 8.85
7/10/2021 6:30:00 AM 17.07 62.726 0.141 7.28 8.42 8.87
7/10/2021 6:45:00 AM 17.03 62.654 0.141 7.29 8.05 8.89
7/10/2021 7:00:00 AM 16.99 62.582 0.141 7.28 8.2 8.91
7/10/2021 7:15:00 AM 16.97 62.546 0.141 7.3 7.69 8.93
7/10/2021 7:30:00 AM 16.93 62.474 0.142 7.29 7.16 8.95
7/10/2021 7:45:00 AM 16.9 62.42 0.142 7.3 7.22 8.98
7/10/2021 8:00:00 AM 16.87 62.366 0.142 7.3 7.23 8.99
7/10/2021 8:15:00 AM 16.85 62.33 0.142 7.3 6.62 9.03
7/10/2021 8:30:00 AM 16.83 62.294 0.142 7.32 6.1 9.06
7/10/2021 8:45:00 AM 16.81 62.258 0.142 7.32 6.07 9.09
7/10/2021 9:00:00 AM 16.79 62.222 0.142 7.33 5.93 9.12
7/10/2021 9:15:00 AM 16.77 62.186 0.142 7.32 5.44 9.14
7/10/2021 9:30:00 AM 16.78 62.204 0.142 7.34 5.5 9.2
7/10/2021 9:45:00 AM 16.79 62.222 0.143 7.35 5.39 9.27
7/10/2021 10:00:00 AM 16.81 62.258 0.143 7.37 5.24 9.33
7/10/2021 10:15:00 AM 16.82 62.276 0.143 7.38 4.94 9.38
7/10/2021 10:30:00 AM 16.88 62.384 0.143 7.4 4.87 9.43
7/10/2021 10:45:00 AM 16.9 62.42 0.143 7.41 4.65 9.48
7/10/2021 11:00:00 AM 16.9 62.42 0.143 7.42 4.77 9.49
7/10/2021 11:15:00 AM 16.95 62.51 0.143 7.43 4.51 9.51
7/10/2021 11:30:00 AM 17 62.6 0.143 7.44 4.49 9.54
7/10/2021 11:45:00 AM 17 62.6 0.144 7.45 4.03 9.54
7/10/2021 12:00:00 PM 16.99 62.582 0.144 7.45 3.79 9.53
7/10/2021 12:15:00 PM 16.99 62.582 0.144 7.45 3.62 9.5
7/10/2021 12:30:00 PM 17.03 62.654 0.144 7.46 3.53 9.53
7/10/2021 12:45:00 PM 17.03 62.654 0.144 7.46 3.33 9.53
7/10/2021 1:00:00 PM 17.04 62.672 0.144 7.47 3.23 9.53
7/10/2021 1:15:00 PM 17.09 62.762 0.144 7.47 3.14 9.53
7/10/2021 1:30:00 PM 17.16 62.888 0.144 7.48 3.17 9.55
7/10/2021 1:45:00 PM 17.19 62.942 0.144 7.49 3.11 9.57
7/10/2021 2:00:00 PM 17.28 63.104 0.145 7.5 3.29 9.61
7/10/2021 2:15:00 PM 17.45 63.41 0.145 7.52 3.1 9.64
7/10/2021 2:30:00 PM 17.46 63.428 0.145 7.53 2.81 9.65
7/10/2021 2:45:00 PM 17.5 63.5 0.145 7.54 3.1 9.65
7/10/2021 3:00:00 PM 17.54 63.572 0.145 7.55 2.83 9.62
7/10/2021 3:15:00 PM 17.76 63.968 0.145 7.56 2.94 9.64
7/10/2021 3:30:00 PM 17.93 64.274 0.146 7.57 2.98 9.64
7/10/2021 3:45:00 PM 17.86 64.148 0.146 7.57 3.02 9.59
7/10/2021 4:00:00 PM 17.99 64.382 0.146 7.57 2.98 9.58
7/10/2021 4:15:00 PM 18.03 64.454 0.146 7.57 3.28 9.55
7/10/2021 4:30:00 PM 17.99 64.382 0.146 7.56 3.2 9.49
7/10/2021 4:45:00 PM 17.95 64.31 0.147 7.55 2.94 9.44
7/10/2021 5:00:00 PM 17.91 64.238 0.147 7.53 2.79 9.36
7/10/2021 5:15:00 PM 17.94 64.292 0.147 7.52 3.18 9.32
7/10/2021 5:30:00 PM 17.92 64.256 0.147 7.51 3.29 9.26
7/10/2021 5:45:00 PM 17.9 64.22 0.147 7.49 3.24 9.2
7/10/2021 6:00:00 PM 17.9 64.22 0.148 7.48 3.22 9.16
7/10/2021 6:15:00 PM 17.88 64.184 0.148 7.47 3.28 9.13
7/10/2021 6:30:00 PM 17.84 64.112 0.148 7.46 3.03 9.09
7/10/2021 6:45:00 PM 17.79 64.022 0.148 7.45 3.18 9.06
7/10/2021 7:00:00 PM 17.73 63.914 0.148 7.44 3.28 9.04
7/10/2021 7:15:00 PM 17.66 63.788 0.148 7.43 3.48 9.02
7/10/2021 7:30:00 PM 17.59 63.662 0.148 7.43 3.61 9.01
7/10/2021 7:45:00 PM 17.53 63.554 0.149 7.42 3.62 8.99
7/10/2021 8:00:00 PM 17.48 63.464 0.149 7.42 3.6 8.98
7/10/2021 8:15:00 PM 17.44 63.392 0.149 7.41 3.65 8.96
7/10/2021 8:30:00 PM 17.4 63.32 0.149 7.41 3.63 8.96
7/10/2021 8:45:00 PM 17.36 63.248 0.149 7.4 3.52 8.94
7/10/2021 9:00:00 PM 17.32 63.176 0.149 7.39 3.95 8.94
7/10/2021 9:15:00 PM 17.28 63.104 0.149 7.38 3.84 8.92
7/10/2021 9:30:00 PM 17.23 63.014 0.149 7.37 4.65 8.92
7/10/2021 9:45:00 PM 17.18 62.924 0.15 7.37 4.25 8.9
7/10/2021 10:00:00 PM 17.13 62.834 0.15 7.37 4.4 8.91
7/10/2021 10:15:00 PM 17.07 62.726 0.15 7.37 3.81 8.92
7/10/2021 10:30:00 PM 17.02 62.636 0.15 7.36 4.24 8.91
7/10/2021 10:45:00 PM 16.97 62.546 0.15 7.36 4.51 8.92
7/10/2021 11:00:00 PM 16.91 62.438 0.15 7.36 3.86 8.93
7/10/2021 11:15:00 PM 16.85 62.33 0.15 7.36 4.05 8.95
7/10/2021 11:30:00 PM 16.79 62.222 0.15 7.35 3.95 8.96
7/10/2021 11:45:00 PM 16.73 62.114 0.151 7.35 4.05 8.97
7/11/2021 12:00:00 AM 16.66 61.988 0.151 7.35 4.06 8.98
7/11/2021 12:15:00 AM 16.59 61.862 0.151 7.35 4.24 8.99
7/11/2021 12:30:00 AM 16.53 61.754 0.151 7.34 3.87 9
7/11/2021 12:45:00 AM 16.46 61.628 0.151 7.35 4.54 9.01
7/11/2021 1:00:00 AM 16.39 61.502 0.151 7.34 4.52 9.03
7/11/2021 1:15:00 AM 16.32 61.376 0.151 7.34 4.52 9.04
7/11/2021 1:30:00 AM 16.25 61.25 0.151 7.34 9.14 9.06
7/11/2021 1:45:00 AM 16.18 61.124 0.152 7.34 4.51 9.07
7/11/2021 2:00:00 AM 16.12 61.016 0.152 7.34 4.29 9.08
7/11/2021 2:15:00 AM 16.06 60.908 0.152 7.34 4.68 9.09
7/11/2021 2:30:00 AM 16 60.8 0.152 7.34 4.27 9.11
7/11/2021 2:45:00 AM 15.94 60.692 0.152 7.34 4.43 9.12
7/11/2021 3:00:00 AM 15.88 60.584 0.152 7.34 3.66 9.13
7/11/2021 3:15:00 AM 15.83 60.494 0.152 7.35 3.94 9.14
7/11/2021 3:30:00 AM 15.79 60.422 0.152 7.34 4.1 9.15
7/11/2021 3:45:00 AM 15.74 60.332 0.152 7.34 4.32 9.17
7/11/2021 4:00:00 AM 15.69 60.242 0.153 7.34 4.22 9.18
7/11/2021 4:15:00 AM 15.64 60.152 0.153 7.34 4.22 9.19
7/11/2021 4:30:00 AM 15.6 60.08 0.153 7.34 4.23 9.2
7/11/2021 4:45:00 AM 15.56 60.008 0.153 7.34 4.29 9.22
7/11/2021 5:00:00 AM 15.53 59.954 0.153 7.34 4.43 9.22
7/11/2021 5:15:00 AM 15.49 59.882 0.153 7.34 4.27 9.22
7/11/2021 5:30:00 AM 15.46 59.828 0.153 7.33 3.96 9.23
7/11/2021 5:45:00 AM 15.42 59.756 0.153 7.34 3.91 9.24
7/11/2021 6:00:00 AM 15.4 59.72 0.153 7.34 4.19 9.25
7/11/2021 6:15:00 AM 15.37 59.666 0.153 7.34 3.72 9.27
7/11/2021 6:30:00 AM 15.35 59.63 0.153 7.34 3.68 9.29
7/11/2021 6:45:00 AM 15.33 59.594 0.153 7.34 3.74 9.3
7/11/2021 7:00:00 AM 15.31 59.558 0.153 7.35 3.59 9.31
7/11/2021 7:15:00 AM 15.3 59.54 0.153 7.35 3.19 9.34
7/11/2021 7:30:00 AM 15.29 59.522 0.153 7.35 3.22 9.38
7/11/2021 7:45:00 AM 15.3 59.54 0.153 7.36 3.39 9.42
7/11/2021 8:00:00 AM 15.3 59.54 0.153 7.37 3.06 9.47
7/11/2021 8:15:00 AM 15.31 59.558 0.154 7.38 3 9.51
7/11/2021 8:30:00 AM 15.34 59.612 0.154 7.39 3.11 9.56
7/11/2021 8:45:00 AM 15.36 59.648 0.154 7.39 3.22 9.6
7/11/2021 9:00:00 AM 15.38 59.684 0.154 7.41 3.17 9.63
7/11/2021 9:15:00 AM 15.42 59.756 0.154 7.41 2.71 9.66
7/11/2021 9:30:00 AM 15.46 59.828 0.154 7.42 2.52 9.7
7/11/2021 9:45:00 AM 15.51 59.918 0.154 7.43 2.33 9.73
7/11/2021 10:00:00 AM 15.56 60.008 0.154 7.43 2.37 9.77
7/11/2021 10:15:00 AM 15.63 60.134 0.153 7.44 2.51 9.82
7/11/2021 10:30:00 AM 15.68 60.224 0.153 7.45 2.46 9.84
7/11/2021 10:45:00 AM 15.74 60.332 0.153 7.47 2.49 9.86
7/11/2021 11:00:00 AM 15.81 60.458 0.153 7.48 2.32 9.88
7/11/2021 11:15:00 AM 15.87 60.566 0.153 7.49 2.32 9.88
7/11/2021 11:30:00 AM 15.92 60.656 0.153 7.5 2.13 9.88
7/11/2021 11:45:00 AM 15.96 60.728 0.153 7.51 2.01 9.85
7/11/2021 12:00:00 PM 15.99 60.782 0.153 7.51 2.19 9.82
7/11/2021 12:15:00 PM 16.03 60.854 0.153 7.5 1.88 9.8
7/11/2021 12:30:00 PM 16.06 60.908 0.153 7.51 2.04 9.81
7/11/2021 12:45:00 PM 16.06 60.908 0.153 7.51 1.97 9.76
7/11/2021 1:00:00 PM 16.06 60.908 0.153 7.51 2.04 9.72
7/11/2021 1:15:00 PM 16.08 60.944 0.154 7.5 2.04 9.68
7/11/2021 1:30:00 PM 16.09 60.962 0.154 7.49 2.05 9.68
7/11/2021 1:45:00 PM 16.09 60.962 0.154 7.49 1.88 9.66
7/11/2021 2:00:00 PM 16.08 60.944 0.154 7.49 1.81 9.62
7/11/2021 2:15:00 PM 16.08 60.944 0.153 7.49 2.61 9.59
7/11/2021 2:30:00 PM 16.08 60.944 0.152 7.48 2.71 9.56
7/11/2021 2:45:00 PM 16.07 60.926 0.152 7.46 3.85 9.51
7/11/2021 3:00:00 PM 16.06 60.908 0.151 7.44 4.6 9.5
7/11/2021 3:15:00 PM 16.05 60.89 0.151 7.44 4.34 9.47
7/11/2021 3:30:00 PM 16.02 60.836 0.152 7.43 4.24 9.44
7/11/2021 3:45:00 PM 16.03 60.854 0.15 7.43 5.23 9.42
7/11/2021 4:00:00 PM 16.04 60.872 0.146 7.41 10.29 9.42
7/11/2021 4:15:00 PM 16.03 60.854 0.143 7.37 15.58 9.37
7/11/2021 4:30:00 PM 16.02 60.836 0.14 7.36 26.68 9.36
7/11/2021 4:45:00 PM 16.05 60.89 0.131 7.28 66.94 9.27
7/11/2021 5:00:00 PM 16.08 60.944 0.125 7.24 75.43 9.24
7/11/2021 5:15:00 PM 16.12 61.016 0.118 7.23 93.16 9.24
7/11/2021 5:30:00 PM 16.11 60.998 0.121 7.21 74.29 9.21
7/11/2021 5:45:00 PM 16.09 60.962 0.117 7.19 84.85 9.19
7/11/2021 6:00:00 PM 16.08 60.944 0.108 7.14 136.2 9.16
7/11/2021 6:15:00 PM 16.09 60.962 0.105 7.13 104.08 9.16
7/11/2021 6:30:00 PM 16.09 60.962 0.105 7.14 105.68 9.17
7/11/2021 6:45:00 PM 16.09 60.962 0.104 7.14 77.39 9.18
7/11/2021 7:00:00 PM 16.08 60.944 0.103 7.13 77.11 9.18
7/11/2021 7:15:00 PM 16.08 60.944 0.106 7.12 95.49 9.16
7/11/2021 7:30:00 PM 16.1 60.98 0.112 7.07 102.19 9.14
7/11/2021 7:45:00 PM 16.11 60.998 0.12 7.08 79.5 9.13
7/11/2021 8:00:00 PM 16.09 60.962 0.118 7.07 80.43 9.14
7/11/2021 8:15:00 PM 16.02 60.836 0.11 7.05 93.21 9.17
7/11/2021 8:30:00 PM 15.99 60.782 0.106 7.02 115.55 9.18
7/11/2021 8:45:00 PM 15.99 60.782 0.106 7.03 81.62 9.18
7/11/2021 9:00:00 PM 16.02 60.836 0.107 7.04 85.84 9.16
7/11/2021 9:15:00 PM 16.05 60.89 0.106 7.05 74.72 9.15
7/11/2021 9:30:00 PM 16.09 60.962 0.102 7.06 78.64 9.13
7/11/2021 9:45:00 PM 16.12 61.016 0.099 7.06 80.87 9.12
7/11/2021 10:00:00 PM 16.14 61.052 0.097 7.07 70.45 9.11
7/11/2021 10:15:00 PM 16.16 61.088 0.096 7.06 70.37 9.1
7/11/2021 10:30:00 PM 16.17 61.106 0.095 7.06 64.21 9.09
7/11/2021 10:45:00 PM 16.19 61.142 0.094 7.04 63.92 9.09
7/11/2021 11:00:00 PM 16.2 61.16 0.092 7.03 68.82 9.08
7/11/2021 11:15:00 PM 16.2 61.16 0.091 7.01 88.09 9.08
7/11/2021 11:30:00 PM 16.2 61.16 0.089 7.01 71.48 9.08
7/11/2021 11:45:00 PM 16.19 61.142 0.087 7.01 73.28 9.08
7/12/2021 12:00:00 AM 16.18 61.124 0.087 7.02 57.77 9.08
7/12/2021 12:15:00 AM 16.17 61.106 0.086 6.99 71.2 9.08
7/12/2021 12:30:00 AM 16.16 61.088 0.086 6.99 59.16 9.08
7/12/2021 12:45:00 AM 16.14 61.052 0.086 6.98 70.65 9.08
7/12/2021 1:00:00 AM 16.11 60.998 0.084 6.96 69.04 9.09
7/12/2021 1:15:00 AM 16.08 60.944 0.083 6.95 87.99 9.11
7/12/2021 1:30:00 AM 16.05 60.89 0.082 6.95 67.85 9.11
7/12/2021 1:45:00 AM 16.02 60.836 0.082 6.97 70.03 9.12
7/12/2021 2:00:00 AM 16.01 60.818 0.081 6.97 62.29 9.12
7/12/2021 2:15:00 AM 16 60.8 0.081 6.98 73.82 9.12
7/12/2021 2:30:00 AM 16 60.8 0.081 6.99 67.37 9.13
7/12/2021 2:45:00 AM 15.99 60.782 0.081 6.99 66.81 9.13
7/12/2021 3:00:00 AM 15.99 60.782 0.081 6.99 62.57 9.13
7/12/2021 3:15:00 AM 15.98 60.764 0.081 6.99 59 9.13
7/12/2021 3:30:00 AM 15.97 60.746 0.082 6.99 56.57 9.12
7/12/2021 3:45:00 AM 15.96 60.728 0.082 6.99 37.63 9.12
7/12/2021 4:00:00 AM 15.95 60.71 0.083 6.99 43.51 9.13
7/12/2021 4:15:00 AM 15.93 60.674 0.083 6.99 39.49 9.13
7/12/2021 4:30:00 AM 15.92 60.656 0.084 6.99 39.72 9.13
7/12/2021 4:45:00 AM 15.9 60.62 0.084 6.99 43.69 9.13
7/12/2021 5:00:00 AM 15.88 60.584 0.085 6.99 39.43 9.14
7/12/2021 5:15:00 AM 15.87 60.566 0.086 6.99 32.47 9.15
7/12/2021 5:30:00 AM 15.85 60.53 0.086 6.99 33.46 9.15
7/12/2021 5:45:00 AM 15.83 60.494 0.087 6.99 31.67 9.16
7/12/2021 6:00:00 AM 15.81 60.458 0.087 6.98 31.86 9.16
7/12/2021 6:15:00 AM 15.79 60.422 0.088 6.99 26 9.16
7/12/2021 6:30:00 AM 15.77 60.386 0.089 7 27.85 9.17
7/12/2021 6:45:00 AM 15.75 60.35 0.089 6.99 25.15 9.18
7/12/2021 7:00:00 AM 15.74 60.332 0.09 7 25.45 9.2
7/12/2021 7:15:00 AM 15.72 60.296 0.09 6.99 25.04 9.21
7/12/2021 7:30:00 AM 15.71 60.278 0.091 6.99 24.63 9.22
7/12/2021 7:45:00 AM 15.69 60.242 0.091 7 20.97 9.22
7/12/2021 8:00:00 AM 15.68 60.224 0.092 6.99 34.18 9.24
7/12/2021 8:15:00 AM 15.67 60.206 0.092 7 19.73 9.25
7/12/2021 8:30:00 AM 15.66 60.188 0.092 6.99 20.78 9.27
7/12/2021 8:45:00 AM 15.66 60.188 0.093 6.98 18.69 9.29
7/12/2021 9:00:00 AM 15.65 60.17 0.093 7 19.68 9.3
7/12/2021 9:15:00 AM 15.66 60.188 0.093 6.99 19.81 9.32
7/12/2021 9:30:00 AM 15.66 60.188 0.093 7 16.92 9.33
7/12/2021 9:45:00 AM 15.67 60.206 0.094 7.01 16.12 9.35
7/12/2021 10:00:00 AM 15.67 60.206 0.094 7.03 14.6 9.35
7/12/2021 10:15:00 AM 15.68 60.224 0.094 7.04 17.11 9.38
7/12/2021 10:30:00 AM 15.7 60.26 0.094 7.04 14.39 9.39
7/12/2021 10:45:00 AM 15.71 60.278 0.094 7.05 14.76 9.4
7/12/2021 11:00:00 AM 15.72 60.296 0.095 7.06 16.32 9.41
7/12/2021 11:15:00 AM 15.76 60.368 0.095 7.05 15.09 9.43
7/12/2021 11:30:00 AM 15.79 60.422 0.095 7.06 14.88 9.45
7/12/2021 11:45:00 AM 15.84 60.512 0.095 7.07 14.29 9.47
7/12/2021 12:00:00 PM 15.87 60.566 0.095 7.09 13.68 9.48
7/12/2021 12:15:00 PM 15.92 60.656 0.096 7.1 13.27 9.49
7/12/2021 12:30:00 PM 15.98 60.764 0.096 7.09 13.4 9.5
7/12/2021 12:45:00 PM 16.04 60.872 0.096 7.11 13.07 9.51
7/12/2021 1:00:00 PM 16.09 60.962 0.096 7.11 12.92 9.5
7/12/2021 1:15:00 PM 16.11 60.998 0.096 7.12 13.29 9.48
7/12/2021 1:30:00 PM 16.16 61.088 0.096 7.13 12.64 9.5
7/12/2021 1:45:00 PM 16.23 61.214 0.096 7.13 11.54 9.5
7/12/2021 2:00:00 PM 16.32 61.376 0.096 7.14 12.03 9.5
7/12/2021 2:15:00 PM 16.4 61.52 0.096 7.14 11.49 9.5
7/12/2021 2:30:00 PM 16.49 61.682 0.096 7.15 10.99 9.51
7/12/2021 2:45:00 PM 16.55 61.79 0.096 7.16 11.51 9.5
7/12/2021 3:00:00 PM 16.65 61.97 0.096 7.17 11.25 9.49
7/12/2021 3:15:00 PM 16.7 62.06 0.097 7.16 10.87 9.48
7/12/2021 3:30:00 PM 16.77 62.186 0.097 7.18 11.12 9.47
7/12/2021 3:45:00 PM 16.84 62.312 0.097 7.17 10.93 9.47
7/12/2021 4:00:00 PM 16.89 62.402 0.097 7.18 11 9.43
7/12/2021 4:15:00 PM 16.95 62.51 0.097 7.18 10.86 9.4
7/12/2021 4:30:00 PM 16.99 62.582 0.097 7.16 10.69 9.37
7/12/2021 4:45:00 PM 17.03 62.654 0.097 7.17 10.38 9.36
7/12/2021 5:00:00 PM 17.07 62.726 0.097 7.16 10.86 9.35
7/12/2021 5:15:00 PM 17.1 62.78 0.097 7.17 9.86 9.32
7/12/2021 5:30:00 PM 17.12 62.816 0.097 7.17 10.43 9.31
7/12/2021 5:45:00 PM 17.12 62.816 0.097 7.16 10.22 9.29
7/12/2021 6:00:00 PM 17.15 62.87 0.097 7.16 9.57 9.29
7/12/2021 6:15:00 PM 17.18 62.924 0.097 7.16 9.83 9.27
7/12/2021 6:30:00 PM 17.18 62.924 0.097 7.16 9.66 9.24
7/12/2021 6:45:00 PM 17.17 62.906 0.097 7.16 9.4 9.21
7/12/2021 7:00:00 PM 17.17 62.906 0.097 7.15 8.66 9.2
7/12/2021 7:15:00 PM 17.16 62.888 0.097 7.13 9.9 9.18
7/12/2021 7:30:00 PM 17.14 62.852 0.097 7.13 10.19 9.17
7/12/2021 7:45:00 PM 17.12 62.816 0.098 7.12 9.41 9.15
7/12/2021 8:00:00 PM 17.11 62.798 0.098 7.12 10.36 9.14
7/12/2021 8:15:00 PM 17.1 62.78 0.098 7.1 9.06 9.13
7/12/2021 8:30:00 PM 17.1 62.78 0.098 7.11 9.35 9.12
7/12/2021 8:45:00 PM 17.09 62.762 0.098 7.09 9.36 9.1
7/12/2021 9:00:00 PM 17.08 62.744 0.098 7.09 9.7 9.09
7/12/2021 9:15:00 PM 17.06 62.708 0.098 7.09 10.39 9.08
7/12/2021 9:30:00 PM 17.04 62.672 0.098 7.07 9.89 9.08
7/12/2021 9:45:00 PM 17.02 62.636 0.098 7.07 10.19 9.08
7/12/2021 10:00:00 PM 17 62.6 0.098 7.07 10.41 9.07
7/12/2021 10:15:00 PM 16.98 62.564 0.098 7.06 9.97 9.08
7/12/2021 10:30:00 PM 16.96 62.528 0.099 7.06 10.34 9.08
7/12/2021 10:45:00 PM 16.93 62.474 0.099 7.06 10.14 9.08
7/12/2021 11:00:00 PM 16.9 62.42 0.099 7.07 10.49 9.08
7/12/2021 11:15:00 PM 16.87 62.366 0.099 7.05 10.93 9.08
7/12/2021 11:30:00 PM 16.84 62.312 0.099 7.06 10.76 9.09
7/12/2021 11:45:00 PM 16.81 62.258 0.099 7.05 10.08 9.09
7/13/2021 12:00:00 AM 16.77 62.186 0.099 7.06 10.18 9.1
7/13/2021 12:15:00 AM 16.74 62.132 0.099 7.06 10.16 9.11
7/13/2021 12:30:00 AM 16.71 62.078 0.099 7.06 11.28 9.12
7/13/2021 12:45:00 AM 16.67 62.006 0.099 7.06 10.37 9.12
7/13/2021 1:00:00 AM 16.64 61.952 0.099 7.07 10.11 9.13
7/13/2021 1:15:00 AM 16.6 61.88 0.099 7.06 9.63 9.13
7/13/2021 1:30:00 AM 16.56 61.808 0.099 7.05 10.34 9.14
7/13/2021 1:45:00 AM 16.53 61.754 0.099 7.06 9.98 9.15
7/13/2021 2:00:00 AM 16.5 61.7 0.099 7.05 10.42 9.15
7/13/2021 2:15:00 AM 16.46 61.628 0.1 7.05 11.1 9.16
7/13/2021 2:30:00 AM 16.43 61.574 0.1 7.05 9.49 9.17
7/13/2021 2:45:00 AM 16.4 61.52 0.1 7.05 10.03 9.18
7/13/2021 3:00:00 AM 16.37 61.466 0.1 7.06 10.12 9.18
7/13/2021 3:15:00 AM 16.34 61.412 0.1 7.05 9.62 9.19
7/13/2021 3:30:00 AM 16.31 61.358 0.1 7.04 9.99 9.19
7/13/2021 3:45:00 AM 16.29 61.322 0.1 7.04 10.09 9.2
7/13/2021 4:00:00 AM 16.27 61.286 0.1 7.05 9.22 9.2
7/13/2021 4:15:00 AM 16.25 61.25 0.1 7.05 9.24 9.2
7/13/2021 4:30:00 AM 16.22 61.196 0.1 7.05 9.63 9.2
7/13/2021 4:45:00 AM 16.2 61.16 0.1 7.04 9.42 9.21
7/13/2021 5:00:00 AM 16.18 61.124 0.1 7.04 9.76 9.21
7/13/2021 5:15:00 AM 16.17 61.106 0.1 7.04 10.29 9.22
7/13/2021 5:30:00 AM 16.15 61.07 0.1 7.03 10.28 9.22
7/13/2021 5:45:00 AM 16.14 61.052 0.1 7.03 10.49 9.22
7/13/2021 6:00:00 AM 16.12 61.016 0.1 7.03 10.02 9.23
7/13/2021 6:15:00 AM 16.11 60.998 0.1 7.03 9.01 9.24
7/13/2021 6:30:00 AM 16.1 60.98 0.101 7.03 9.87 9.24
7/13/2021 6:45:00 AM 16.1 60.98 0.101 7.04 9.5 9.26
7/13/2021 7:00:00 AM 16.1 60.98 0.101 7.04 8.72 9.28
7/13/2021 7:15:00 AM 16.09 60.962 0.101 7.04 9.24 9.3
7/13/2021 7:30:00 AM 16.1 60.98 0.101 7.05 8.93 9.31
7/13/2021 7:45:00 AM 16.1 60.98 0.101 7.04 8.43 9.33
7/13/2021 8:00:00 AM 16.11 60.998 0.101 7.05 8.62 9.35
7/13/2021 8:15:00 AM 16.13 61.034 0.101 7.06 8.45 9.37
7/13/2021 8:30:00 AM 16.15 61.07 0.101 7.07 8.19 9.39
7/13/2021 8:45:00 AM 16.18 61.124 0.101 7.1 8.13 9.42
7/13/2021 9:00:00 AM 16.22 61.196 0.101 7.12 7.81 9.44
7/13/2021 9:15:00 AM 16.26 61.268 0.101 7.13 7.55 9.46
7/13/2021 9:30:00 AM 16.34 61.412 0.101 7.14 7.37 9.48
7/13/2021 9:45:00 AM 16.4 61.52 0.101 7.15 7.5 9.47
7/13/2021 10:00:00 AM 16.46 61.628 0.101 7.16 6.68 9.47
7/13/2021 10:15:00 AM 16.48 61.664 0.101 7.18 6.43 9.46
7/13/2021 10:30:00 AM 16.51 61.718 0.101 7.18 6.53 9.45
7/13/2021 10:45:00 AM 16.56 61.808 0.101 7.19 6.14 9.46
7/13/2021 11:00:00 AM 16.63 61.934 0.102 7.2 6.38 9.48
7/13/2021 11:15:00 AM 16.69 62.042 0.102 7.2 6.24 9.5
7/13/2021 11:30:00 AM 16.76 62.168 0.102 7.21 5.63 9.5
7/13/2021 11:45:00 AM 16.8 62.24 0.102 7.2 7.44 9.48
7/13/2021 12:00:00 PM 16.88 62.384 0.102 7.22 5.49 9.48
7/13/2021 12:15:00 PM 16.95 62.51 0.102 7.21 5.46 9.49
7/13/2021 12:30:00 PM 17.05 62.69 0.102 7.23 5.69 9.5
7/13/2021 12:45:00 PM 17.16 62.888 0.102 7.24 5.31 9.5
7/13/2021 1:00:00 PM 17.23 63.014 0.102 7.24 5.46 9.5
7/13/2021 1:15:00 PM 17.39 63.302 0.102 7.26 5.73 9.51
7/13/2021 1:30:00 PM 17.49 63.482 0.102 7.27 5.47 9.5
7/13/2021 1:45:00 PM 17.67 63.806 0.102 7.28 5.48 9.5
7/13/2021 2:00:00 PM 17.78 64.004 0.102 7.29 5.56 9.47
7/13/2021 2:15:00 PM 17.94 64.292 0.102 7.3 5.28 9.45
7/13/2021 2:30:00 PM 18.13 64.634 0.103 7.3 5.31 9.43
7/13/2021 2:45:00 PM 18.28 64.904 0.103 7.31 5.3 9.4
7/13/2021 3:00:00 PM 18.36 65.048 0.103 7.32 5.39 9.36
7/13/2021 3:15:00 PM 18.43 65.174 0.103 7.32 6.09 9.33
7/13/2021 3:30:00 PM 18.47 65.246 0.103 7.31 5.84 9.27
7/13/2021 3:45:00 PM 18.47 65.246 0.103 7.3 5.54 9.22
7/13/2021 4:00:00 PM 18.44 65.192 0.103 7.29 5.81 9.19
7/13/2021 4:15:00 PM 18.43 65.174 0.103 7.29 6.25 9.18
7/13/2021 4:30:00 PM 18.44 65.192 0.103 7.28 6.54 9.17
7/13/2021 4:45:00 PM 18.45 65.21 0.103 7.28 7.1 9.17
7/13/2021 5:00:00 PM 18.42 65.156 0.103 7.28 6.35 9.14
7/13/2021 5:15:00 PM 18.42 65.156 0.103 7.28 6.11 9.12
7/13/2021 5:30:00 PM 18.4 65.12 0.104 7.28 5.53 9.09
7/13/2021 5:45:00 PM 18.38 65.084 0.104 7.26 5.96 9.07
7/13/2021 6:00:00 PM 18.38 65.084 0.104 7.26 6.54 9.05
7/13/2021 6:15:00 PM 18.39 65.102 0.104 7.25 5.86 9.02
7/13/2021 6:30:00 PM 18.41 65.138 0.104 7.26 5.49 9.01
7/13/2021 6:45:00 PM 18.42 65.156 0.105 7.26 5.93 8.98
7/13/2021 7:00:00 PM 18.39 65.102 0.105 7.25 5.51 8.96
7/13/2021 7:15:00 PM 18.36 65.048 0.105 7.24 5.68 8.95
7/13/2021 7:30:00 PM 18.33 64.994 0.105 7.23 5.76 8.94
7/13/2021 7:45:00 PM 18.33 64.994 0.105 7.22 5.66 8.92
7/13/2021 8:00:00 PM 18.33 64.994 0.105 7.22 6.23 8.89
7/13/2021 8:15:00 PM 18.33 64.994 0.105 7.22 5.71 8.88
7/13/2021 8:30:00 PM 18.32 64.976 0.105 7.21 5.64 8.86
7/13/2021 8:45:00 PM 18.31 64.958 0.106 7.2 6.2 8.84
7/13/2021 9:00:00 PM 18.29 64.922 0.106 7.19 6.04 8.83
7/13/2021 9:15:00 PM 18.28 64.904 0.106 7.19 6.6 8.82
7/13/2021 9:30:00 PM 18.25 64.85 0.106 7.18 7.33 8.82
7/13/2021 9:45:00 PM 18.23 64.814 0.106 7.17 6.9 8.82
7/13/2021 10:00:00 PM 18.21 64.778 0.106 7.17 7.23 8.82
7/13/2021 10:15:00 PM 18.21 64.778 0.104 7.17 12.03 8.82
7/13/2021 10:30:00 PM 18.18 64.724 0.103 7.15 14.06 8.81
7/13/2021 10:45:00 PM 18.15 64.67 0.103 7.14 26.66 8.8
7/13/2021 11:00:00 PM 18.15 64.67 0.099 7.12 70.28 8.79
7/13/2021 11:15:00 PM 18.11 64.598 0.099 7.11 50.72 8.78
7/13/2021 11:30:00 PM 18.06 64.508 0.099 7.11 42.78 8.78
7/13/2021 11:45:00 PM 17.99 64.382 0.099 7.09 35.42 8.79
7/14/2021 12:00:00 AM 17.92 64.256 0.098 7.09 30.64 8.8
7/14/2021 12:15:00 AM 17.84 64.112 0.096 7.06 35.14 8.8
7/14/2021 12:30:00 AM 17.79 64.022 0.094 7.05 38.15 8.82
7/14/2021 12:45:00 AM 17.75 63.95 0.091 7.07 36.53 8.83
7/14/2021 1:00:00 AM 17.7 63.86 0.09 7.05 42.19 8.83
7/14/2021 1:15:00 AM 17.66 63.788 0.09 7.03 46.51 8.84
7/14/2021 1:30:00 AM 17.64 63.752 0.09 7.03 46.36 8.85
7/14/2021 1:45:00 AM 17.62 63.716 0.091 7.03 50.75 8.85
7/14/2021 2:00:00 AM 17.59 63.662 0.092 7.04 51.56 8.86
7/14/2021 2:15:00 AM 17.55 63.59 0.092 7.04 45.13 8.88
7/14/2021 2:30:00 AM 17.49 63.482 0.091 7.04 48.7 8.89
7/14/2021 2:45:00 AM 17.44 63.392 0.091 7.03 45.28 8.9
7/14/2021 3:00:00 AM 17.4 63.32 0.091 7.04 45.98 8.91
7/14/2021 3:15:00 AM 17.37 63.266 0.091 7.03 37.64 8.91
7/14/2021 3:30:00 AM 17.34 63.212 0.089 7.03 53.47 8.91
7/14/2021 3:45:00 AM 17.33 63.194 0.087 7.02 55.66 8.91
7/14/2021 4:00:00 AM 17.33 63.194 0.086 7.02 63.44 8.9
7/14/2021 4:15:00 AM 17.34 63.212 0.086 7.01 54.06 8.89
7/14/2021 4:30:00 AM 17.36 63.248 0.086 7.02 56.1 8.89
7/14/2021 4:45:00 AM 17.38 63.284 0.086 7.01 64 8.88
7/14/2021 5:00:00 AM 17.39 63.302 0.085 7.01 59.63 8.87
7/14/2021 5:15:00 AM 17.4 63.32 0.084 7.01 54.84 8.87
7/14/2021 5:30:00 AM 17.4 63.32 0.084 7.01 53.68 8.86
7/14/2021 5:45:00 AM 17.4 63.32 0.083 7 51.81 8.86
7/14/2021 6:00:00 AM 17.39 63.302 0.083 7 49.08 8.86
7/14/2021 6:15:00 AM 17.38 63.284 0.083 7 45.02 8.86
7/14/2021 6:30:00 AM 17.37 63.266 0.083 6.99 41.77 8.86
7/14/2021 6:45:00 AM 17.35 63.23 0.083 6.98 43.24 8.86
7/14/2021 7:00:00 AM 17.33 63.194 0.083 6.98 38.82 8.87
7/14/2021 7:15:00 AM 17.32 63.176 0.083 6.98 36.94 8.88
7/14/2021 7:30:00 AM 17.3 63.14 0.084 6.98 42.17 8.89
7/14/2021 7:45:00 AM 17.29 63.122 0.084 6.98 33.52 8.91
7/14/2021 8:00:00 AM 17.28 63.104 0.084 6.99 36.63 8.92
7/14/2021 8:15:00 AM 17.27 63.086 0.084 6.99 29.92 8.93
7/14/2021 8:30:00 AM 17.26 63.068 0.085 7 28.55 8.95
7/14/2021 8:45:00 AM 17.26 63.068 0.085 7 27.68 8.96
7/14/2021 9:00:00 AM 17.24 63.032 0.086 7.02 28.31 8.96
7/14/2021 9:15:00 AM 17.22 62.996 0.086 7.01 25.1 8.98
7/14/2021 9:30:00 AM 17.21 62.978 0.087 7.01 22.38 8.99
7/14/2021 9:45:00 AM 17.21 62.978 0.087 7.02 21.05 9.01
7/14/2021 10:00:00 AM 17.21 62.978 0.088 7.03 22.3 9.03
7/14/2021 10:15:00 AM 17.23 63.014 0.088 7.04 19.34 9.06
7/14/2021 10:30:00 AM 17.26 63.068 0.088 7.04 18.64 9.1
7/14/2021 10:45:00 AM 17.32 63.176 0.089 7.06 17.29 9.13
7/14/2021 11:00:00 AM 17.38 63.284 0.089 7.07 14.72 9.15
7/14/2021 11:15:00 AM 17.45 63.41 0.089 7.07 17.89 9.16
7/14/2021 11:30:00 AM 17.48 63.464 0.09 7.09 15.89 9.16
7/14/2021 11:45:00 AM 17.5 63.5 0.09 7.09 15.21 9.16
7/14/2021 12:00:00 PM 17.55 63.59 0.09 7.11 13.73 9.17
7/14/2021 12:15:00 PM 17.66 63.788 0.09 7.11 13.8 9.19
7/14/2021 12:30:00 PM 17.74 63.932 0.091 7.11 14.39 9.19
7/14/2021 12:45:00 PM 17.84 64.112 0.091 7.13 13.01 9.19
7/14/2021 1:00:00 PM 18 64.4 0.091 7.15 12.97 9.2
7/14/2021 1:15:00 PM 18.08 64.544 0.092 7.15 12.14 9.21
7/14/2021 1:30:00 PM 18.17 64.706 0.092 7.15 12.18 9.21
7/14/2021 1:45:00 PM 18.28 64.904 0.092 7.17 11.96 9.22
7/14/2021 2:00:00 PM 18.28 64.904 0.092 7.17 11.9 9.19
7/14/2021 2:15:00 PM 18.28 64.904 0.092 7.18 11.56 9.13
7/14/2021 2:30:00 PM 18.2 64.76 0.092 7.17 11.58 9.06
7/14/2021 2:45:00 PM 18.13 64.634 0.092 7.14 12.18 9.01
7/14/2021 3:00:00 PM 18.08 64.544 0.093 7.13 13.05 8.98
7/14/2021 3:15:00 PM 18.09 64.562 0.093 7.13 13.28 8.98
7/14/2021 3:30:00 PM 18.08 64.544 0.093 7.12 12.77 9.01
7/14/2021 3:45:00 PM 18.09 64.562 0.093 7.14 13.67 9.02
7/14/2021 4:00:00 PM 18.05 64.49 0.092 7.14 14.9 9.03
7/14/2021 4:15:00 PM 17.98 64.364 0.091 7.15 17.16 9.05
7/14/2021 4:30:00 PM 17.95 64.31 0.09 7.14 17.57 9.05
7/14/2021 4:45:00 PM 17.92 64.256 0.089 7.14 18.65 9.04
7/14/2021 5:00:00 PM 17.9 64.22 0.089 7.11 22.43 9.02
7/14/2021 5:15:00 PM 17.94 64.292 0.09 7.11 21.48 9.02
7/14/2021 5:30:00 PM 17.97 64.346 0.091 7.12 19.05 9
7/14/2021 5:45:00 PM 17.98 64.364 0.09 7.11 20.98 9
7/14/2021 6:00:00 PM 17.92 64.256 0.086 7.08 22.59 9.01
7/14/2021 6:15:00 PM 17.84 64.112 0.083 7.08 31.75 9
7/14/2021 6:30:00 PM 17.81 64.058 0.081 7.07 33.87 8.99
7/14/2021 6:45:00 PM 17.84 64.112 0.082 7.06 36.72 8.97
7/14/2021 7:00:00 PM 17.88 64.184 0.083 7.06 37.98 8.94
7/14/2021 7:15:00 PM 17.93 64.274 0.084 7.07 32 8.92
7/14/2021 7:30:00 PM 17.97 64.346 0.085 7.08 31.12 8.91
7/14/2021 7:45:00 PM 17.99 64.382 0.086 7.08 32.11 8.9
7/14/2021 8:00:00 PM 18.02 64.436 0.086 7.08 30.68 8.87
7/14/2021 8:15:00 PM 18.06 64.508 0.086 7.08 29.16 8.85
7/14/2021 8:30:00 PM 18.09 64.562 0.086 7.06 30.99 8.83
7/14/2021 8:45:00 PM 18.12 64.616 0.085 7.07 32.09 8.81
7/14/2021 9:00:00 PM 18.13 64.634 0.084 7.06 34.88 8.79
7/14/2021 9:15:00 PM 18.15 64.67 0.084 7.05 38.28 8.78
7/14/2021 9:30:00 PM 18.15 64.67 0.083 7.04 40.41 8.77
7/14/2021 9:45:00 PM 18.14 64.652 0.083 7.04 34.51 8.76
7/14/2021 10:00:00 PM 18.13 64.634 0.083 7.04 36.24 8.76
7/14/2021 10:15:00 PM 18.1 64.58 0.083 7.03 37.4 8.76
7/14/2021 10:30:00 PM 18.06 64.508 0.083 7.03 35.09 8.76
7/14/2021 10:45:00 PM 18.01 64.418 0.084 7.02 36.01 8.77
7/14/2021 11:00:00 PM 17.96 64.328 0.084 7.02 31.72 8.77
7/14/2021 11:15:00 PM 17.9 64.22 0.085 7.02 29.97 8.79
7/14/2021 11:30:00 PM 17.84 64.112 0.086 7.03 27.57 8.79
7/14/2021 11:45:00 PM 17.77 63.986 0.086 7.04 25.15 8.8
7/15/2021 12:00:00 AM 17.71 63.878 0.087 7.03 24.42 8.82
7/15/2021 12:15:00 AM 17.65 63.77 0.088 7.02 25.56 8.83
7/15/2021 12:30:00 AM 17.59 63.662 0.088 7.03 22.19 8.84
7/15/2021 12:45:00 AM 17.53 63.554 0.089 7.03 20.66 8.86
7/15/2021 1:00:00 AM 17.47 63.446 0.09 7.04 19.86 8.87
7/15/2021 1:15:00 AM 17.42 63.356 0.09 7.04 18.88 8.88
7/15/2021 1:30:00 AM 17.36 63.248 0.091 7.05 17.85 8.89
7/15/2021 1:45:00 AM 17.31 63.158 0.091 7.06 17.96 8.9
7/15/2021 2:00:00 AM 17.26 63.068 0.091 7.06 16.97 8.92
7/15/2021 2:15:00 AM 17.21 62.978 0.092 7.06 16.82 8.94
7/15/2021 2:30:00 AM 17.16 62.888 0.092 7.06 15.76 8.95
7/15/2021 2:45:00 AM 17.12 62.816 0.093 7.07 15.2 8.96
7/15/2021 3:00:00 AM 17.07 62.726 0.093 7.06 15.1 8.97
7/15/2021 3:15:00 AM 17.03 62.654 0.093 7.06 14.47 8.98
7/15/2021 3:30:00 AM 16.99 62.582 0.094 7.06 14.33 9
7/15/2021 3:45:00 AM 16.95 62.51 0.094 7.05 14.59 9.01
7/15/2021 4:00:00 AM 16.91 62.438 0.094 7.05 14 9.01
7/15/2021 4:15:00 AM 16.87 62.366 0.095 7.05 14.37 9.03
7/15/2021 4:30:00 AM 16.83 62.294 0.095 7.04 13.49 9.03
7/15/2021 4:45:00 AM 16.8 62.24 0.095 7.04 13.83 9.04
7/15/2021 5:00:00 AM 16.76 62.168 0.096 7.04 13.66 9.05
7/15/2021 5:15:00 AM 16.73 62.114 0.096 7.03 13.5 9.05
7/15/2021 5:30:00 AM 16.69 62.042 0.096 7.03 13.85 9.06
7/15/2021 5:45:00 AM 16.66 61.988 0.096 7.03 12.95 9.06
7/15/2021 6:00:00 AM 16.63 61.934 0.097 7.03 13.59 9.07
7/15/2021 6:15:00 AM 16.61 61.898 0.097 7.02 13.02 9.08
7/15/2021 6:30:00 AM 16.59 61.862 0.097 7.02 12.91 9.09
7/15/2021 6:45:00 AM 16.57 61.826 0.097 7.03 12.72 9.1
7/15/2021 7:00:00 AM 16.55 61.79 0.098 7.03 13.15 9.11
7/15/2021 7:15:00 AM 16.53 61.754 0.098 7.03 12.19 9.13
7/15/2021 7:30:00 AM 16.52 61.736 0.098 7.04 12.26 9.14
7/15/2021 7:45:00 AM 16.51 61.718 0.098 7.06 11.42 9.16
7/15/2021 8:00:00 AM 16.51 61.718 0.098 7.08 11.86 9.17
7/15/2021 8:15:00 AM 16.52 61.736 0.099 7.09 11.54 9.19
7/15/2021 8:30:00 AM 16.53 61.754 0.099 7.09 11.21 9.21
7/15/2021 8:45:00 AM 16.54 61.772 0.099 7.09 11.17 9.23
7/15/2021 9:00:00 AM 16.57 61.826 0.099 7.11 11.05 9.25
7/15/2021 9:15:00 AM 16.59 61.862 0.099 7.12 10.45 9.27
7/15/2021 9:30:00 AM 16.62 61.916 0.099 7.13 10.27 9.28
7/15/2021 9:45:00 AM 16.67 62.006 0.099 7.13 10.01 9.3
7/15/2021 10:00:00 AM 16.74 62.132 0.1 7.13 10.12 9.3
7/15/2021 10:15:00 AM 16.81 62.258 0.1 7.13 10.21 9.31
7/15/2021 10:30:00 AM 16.89 62.402 0.1 7.13 9.95 9.32
7/15/2021 10:45:00 AM 16.99 62.582 0.1 7.16 9.78 9.33
7/15/2021 11:00:00 AM 17.08 62.744 0.1 7.16 9.44 9.34
7/15/2021 11:15:00 AM 17.19 62.942 0.1 7.17 9.81 9.34
7/15/2021 11:30:00 AM 17.32 63.176 0.1 7.18 9.22 9.34
7/15/2021 11:45:00 AM 17.46 63.428 0.1 7.2 8.74 9.33
7/15/2021 12:00:00 PM 17.63 63.734 0.1 7.21 8.73 9.33
7/15/2021 12:15:00 PM 17.78 64.004 0.101 7.21 8.62 9.32
7/15/2021 12:30:00 PM 17.89 64.202 0.101 7.21 8.27 9.3
7/15/2021 12:45:00 PM 18.03 64.454 0.101 7.23 7.92 9.29
7/15/2021 1:00:00 PM 18.15 64.67 0.101 7.24 8.16 9.28
7/15/2021 1:15:00 PM 18.25 64.85 0.101 7.23 8.21 9.26
7/15/2021 1:30:00 PM 18.36 65.048 0.101 7.24 8.26 9.26
7/15/2021 1:45:00 PM 18.39 65.102 0.101 7.23 7.96 9.21
7/15/2021 2:00:00 PM 18.45 65.21 0.101 7.24 8.02 9.19
7/15/2021 2:15:00 PM 18.54 65.372 0.101 7.24 8.25 9.19
7/15/2021 2:30:00 PM 18.59 65.462 0.102 7.25 8 9.16
7/15/2021 2:45:00 PM 18.7 65.66 0.102 7.27 8.1 9.15
7/15/2021 3:00:00 PM 18.72 65.696 0.102 7.26 8.38 9.12
7/15/2021 3:15:00 PM 18.82 65.876 0.102 7.25 8.21 9.11
7/15/2021 3:30:00 PM 18.87 65.966 0.102 7.26 8.35 9.09
7/15/2021 3:45:00 PM 18.89 66.002 0.103 7.26 8.2 9.06
7/15/2021 4:00:00 PM 18.98 66.164 0.103 7.25 7.76 9.04
7/15/2021 4:15:00 PM 19.03 66.254 0.103 7.26 8.33 9.01
7/15/2021 4:30:00 PM 19.09 66.362 0.103 7.26 8.49 8.98
7/15/2021 4:45:00 PM 19.13 66.434 0.104 7.26 8.82 8.96
7/15/2021 5:00:00 PM 19.17 66.506 0.104 7.26 8.48 8.93
7/15/2021 5:15:00 PM 19.21 66.578 0.104 7.26 9.22 8.9
7/15/2021 5:30:00 PM 19.23 66.614 0.104 7.25 8.68 8.86
7/15/2021 5:45:00 PM 19.27 66.686 0.104 7.25 8.58 8.84
7/15/2021 6:00:00 PM 19.28 66.704 0.105 7.24 8.74 8.81
7/15/2021 6:15:00 PM 19.31 66.758 0.105 7.24 8.54 8.79
7/15/2021 6:30:00 PM 19.33 66.794 0.105 7.24 9.56 8.77
7/15/2021 6:45:00 PM 19.33 66.794 0.105 7.23 8.64 8.74
7/15/2021 7:00:00 PM 19.33 66.794 0.105 7.23 8.77 8.72
7/15/2021 7:15:00 PM 19.32 66.776 0.105 7.21 8.99 8.7
7/15/2021 7:30:00 PM 19.31 66.758 0.106 7.21 9.25 8.69
7/15/2021 7:45:00 PM 19.29 66.722 0.106 7.21 8.33 8.67
7/15/2021 8:00:00 PM 19.27 66.686 0.106 7.19 9.02 8.66
7/15/2021 8:15:00 PM 19.24 66.632 0.106 7.2 8.33 8.65
7/15/2021 8:30:00 PM 19.2 66.56 0.106 7.2 8.99 8.64
7/15/2021 8:45:00 PM 19.16 66.488 0.106 7.18 8.39 8.63
7/15/2021 9:00:00 PM 19.12 66.416 0.106 7.18 9.67 8.62
7/15/2021 9:15:00 PM 19.08 66.344 0.107 7.18 9.35 8.62
7/15/2021 9:30:00 PM 19.03 66.254 0.107 7.18 10.17 8.62
7/15/2021 9:45:00 PM 18.98 66.164 0.107 7.18 9.8 8.62
7/15/2021 10:00:00 PM 18.92 66.056 0.107 7.18 9.64 8.62
7/15/2021 10:15:00 PM 18.86 65.948 0.107 7.17 9.81 8.63
7/15/2021 10:30:00 PM 18.8 65.84 0.107 7.17 10.21 8.64
7/15/2021 10:45:00 PM 18.75 65.75 0.107 7.18 9.59 8.65
7/15/2021 11:00:00 PM 18.68 65.624 0.108 7.17 10.31 8.66
7/15/2021 11:15:00 PM 18.61 65.498 0.108 7.17 9.84 8.66
7/15/2021 11:30:00 PM 18.55 65.39 0.108 7.17 10.06 8.68
7/15/2021 11:45:00 PM 18.48 65.264 0.108 7.16 9.8 8.69
7/16/2021 12:00:00 AM 18.41 65.138 0.108 7.16 9.8 8.7
7/16/2021 12:15:00 AM 18.34 65.012 0.108 7.16 9.94 8.71
7/16/2021 12:30:00 AM 18.28 64.904 0.108 7.16 9.67 8.72
7/16/2021 12:45:00 AM 18.21 64.778 0.109 7.16 10.12 8.73
7/16/2021 1:00:00 AM 18.14 64.652 0.109 7.17 9.26 8.75
7/16/2021 1:15:00 AM 18.07 64.526 0.109 7.16 10.08 8.76
7/16/2021 1:30:00 AM 18 64.4 0.109 7.15 9.97 8.77
7/16/2021 1:45:00 AM 17.94 64.292 0.109 7.16 9.73 8.79
7/16/2021 2:00:00 AM 17.87 64.166 0.109 7.16 9.72 8.79
7/16/2021 2:15:00 AM 17.81 64.058 0.109 7.15 9.28 8.8
7/16/2021 2:30:00 AM 17.74 63.932 0.109 7.15 10.22 8.82
7/16/2021 2:45:00 AM 17.68 63.824 0.109 7.15 9.34 8.83
7/16/2021 3:00:00 AM 17.62 63.716 0.109 7.15 9.37 8.84
7/16/2021 3:15:00 AM 17.56 63.608 0.109 7.16 9.82 8.85
7/16/2021 3:30:00 AM 17.51 63.518 0.109 7.15 9.7 8.87
7/16/2021 3:45:00 AM 17.45 63.41 0.109 7.15 9.77 8.88
7/16/2021 4:00:00 AM 17.4 63.32 0.11 7.15 9.72 8.88
7/16/2021 4:15:00 AM 17.34 63.212 0.11 7.15 9.78 8.89
7/16/2021 4:30:00 AM 17.29 63.122 0.11 7.14 9.09 8.91
7/16/2021 4:45:00 AM 17.23 63.014 0.11 7.15 9.59 8.91
7/16/2021 5:00:00 AM 17.18 62.924 0.11 7.15 9.22 8.93
7/16/2021 5:15:00 AM 17.13 62.834 0.11 7.15 10.14 8.95
7/16/2021 5:30:00 AM 17.09 62.762 0.11 7.15 9.56 8.95
7/16/2021 5:45:00 AM 17.04 62.672 0.11 7.14 9.39 8.97
7/16/2021 6:00:00 AM 17 62.6 0.11 7.14 9.77 8.98
7/16/2021 6:15:00 AM 16.96 62.528 0.11 7.15 9.1 8.99
7/16/2021 6:30:00 AM 16.92 62.456 0.11 7.15 9.86 9.01
7/16/2021 6:45:00 AM 16.88 62.384 0.11 7.15 9.18 9.02
7/16/2021 7:00:00 AM 16.84 62.312 0.111 7.16 9.17 9.04
7/16/2021 7:15:00 AM 16.81 62.258 0.111 7.16 9.03 9.06
7/16/2021 7:30:00 AM 16.79 62.222 0.111 7.17 8.6 9.08
7/16/2021 7:45:00 AM 16.77 62.186 0.111 7.16 8.54 9.11
7/16/2021 8:00:00 AM 16.77 62.186 0.111 7.17 8.59 9.14
7/16/2021 8:15:00 AM 16.78 62.204 0.111 7.17 8.17 9.17
7/16/2021 8:30:00 AM 16.8 62.24 0.111 7.18 8.21 9.19
7/16/2021 8:45:00 AM 16.83 62.294 0.111 7.19 7.81 9.23
7/16/2021 9:00:00 AM 16.87 62.366 0.111 7.2 7.33 9.26
7/16/2021 9:15:00 AM 16.9 62.42 0.111 7.21 7.29 9.27
7/16/2021 9:30:00 AM 16.93 62.474 0.111 7.22 7.81 9.29
7/16/2021 9:45:00 AM 16.96 62.528 0.111 7.23 7.21 9.3
7/16/2021 10:00:00 AM 17 62.6 0.111 7.24 7.34 9.31
7/16/2021 10:15:00 AM 17.05 62.69 0.111 7.24 7.22 9.33
7/16/2021 10:30:00 AM 17.09 62.762 0.111 7.26 7.29 9.32
7/16/2021 10:45:00 AM 17.14 62.852 0.111 7.26 6.59 9.34
7/16/2021 11:00:00 AM 17.18 62.924 0.111 7.27 7.6 9.35
7/16/2021 11:15:00 AM 17.26 63.068 0.111 7.29 6.45 9.38
7/16/2021 11:30:00 AM 17.35 63.23 0.111 7.3 6.79 9.4
7/16/2021 11:45:00 AM 17.44 63.392 0.111 7.31 6.4 9.42
7/16/2021 12:00:00 PM 17.57 63.626 0.111 7.33 6.36 9.43
7/16/2021 12:15:00 PM 17.68 63.824 0.111 7.34 6.11 9.43
7/16/2021 12:30:00 PM 17.75 63.95 0.111 7.34 6.09 9.42
7/16/2021 12:45:00 PM 17.83 64.094 0.112 7.36 6.01 9.41
7/16/2021 1:00:00 PM 17.88 64.184 0.112 7.36 5.97 9.42
7/16/2021 1:15:00 PM 17.97 64.346 0.112 7.37 5.94 9.42
7/16/2021 1:30:00 PM 18.02 64.436 0.112 7.38 5.93 9.39
7/16/2021 1:45:00 PM 18.06 64.508 0.112 7.38 5.66 9.37
7/16/2021 2:00:00 PM 18.07 64.526 0.112 7.38 5.48 9.34
7/16/2021 2:15:00 PM 18.13 64.634 0.112 7.38 5.65 9.34
7/16/2021 2:30:00 PM 18.2 64.76 0.112 7.39 5.61 9.36
7/16/2021 2:45:00 PM 18.24 64.832 0.112 7.39 5.52 9.35
7/16/2021 3:00:00 PM 18.29 64.922 0.112 7.39 5.63 9.32
7/16/2021 3:15:00 PM 18.33 64.994 0.112 7.4 5.26 9.3
7/16/2021 3:30:00 PM 18.35 65.03 0.112 7.4 5.59 9.28
7/16/2021 3:45:00 PM 18.39 65.102 0.112 7.4 5.47 9.28
7/16/2021 4:00:00 PM 18.42 65.156 0.112 7.4 5.46 9.27
7/16/2021 4:15:00 PM 18.45 65.21 0.112 7.4 5.51 9.25
7/16/2021 4:30:00 PM 18.49 65.282 0.112 7.4 5.49 9.23
7/16/2021 4:45:00 PM 18.47 65.246 0.113 7.39 5.44 9.19
7/16/2021 5:00:00 PM 18.49 65.282 0.113 7.39 5.62 9.16
7/16/2021 5:15:00 PM 18.49 65.282 0.113 7.38 5.31 9.12
7/16/2021 5:30:00 PM 18.48 65.264 0.114 7.36 5.63 9.09
7/16/2021 5:45:00 PM 18.47 65.246 0.116 7.36 6.11 9.05
7/16/2021 6:00:00 PM 18.47 65.246 0.117 7.34 5.91 9.02
7/16/2021 6:15:00 PM 18.48 65.264 0.118 7.33 6.02 9
7/16/2021 6:30:00 PM 18.47 65.246 0.119 7.32 6.22 8.97
7/16/2021 6:45:00 PM 18.45 65.21 0.119 7.31 6 8.95
7/16/2021 7:00:00 PM 18.43 65.174 0.12 7.3 6.1 8.93
7/16/2021 7:15:00 PM 18.39 65.102 0.12 7.3 6.66 8.9
7/16/2021 7:30:00 PM 18.36 65.048 0.12 7.29 5.82 8.89
7/16/2021 7:45:00 PM 18.32 64.976 0.12 7.29 6.29 8.89
7/16/2021 8:00:00 PM 18.28 64.904 0.12 7.27 5.8 8.87
7/16/2021 8:15:00 PM 18.25 64.85 0.12 7.27 6.13 8.86
7/16/2021 8:30:00 PM 18.21 64.778 0.119 7.26 6.23 8.85
7/16/2021 8:45:00 PM 18.17 64.706 0.118 7.25 6.79 8.84
7/16/2021 9:00:00 PM 18.14 64.652 0.118 7.26 6.67 8.83
7/16/2021 9:15:00 PM 18.1 64.58 0.117 7.25 6.34 8.83
7/16/2021 9:30:00 PM 18.07 64.526 0.117 7.24 6.45 8.82
7/16/2021 9:45:00 PM 18.04 64.472 0.117 7.24 6.35 8.82
7/16/2021 10:00:00 PM 18.01 64.418 0.116 7.24 6.22 8.82
7/16/2021 10:15:00 PM 17.97 64.346 0.116 7.23 6.8 8.83
7/16/2021 10:30:00 PM 17.94 64.292 0.116 7.23 6.6 8.83
7/16/2021 10:45:00 PM 17.9 64.22 0.116 7.22 6.57 8.83
7/16/2021 11:00:00 PM 17.86 64.148 0.116 7.21 6.55 8.83
7/16/2021 11:15:00 PM 17.83 64.094 0.116 7.2 6.73 8.84
7/16/2021 11:30:00 PM 17.79 64.022 0.117 7.21 6.41 8.85
7/16/2021 11:45:00 PM 17.75 63.95 0.117 7.2 6.39 8.85
7/17/2021 12:00:00 AM 17.71 63.878 0.117 7.2 6.36 8.86
7/17/2021 12:15:00 AM 17.67 63.806 0.117 7.21 6.53 8.86
7/17/2021 12:30:00 AM 17.63 63.734 0.117 7.22 6.16 8.87
7/17/2021 12:45:00 AM 17.59 63.662 0.117 7.21 6.58 8.88
7/17/2021 1:00:00 AM 17.55 63.59 0.117 7.21 6.55 8.89
7/17/2021 1:15:00 AM 17.5 63.5 0.117 7.22 6.34 8.9
7/17/2021 1:30:00 AM 17.46 63.428 0.117 7.22 6.5 8.9
7/17/2021 1:45:00 AM 17.42 63.356 0.117 7.22 6.02 8.91
7/17/2021 2:00:00 AM 17.38 63.284 0.117 7.22 6.35 8.92
7/17/2021 2:15:00 AM 17.34 63.212 0.118 7.22 6.89 8.93
7/17/2021 2:30:00 AM 17.29 63.122 0.118 7.22 6.57 8.94
7/17/2021 2:45:00 AM 17.25 63.05 0.118 7.23 6.22 8.94
7/17/2021 3:00:00 AM 17.21 62.978 0.118 7.22 6.22 8.95
7/17/2021 3:15:00 AM 17.17 62.906 0.118 7.23 6.36 8.96
7/17/2021 3:30:00 AM 17.13 62.834 0.118 7.23 6.17 8.97
7/17/2021 3:45:00 AM 17.09 62.762 0.119 7.23 6.34 8.98
7/17/2021 4:00:00 AM 17.05 62.69 0.119 7.23 6.11 8.99
7/17/2021 4:15:00 AM 17.01 62.618 0.119 7.23 6.16 8.99
7/17/2021 4:30:00 AM 16.96 62.528 0.119 7.23 6.49 9
7/17/2021 4:45:00 AM 16.93 62.474 0.119 7.23 6.15 9.01
7/17/2021 5:00:00 AM 16.89 62.402 0.119 7.23 6.3 9.01
7/17/2021 5:15:00 AM 16.85 62.33 0.119 7.22 6.34 9.02
7/17/2021 5:30:00 AM 16.82 62.276 0.119 7.23 6.58 9.03
7/17/2021 5:45:00 AM 16.78 62.204 0.119 7.23 6.78 9.04
7/17/2021 6:00:00 AM 16.75 62.15 0.119 7.22 6.62 9.05
7/17/2021 6:15:00 AM 16.72 62.096 0.119 7.22 6.25 9.05
7/17/2021 6:30:00 AM 16.69 62.042 0.12 7.22 6.25 9.07
7/17/2021 6:45:00 AM 16.67 62.006 0.12 7.22 6.05 9.08
7/17/2021 7:00:00 AM 16.64 61.952 0.12 7.21 6.05 9.09
7/17/2021 7:15:00 AM 16.62 61.916 0.12 7.21 5.91 9.12
7/17/2021 7:30:00 AM 16.61 61.898 0.12 7.21 6 9.14
7/17/2021 7:45:00 AM 16.6 61.88 0.12 7.22 5.85 9.17
7/17/2021 8:00:00 AM 16.6 61.88 0.12 7.22 5.45 9.21
7/17/2021 8:15:00 AM 16.61 61.898 0.12 7.23 5.93 9.25
7/17/2021 8:30:00 AM 16.62 61.916 0.121 7.25 5.46 9.3
7/17/2021 8:45:00 AM 16.64 61.952 0.121 7.25 5.4 9.33
7/17/2021 9:00:00 AM 16.67 62.006 0.121 7.27 5.06 9.36
7/17/2021 9:15:00 AM 16.69 62.042 0.121 7.28 4.76 9.39
7/17/2021 9:30:00 AM 16.72 62.096 0.121 7.29 5.21 9.41
7/17/2021 9:45:00 AM 16.75 62.15 0.121 7.3 4.99 9.44
7/17/2021 10:00:00 AM 16.79 62.222 0.121 7.31 4.86 9.46
7/17/2021 10:15:00 AM 16.86 62.348 0.121 7.33 4.57 9.47
7/17/2021 10:30:00 AM 16.95 62.51 0.121 7.33 4.67 9.5
7/17/2021 10:45:00 AM 17.07 62.726 0.121 7.35 4.41 9.52
7/17/2021 11:00:00 AM 17.18 62.924 0.121 7.37 4.09 9.52
7/17/2021 11:15:00 AM 17.24 63.032 0.121 7.38 4.45 9.48
7/17/2021 11:30:00 AM 17.28 63.104 0.121 7.37 4.2 9.45
7/17/2021 11:45:00 AM 17.34 63.212 0.122 7.38 4.14 9.45
7/17/2021 12:00:00 PM 17.37 63.266 0.122 7.39 4.07 9.45
7/17/2021 12:15:00 PM 17.51 63.518 0.122 7.39 4.09 9.48
7/17/2021 12:30:00 PM 17.59 63.662 0.122 7.41 4.15 9.48
7/17/2021 12:45:00 PM 17.7 63.86 0.122 7.42 4.19 9.48
7/17/2021 1:00:00 PM 17.74 63.932 0.122 7.43 4.39 9.48
7/17/2021 1:15:00 PM 17.74 63.932 0.122 7.42 4.2 9.43
7/17/2021 1:30:00 PM 17.79 64.022 0.122 7.42 4.45 9.4
7/17/2021 1:45:00 PM 17.82 64.076 0.121 7.42 4.55 9.39
7/17/2021 2:00:00 PM 17.88 64.184 0.121 7.41 5.56 9.39
7/17/2021 2:15:00 PM 17.92 64.256 0.12 7.41 5.36 9.37
7/17/2021 2:30:00 PM 18 64.4 0.119 7.41 5.34 9.37
7/17/2021 2:45:00 PM 18.06 64.508 0.119 7.42 5.3 9.38
7/17/2021 3:00:00 PM 18.11 64.598 0.119 7.42 5.52 9.36
7/17/2021 3:15:00 PM 18.16 64.688 0.118 7.42 5.84 9.35
7/17/2021 3:30:00 PM 18.29 64.922 0.118 7.43 5.88 9.35
7/17/2021 3:45:00 PM 18.36 65.048 0.119 7.43 5.53 9.32
7/17/2021 4:00:00 PM 18.37 65.066 0.119 7.42 5.67 9.29
7/17/2021 4:15:00 PM 18.4 65.12 0.12 7.42 5.5 9.25
7/17/2021 4:30:00 PM 18.39 65.102 0.121 7.41 5.81 9.18
7/17/2021 4:45:00 PM 18.38 65.084 0.121 7.39 5.59 9.12
7/17/2021 5:00:00 PM 18.35 65.03 0.121 7.37 5.69 9.05
7/17/2021 5:15:00 PM 18.35 65.03 0.121 7.36 5.78 9.01
7/17/2021 5:30:00 PM 18.34 65.012 0.121 7.36 5.83 8.97
7/17/2021 5:45:00 PM 18.36 65.048 0.118 7.36 11.12 8.96
7/17/2021 6:00:00 PM 18.36 65.048 0.113 7.32 24.52 8.91
7/17/2021 6:15:00 PM 18.38 65.084 0.104 7.26 216.94 8.86
7/17/2021 6:30:00 PM 18.48 65.264 0.094 7.14 428.56 8.77
7/17/2021 6:45:00 PM 18.43 65.174 0.093 7.12 221.96 8.71
7/17/2021 7:00:00 PM 18.34 65.012 0.08 7.04 1024.28 8.7
7/17/2021 7:15:00 PM 18.38 65.084 0.071 6.93 1617.54 8.65
7/17/2021 7:30:00 PM 18.38 65.084 0.071 6.94 1098.64 8.71
7/17/2021 7:45:00 PM 18.35 65.03 0.07 6.94 872.38 8.72
7/17/2021 8:00:00 PM 18.37 65.066 0.075 6.96 674.27 8.72
7/17/2021 8:15:00 PM 18.32 64.976 0.078 6.97 387.62 8.7
7/17/2021 8:30:00 PM 18.06 64.508 0.068 6.92 387.26 8.74
7/17/2021 8:45:00 PM 17.85 64.13 0.058 6.74 560.17 8.76
7/17/2021 9:00:00 PM 17.83 64.094 0.056 6.75 704.96 8.76
7/17/2021 9:15:00 PM 17.93 64.274 0.061 6.76 555.1 8.73
7/17/2021 9:30:00 PM 18.03 64.454 0.068 6.79 351.54 8.69
7/17/2021 9:45:00 PM 18.1 64.58 0.07 6.83 264.22 8.66
7/17/2021 10:00:00 PM 18.16 64.688 0.07 6.84 294.3 8.63
7/17/2021 10:15:00 PM 18.23 64.814 0.07 6.84 317.79 8.58
7/17/2021 10:30:00 PM 18.29 64.922 0.069 6.83 277.07 8.53
7/17/2021 10:45:00 PM 18.33 64.994 0.068 6.83 273.07 8.5
7/17/2021 11:00:00 PM 18.34 65.012 0.067 6.81 222.18 8.47
7/17/2021 11:15:00 PM 18.33 64.994 0.066 6.79 263.78 8.45
7/17/2021 11:30:00 PM 18.31 64.958 0.065 6.78 220.02 8.43
7/17/2021 11:45:00 PM 18.29 64.922 0.065 6.77 295.33 8.42
7/18/2021 12:00:00 AM 18.26 64.868 0.064 6.75 226.19 8.41
7/18/2021 12:15:00 AM 18.23 64.814 0.063 6.75 209.45 8.41
7/18/2021 12:30:00 AM 18.19 64.742 0.063 6.73 194.86 8.41
7/18/2021 12:45:00 AM 18.15 64.67 0.063 6.74 179.91 8.42
7/18/2021 1:00:00 AM 18.1 64.58 0.063 6.74 166.1 8.42
7/18/2021 1:15:00 AM 18.06 64.508 0.063 6.76 168.47 8.44
7/18/2021 1:30:00 AM 18.01 64.418 0.064 6.74 140.74 8.45
7/18/2021 1:45:00 AM 17.97 64.346 0.064 6.75 131.08 8.47
7/18/2021 2:00:00 AM 17.92 64.256 0.065 6.79 198.16 8.49
7/18/2021 2:15:00 AM 17.88 64.184 0.066 6.77 111.54 8.5
7/18/2021 2:30:00 AM 17.84 64.112 0.067 6.8 101.83 8.52
7/18/2021 2:45:00 AM 17.79 64.022 0.068 6.8 102.89 8.54
7/18/2021 3:00:00 AM 17.74 63.932 0.069 6.84 115.2 8.56
7/18/2021 3:15:00 AM 17.69 63.842 0.069 6.83 97.9 8.59
7/18/2021 3:30:00 AM 17.64 63.752 0.07 6.84 95.03 8.6
7/18/2021 3:45:00 AM 17.6 63.68 0.071 6.83 82.06 8.62
7/18/2021 4:00:00 AM 17.55 63.59 0.072 6.86 89.27 8.64
7/18/2021 4:15:00 AM 17.5 63.5 0.072 6.86 88.04 8.66
7/18/2021 4:30:00 AM 17.46 63.428 0.073 6.88 68.91 8.68
7/18/2021 4:45:00 AM 17.41 63.338 0.073 6.88 83.9 8.69
7/18/2021 5:00:00 AM 17.36 63.248 0.074 6.89 63.52 8.71
7/18/2021 5:15:00 AM 17.31 63.158 0.074 6.89 77.24 8.73
7/18/2021 5:30:00 AM 17.26 63.068 0.075 6.91 58.45 8.75
7/18/2021 5:45:00 AM 17.21 62.978 0.075 6.91 64.41 8.76
7/18/2021 6:00:00 AM 17.16 62.888 0.076 6.93 56.66 8.78
7/18/2021 6:15:00 AM 17.12 62.816 0.076 6.93 52.72 8.79
7/18/2021 6:30:00 AM 17.07 62.726 0.077 6.93 53.31 8.81
7/18/2021 6:45:00 AM 17.02 62.636 0.077 6.93 55.5 8.83
7/18/2021 7:00:00 AM 16.98 62.564 0.077 6.94 51.69 8.85
7/18/2021 7:15:00 AM 16.94 62.492 0.078 6.93 43.59 8.87
7/18/2021 7:30:00 AM 16.9 62.42 0.078 6.92 43.16 8.89
7/18/2021 7:45:00 AM 16.87 62.366 0.078 6.93 39.99 8.91
7/18/2021 8:00:00 AM 16.83 62.294 0.078 6.95 37.14 8.93
7/18/2021 8:15:00 AM 16.8 62.24 0.078 6.96 38.59 8.94
7/18/2021 8:30:00 AM 16.77 62.186 0.079 6.95 40.49 8.96
7/18/2021 8:45:00 AM 16.74 62.132 0.079 6.95 39.76 8.98
7/18/2021 9:00:00 AM 16.72 62.096 0.079 6.97 35.51 8.99
7/18/2021 9:15:00 AM 16.7 62.06 0.079 6.97 34.48 9.01
7/18/2021 9:30:00 AM 16.68 62.024 0.079 6.97 33.41 9.02
7/18/2021 9:45:00 AM 16.67 62.006 0.079 6.97 30.72 9.04
7/18/2021 10:00:00 AM 16.66 61.988 0.08 6.99 29.13 9.05
7/18/2021 10:15:00 AM 16.65 61.97 0.08 6.98 30.13 9.06
7/18/2021 10:30:00 AM 16.65 61.97 0.08 6.98 29.12 9.07
7/18/2021 10:45:00 AM 16.65 61.97 0.08 7 27.03 9.09
7/18/2021 11:00:00 AM 16.66 61.988 0.08 7 27.58 9.1
7/18/2021 11:15:00 AM 16.66 61.988 0.08 7.01 26.34 9.1
7/18/2021 11:30:00 AM 16.66 61.988 0.08 7 26.07 9.11
7/18/2021 11:45:00 AM 16.65 61.97 0.08 7.02 26.06 9.11
7/18/2021 12:00:00 PM 16.65 61.97 0.08 7 25.6 9.12
7/18/2021 12:15:00 PM 16.64 61.952 0.08 7.02 24.9 9.12
7/18/2021 12:30:00 PM 16.63 61.934 0.081 7.01 24.82 9.13
7/18/2021 12:45:00 PM 16.62 61.916 0.081 7 23.62 9.13
7/18/2021 1:00:00 PM 16.63 61.934 0.081 7.03 23.48 9.13
7/18/2021 1:15:00 PM 16.63 61.934 0.081 7.03 20.5 9.13
7/18/2021 1:30:00 PM 16.63 61.934 0.08 7 18.12 9.14
7/18/2021 1:45:00 PM 16.64 61.952 0.08 7.03 24.17 9.15
7/18/2021 2:00:00 PM 16.65 61.97 0.08 7.02 25.25 9.15
7/18/2021 2:15:00 PM 16.65 61.97 0.08 7.03 24.34 9.16
7/18/2021 2:30:00 PM 16.65 61.97 0.08 7.01 15.78 9.16
7/18/2021 2:45:00 PM 16.65 61.97 0.08 7.03 22.93 9.15
7/18/2021 3:00:00 PM 16.64 61.952 0.08 7.04 22.02 9.15
7/18/2021 3:15:00 PM 16.64 61.952 0.08 7.02 22.65 9.15
7/18/2021 3:30:00 PM 16.64 61.952 0.08 7.02 25.53 9.15
7/18/2021 3:45:00 PM 16.64 61.952 0.08 7 21.65 9.15
7/18/2021 4:00:00 PM 16.64 61.952 0.081 7.02 26.1 9.15
7/18/2021 4:15:00 PM 16.64 61.952 0.081 7.03 24.3 9.16
7/18/2021 4:30:00 PM 16.63 61.934 0.081 7 17.49 9.15
7/18/2021 4:45:00 PM 16.63 61.934 0.081 7.04 19.31 9.15
7/18/2021 5:00:00 PM 16.62 61.916 0.081 7.03 20.18 9.15
7/18/2021 5:15:00 PM 16.61 61.898 0.081 7 20.34 9.14
7/18/2021 5:30:00 PM 16.6 61.88 0.081 7.04 23.09 9.15
7/18/2021 5:45:00 PM 16.59 61.862 0.081 7.03 17.64 9.15
7/18/2021 6:00:00 PM 16.58 61.844 0.081 7.04 18.18 9.15
7/18/2021 6:15:00 PM 16.57 61.826 0.082 7.03 26.8 9.16
7/18/2021 6:30:00 PM 16.56 61.808 0.082 7.04 23.16 9.16
7/18/2021 6:45:00 PM 16.55 61.79 0.082 7.03 19.12 9.16
7/18/2021 7:00:00 PM 16.54 61.772 0.082 7.03 18.11 9.15
7/18/2021 7:15:00 PM 16.52 61.736 0.082 6.99 21.54 9.15
7/18/2021 7:30:00 PM 16.51 61.718 0.083 7.02 20.04 9.14
7/18/2021 7:45:00 PM 16.5 61.7 0.083 7.04 21.06 9.15
7/18/2021 8:00:00 PM 16.48 61.664 0.083 7.03 17.47 9.15
7/18/2021 8:15:00 PM 16.47 61.646 0.083 7.02 17.74 9.15
7/18/2021 8:30:00 PM 16.45 61.61 0.083 7.05 19.6 9.14
7/18/2021 8:45:00 PM 16.43 61.574 0.083 6.99 19.42 9.14
7/18/2021 9:00:00 PM 16.41 61.538 0.084 7.03 20.04 9.15
7/18/2021 9:15:00 PM 16.39 61.502 0.084 7.04 24.49 9.14
7/18/2021 9:30:00 PM 16.37 61.466 0.084 7.03 20.75 9.15
7/18/2021 9:45:00 PM 16.34 61.412 0.084 7.04 20.71 9.15
7/18/2021 10:00:00 PM 16.31 61.358 0.084 7.02 20.85 9.15
7/18/2021 10:15:00 PM 16.28 61.304 0.085 7 22.48 9.16
7/18/2021 10:30:00 PM 16.25 61.25 0.085 7.03 16.9 9.17
7/18/2021 10:45:00 PM 16.22 61.196 0.085 7.04 19.12 9.18
7/18/2021 11:00:00 PM 16.18 61.124 0.085 7 20.3 9.18
7/18/2021 11:15:00 PM 16.14 61.052 0.085 7.05 18.22 9.18
7/18/2021 11:30:00 PM 16.1 60.98 0.085 7.03 18.33 9.19
7/18/2021 11:45:00 PM 16.07 60.926 0.086 7.05 20.87 9.2
7/19/2021 12:00:00 AM 16.03 60.854 0.086 7.02 16.18 9.21
7/19/2021 12:15:00 AM 15.98 60.764 0.086 7.01 18.22 9.21
7/19/2021 12:30:00 AM 15.95 60.71 0.086 7.03 19.71 9.2
7/19/2021 12:45:00 AM 15.91 60.638 0.086 7.02 14.36 9.2
7/19/2021 1:00:00 AM 15.87 60.566 0.086 7.04 19.11 9.22
7/19/2021 1:15:00 AM 15.84 60.512 0.087 7.05 20.14 9.2
7/19/2021 1:30:00 AM 15.79 60.422 0.087 7.02 23.53 9.2
7/19/2021 1:45:00 AM 15.75 60.35 0.087 7.01 23.82 9.23
7/19/2021 2:00:00 AM 15.71 60.278 0.087 7.03 34.81 9.24
7/19/2021 2:15:00 AM 15.66 60.188 0.087 6.97 31.68 9.21
7/19/2021 2:30:00 AM 15.62 60.116 0.087 7 35.78 9.23
7/19/2021 2:45:00 AM 15.57 60.026 0.087 7.01 164.93 9.23
7/19/2021 3:00:00 AM 15.53 59.954 0.087 7.01 152.49 9.28
7/19/2021 3:15:00 AM 15.49 59.882 0.086 7.03 215.13 9.11
7/19/2021 3:30:00 AM 15.44 59.792 0.086 7.04 197.17 9.2
7/19/2021 3:45:00 AM 15.4 59.72 0.084 6.94 202.16 9.22
7/19/2021 4:00:00 AM 15.36 59.648 0.085 6.89 311.68 9.29
7/19/2021 4:15:00 AM 15.3 59.54 0.086 6.86 324.86 9.32
7/19/2021 4:30:00 AM 15.26 59.468 0.086 6.86 332.19 9.12
7/19/2021 4:45:00 AM 15.25 59.45 0.085 6.86 307.85 9.15
7/19/2021 5:00:00 AM 15.22 59.396 0.084 6.89 283.3 9.24
7/19/2021 5:15:00 AM 15.2 59.36 0.084 6.9 280.65 7.95
7/19/2021 5:30:00 AM 15.17 59.306 0.084 6.87 124.94 9.08
7/19/2021 5:45:00 AM 15.14 59.252 0.084 6.97 111.02 9.03
7/19/2021 6:00:00 AM 15.1 59.18 0.082 6.92 93.84 9.28
7/19/2021 6:15:00 AM 15.07 59.126 0.082 6.99 89.42 9.32
7/19/2021 6:30:00 AM 15.04 59.072 0.082 7 88.79 9.38
7/19/2021 6:45:00 AM 15.02 59.036 0.082 7.03 59.43 9.41
7/19/2021 7:00:00 AM 15.01 59.018 0.082 7.03 64.09 9.44
7/19/2021 7:15:00 AM 14.99 58.982 0.082 7.01 34.71 9.34
7/19/2021 7:30:00 AM 14.98 58.964 0.08 7.02 19.44 9.46
7/19/2021 7:45:00 AM 14.97 58.946 0.079 6.98 7.7 9.4
7/19/2021 8:00:00 AM 14.97 58.946 0.078 6.99 3.17 9.49
7/19/2021 8:15:00 AM 14.98 58.964 0.077 7.03 2.1 9.51
7/19/2021 8:30:00 AM 15 59 0.076 7.05 3.18 9.51
7/19/2021 8:45:00 AM 15.03 59.054 0.075 6.97 3.98 9.52
7/19/2021 9:00:00 AM 15.07 59.126 0.074 7.04 12.61 9.53
7/19/2021 9:15:00 AM 15.12 59.216 0.072 7.05 9.22 9.54
7/19/2021 9:30:00 AM 15.18 59.324 0.071 7.1 15.7 9.55
7/19/2021 9:45:00 AM 15.24 59.432 0.068 7.1 72.88 9.55
7/19/2021 10:00:00 AM 15.3 59.54 0.062 6.98 139.93 9.48
7/19/2021 10:15:00 AM 15.38 59.684 0.056 7.08 129.03 9.53
7/19/2021 10:30:00 AM 15.46 59.828 0.048 7.09 3860.98 9.51
7/19/2021 10:45:00 AM 15.53 59.954 0.04 7.07 2523.01 9.06
7/19/2021 11:00:00 AM 15.62 60.116 0.088 7 836.89 8.66
7/19/2021 11:15:00 AM 15.64 60.152 0.089 6.87 933.61 8.02
7/19/2021 11:30:00 AM 15.76 60.368 0.085 6.88 975.95 8.39
7/19/2021 11:45:00 AM 15.98 60.764 0.085 6.88 1017.29 8.72
7/19/2021 12:00:00 PM 16.11 60.998 0.085 6.9 1146.1 8.86
7/19/2021 12:15:00 PM 16.29 61.322 0.085 6.9 1342.97 8.89
7/19/2021 12:30:00 PM 16.45 61.61 0.067 6.81 130.81 8.7
7/19/2021 12:45:00 PM 16.53 61.754 0.064 6.81 108.96 8.6
7/19/2021 1:00:00 PM 16.63 61.934 0.063 6.84 149.91 8.45
7/19/2021 1:15:00 PM 16.75 62.15 0.064 6.86 192.08 8.15
7/19/2021 1:30:00 PM 16.88 62.384 0.068 6.8 141.3 8.71
7/19/2021 1:45:00 PM 17.05 62.69 0.07 6.97 128.82 8.04
7/19/2021 2:00:00 PM 17.24 63.032 0.071 7.1 119.7 9.16
7/19/2021 2:15:00 PM 17.45 63.41 0.069 7.14 144.07 9.3
7/19/2021 2:30:00 PM 17.57 63.626 0.068 7.22 143.14 9.29
7/19/2021 2:45:00 PM 17.65 63.77 0.068 7.2 143.71 9.25
7/19/2021 3:00:00 PM 17.72 63.896 0.069 7.21 128 9.2
7/19/2021 3:15:00 PM 17.8 64.04 0.07 7.2 112.3 9.17
7/19/2021 3:30:00 PM 17.87 64.166 0.07 7.23 129.16 9.19
7/19/2021 3:45:00 PM 17.94 64.292 0.071 7.19 125.46 9.01
7/19/2021 4:00:00 PM 18 64.4 0.072 7.2 153.48 9.1
7/19/2021 4:15:00 PM 18.05 64.49 0.072 7.25 197.49 9.1
7/19/2021 4:30:00 PM 18.09 64.562 0.071 7.26 183.26 9.08
7/19/2021 4:45:00 PM 18.14 64.652 0.07 7.24 224.2 9.09
7/19/2021 5:00:00 PM 18.19 64.742 0.068 7.2 224.9 9.06
7/19/2021 5:15:00 PM 18.24 64.832 0.068 7.25 208.47 9.05
7/19/2021 5:30:00 PM 18.25 64.85 0.067 7.21 209.94 9
7/19/2021 5:45:00 PM 18.27 64.886 0.067 7.16 241.52 9.01
7/19/2021 6:00:00 PM 18.28 64.904 0.067 7.21 200.76 8.97
7/19/2021 6:15:00 PM 18.29 64.922 0.067 7.22 173.17 8.95
7/19/2021 6:30:00 PM 18.3 64.94 0.066 7.24 213.5 8.96
7/19/2021 6:45:00 PM 18.31 64.958 0.066 7.17 223.44 8.94
7/19/2021 7:00:00 PM 18.31 64.958 0.066 7.19 199.6 8.91
7/19/2021 7:15:00 PM 18.31 64.958 0.068 7.19 179.98 8.9
7/19/2021 7:30:00 PM 18.3 64.94 0.068 7.14 213.41 8.88
7/19/2021 7:45:00 PM 18.29 64.922 0.065 7.21 219.63 8.87
7/19/2021 8:00:00 PM 18.27 64.886 0.065 7.22 267.48 8.84
7/19/2021 8:15:00 PM 18.25 64.85 0.065 7.2 291.25 8.83
7/19/2021 8:30:00 PM 18.23 64.814 0.065 7.2 244.64 8.81
7/19/2021 8:45:00 PM 18.21 64.778 0.064 7.15 265.52 8.81
7/19/2021 9:00:00 PM 18.18 64.724 0.063 7.19 217.69 8.8
7/19/2021 9:15:00 PM 18.15 64.67 0.061 7.13 167.27 8.79
7/19/2021 9:30:00 PM 18.12 64.616 0.058 7.12 153.47 8.77
7/19/2021 9:45:00 PM 18.07 64.526 0.054 7.19 223.51 8.74
7/19/2021 10:00:00 PM 18.03 64.454 0.05 7.12 1060.27 8.76
7/19/2021 10:15:00 PM 17.97 64.346 0.048 7.2 5865.3 8.71
7/19/2021 10:30:00 PM 17.9 64.22 0.101 7.13 2213.66 8.76
7/19/2021 10:45:00 PM 17.85 64.13 0.101 7.08 2230.16 8.81
7/19/2021 11:00:00 PM 17.79 64.022 0.101 7.08 2247.76 8.82
7/19/2021 11:15:00 PM 17.74 63.932 0.101 7.1 2215.57 8.84
7/19/2021 11:30:00 PM 17.68 63.824 0.101 7.09 3198.85 8.85
7/19/2021 11:45:00 PM 17.62 63.716 0.101 7.1 3376.61 8.87
7/20/2021 12:00:00 AM 17.56 63.608 0.101 7.07 4583.97 8.89
7/20/2021 12:15:00 AM 17.5 63.5 0.101 7.07 9509.8 8.89
7/20/2021 12:30:00 AM 17.45 63.41 0.101 7.07 9192.58 8.9
7/20/2021 12:45:00 AM 17.4 63.32 0.088 6.89 79.64 8.91
7/20/2021 1:00:00 AM 17.34 63.212 0.09 6.98 94.74 8.88
7/20/2021 1:15:00 AM 17.28 63.104 0.09 6.99 97.93 8.85
7/20/2021 1:30:00 AM 17.22 62.996 0.089 7.05 105.37 8.88
7/20/2021 1:45:00 AM 17.16 62.888 0.089 7.1 100.05 8.86
7/20/2021 2:00:00 AM 17.1 62.78 0.088 7.11 98.34 8.87
7/20/2021 2:15:00 AM 17.04 62.672 0.087 7.15 106.98 8.89
7/20/2021 2:30:00 AM 16.99 62.582 0.086 7.11 115.72 8.93
7/20/2021 2:45:00 AM 16.94 62.492 0.086 7.12 135.56 8.93
7/20/2021 3:00:00 AM 16.89 62.402 0.086 7.16 114.31 8.82
7/20/2021 3:15:00 AM 16.83 62.294 0.085 7.17 91.83 8.86
7/20/2021 3:30:00 AM 16.78 62.204 0.085 7.15 107.23 8.92
7/20/2021 3:45:00 AM 16.73 62.114 0.083 7.17 106.64 8.97
7/20/2021 4:00:00 AM 16.68 62.024 0.083 7.1 99.28 9.01
7/20/2021 4:15:00 AM 16.64 61.952 0.084 7.17 95.82 9.06
7/20/2021 4:30:00 AM 16.6 61.88 0.085 7.15 108.51 9
7/20/2021 4:45:00 AM 16.56 61.808 0.085 7.16 95.88 8.93
7/20/2021 5:00:00 AM 16.52 61.736 0.085 7.14 96.58 8.99
7/20/2021 5:15:00 AM 16.48 61.664 0.085 7.13 100.83 9.02
7/20/2021 5:30:00 AM 16.44 61.592 0.083 7.11 109.28 9.04
7/20/2021 5:45:00 AM 16.4 61.52 0.081 7.13 117.35 9.02
7/20/2021 6:00:00 AM 16.35 61.43 0.08 7.13 130.12 8.99
7/20/2021 6:15:00 AM 16.32 61.376 0.079 7.17 121.45 8.85
7/20/2021 6:30:00 AM 16.28 61.304 0.078 7.11 158.43 8.89
7/20/2021 6:45:00 AM 16.25 61.25 0.076 7.14 349.54 8.93
7/20/2021 7:00:00 AM 16.22 61.196 0.074 7.12 160.98 8.94
7/20/2021 7:15:00 AM 16.2 61.16 0.07 7.16 268.74 9.17
7/20/2021 7:30:00 AM 16.18 61.124 0.066 7.11 555.5 9.2
7/20/2021 7:45:00 AM 16.16 61.088 0.063 7.18 1211.36 9.21
7/20/2021 8:00:00 AM 16.14 61.052 0.06 7.18 2221.55 9.22
7/20/2021 8:15:00 AM 16.14 61.052 0.057 7.19 5025.82 9.2
7/20/2021 8:30:00 AM 16.13 61.034 0.055 7.21 10584.08 9.21
7/20/2021 8:45:00 AM 16.13 61.034 0.054 7.2 4845.02 9.08
7/20/2021 9:00:00 AM 16.14 61.052 0.103 7.15 521.34 9.35
7/20/2021 9:15:00 AM 16.16 61.088 0.097 7.13 714.51 9.38
7/20/2021 9:30:00 AM 16.18 61.124 0.097 7.12 644.83 9.4
7/20/2021 9:45:00 AM 16.22 61.196 0.096 7.15 577.44 9.42
7/20/2021 10:00:00 AM 16.26 61.268 0.091 7.02 325.34 9.43
7/20/2021 10:15:00 AM 16.31 61.358 0.092 7.09 352.51 9.44
7/20/2021 10:30:00 AM 16.38 61.484 0.092 7.12 357.76 9.46
7/20/2021 10:45:00 AM 16.45 61.61 0.092 7.15 293.47 9.46
7/20/2021 11:00:00 AM 16.53 61.754 0.092 7.19 298.12 9.46
7/20/2021 11:15:00 AM 16.62 61.916 0.092 7.23 285.23 9.46
7/20/2021 11:30:00 AM 16.7 62.06 0.091 7.22 261.32 9.46
7/20/2021 11:45:00 AM 16.8 62.24 0.09 7.28 217.77 9.46
7/20/2021 12:00:00 PM 16.95 62.51 0.091 7.31 233.88 9.44
7/20/2021 12:15:00 PM 17.06 62.708 0.091 7.31 235.25 9.44
7/20/2021 12:30:00 PM 17.12 62.816 0.093 7.28 269.51 9.42
7/20/2021 12:45:00 PM 17.22 62.996 0.108 7.26 336.3 9.4
7/20/2021 1:00:00 PM 17.36 63.248 0.108 7.33 566.13 9.4
7/20/2021 1:15:00 PM 17.51 63.518 0.108 7.33 659.54 9.38
7/20/2021 1:30:00 PM 17.64 63.752 0.109 7.35 626.36 9.37
7/20/2021 1:45:00 PM 17.77 63.986 0.109 7.35 1274.09 9.36
7/20/2021 2:00:00 PM 17.86 64.148 0.109 7.37 1373.05 9.34
7/20/2021 2:15:00 PM 17.93 64.274 0.109 7.37 2070.3 9.32
7/20/2021 2:30:00 PM 17.98 64.364 0.109 7.29 2107.42 9.29
7/20/2021 2:45:00 PM 18.04 64.472 0.109 7.3 2813.73 9.27
7/20/2021 3:00:00 PM 18.11 64.598 0.109 7.31 3527.95 9.26
7/20/2021 3:15:00 PM 18.17 64.706 0.11 7.34 3696.13 9.23
7/20/2021 3:30:00 PM 18.23 64.814 0.11 7.35 10344.64 9.21
7/20/2021 3:45:00 PM 18.28 64.904 0.11 7.38 13317.86 9.17
7/20/2021 4:00:00 PM 18.35 65.03 0.11 7.35 15052.35 9.16
7/20/2021 4:15:00 PM 18.37 65.066 0.11 7.3 10397.13 9.13
7/20/2021 4:30:00 PM 18.44 65.192 0.109 7.36 9968.93 9.12
7/20/2021 4:45:00 PM 18.48 65.264 0.109 7.36 5854.74 9.09
7/20/2021 5:00:00 PM 18.51 65.318 0.108 7.36 4623.61 9.07
7/20/2021 5:15:00 PM 18.55 65.39 0.107 7.38 3288.75 9.05
7/20/2021 5:30:00 PM 18.57 65.426 0.106 7.33 1781.05 9.01
7/20/2021 5:45:00 PM 18.6 65.48 0.105 7.31 1449.12 8.99
7/20/2021 6:00:00 PM 18.61 65.498 0.103 7.32 600.82 8.96
7/20/2021 6:15:00 PM 18.63 65.534 0.1 7.31 201.64 8.94
7/20/2021 6:30:00 PM 18.65 65.57 0.114 7.34 13.72 8.92
7/20/2021 6:45:00 PM 18.65 65.57 0.113 7.34 12.47 8.9
7/20/2021 7:00:00 PM 18.66 65.588 0.113 7.34 12.86 8.87
7/20/2021 7:15:00 PM 18.65 65.57 0.112 7.28 13.01 8.84
7/20/2021 7:30:00 PM 18.63 65.534 0.112 7.32 11.92 8.81
7/20/2021 7:45:00 PM 18.62 65.516 0.112 7.3 12.06 8.78
7/20/2021 8:00:00 PM 18.61 65.498 0.111 7.28 13.3 8.78
7/20/2021 8:15:00 PM 18.57 65.426 0.11 7.3 17.49 8.76
7/20/2021 8:30:00 PM 18.53 65.354 0.109 7.3 16.97 8.74
7/20/2021 8:45:00 PM 18.48 65.264 0.108 7.3 20.52 8.76
7/20/2021 9:00:00 PM 18.42 65.156 0.105 7.28 32.87 8.73
7/20/2021 9:15:00 PM 18.33 64.994 0.101 7.25 86.79 8.75
7/20/2021 9:30:00 PM 18.27 64.886 0.094 7.15 188.09 8.76
7/20/2021 9:45:00 PM 18.12 64.616 0.086 7.15 209.64 8.76
7/20/2021 10:00:00 PM 18 64.4 0.083 7.16 183.94 8.78
7/20/2021 10:15:00 PM 17.94 64.292 0.081 7.16 166.36 8.79
7/20/2021 10:30:00 PM 17.85 64.13 0.079 7.14 116.47 8.8
7/20/2021 10:45:00 PM 17.79 64.022 0.079 7.11 164.53 8.79
7/20/2021 11:00:00 PM 17.77 63.986 0.094 7.09 424.75 8.78
7/20/2021 11:15:00 PM 17.72 63.896 0.096 7.09 1241.59 8.77
7/20/2021 11:30:00 PM 17.66 63.788 0.097 7.08 2623.55 8.77
7/20/2021 11:45:00 PM 17.61 63.698 0.098 7.06 2889.56 8.77
7/21/2021 12:00:00 AM 17.57 63.626 0.099 7.05 2796.16 8.76
7/21/2021 12:15:00 AM 17.53 63.554 0.098 7.05 2839.49 8.76
7/21/2021 12:30:00 AM 17.46 63.428 0.095 7.04 2802.65 8.76
7/21/2021 12:45:00 AM 17.4 63.32 0.093 7.03 2798.07 8.76
7/21/2021 1:00:00 AM 17.35 63.23 0.092 7.02 2918.08 8.76
7/21/2021 1:15:00 AM 17.34 63.212 0.091 7.02 2964.19 8.75
7/21/2021 1:30:00 AM 17.34 63.212 0.091 7.01 2920.14 8.73
7/21/2021 1:45:00 AM 17.35 63.23 0.091 6.94 2760.64 8.72
7/21/2021 2:00:00 AM 17.35 63.23 0.09 6.96 2550.94 8.71
7/21/2021 2:15:00 AM 17.34 63.212 0.09 6.95 2300.94 8.71
7/21/2021 2:30:00 AM 17.32 63.176 0.089 6.98 2026.46 8.71
7/21/2021 2:45:00 AM 17.3 63.14 0.089 6.96 1857.63 8.71
7/21/2021 3:00:00 AM 17.28 63.104 0.088 6.95 1576.43 8.71
7/21/2021 3:15:00 AM 17.25 63.05 0.088 6.94 1404.68 8.72
7/21/2021 3:30:00 AM 17.22 62.996 0.087 6.98 1044.49 8.73
7/21/2021 3:45:00 AM 17.19 62.942 0.087 6.99 920.25 8.74
7/21/2021 4:00:00 AM 17.15 62.87 0.086 7.01 749.18 8.75
7/21/2021 4:15:00 AM 17.11 62.798 0.085 7.02 592.9 8.76
7/21/2021 4:30:00 AM 17.06 62.708 0.085 7.02 444.75 8.77
7/21/2021 4:45:00 AM 17.02 62.636 0.084 7.02 271.54 8.79
7/21/2021 5:00:00 AM 16.98 62.564 0.081 7.01 147.14 8.8
7/21/2021 5:15:00 AM 16.94 62.492 0.085 7.03 39.68 8.8
7/21/2021 5:30:00 AM 16.89 62.402 0.075 7.02 46.87 8.83
7/21/2021 5:45:00 AM 16.85 62.33 0.086 7.02 35 8.84
7/21/2021 6:00:00 AM 16.8 62.24 0.085 7.03 34.75 8.86
7/21/2021 6:15:00 AM 16.76 62.168 0.087 7.01 31.93 8.88
7/21/2021 6:30:00 AM 16.72 62.096 0.087 7.02 27.22 8.89
7/21/2021 6:45:00 AM 16.68 62.024 0.088 7.05 26.5 8.91
7/21/2021 7:00:00 AM 16.64 61.952 0.088 7.02 28.88 8.92
7/21/2021 7:15:00 AM 16.6 61.88 0.089 7.05 25.25 8.93
7/21/2021 7:30:00 AM 16.56 61.808 0.089 7.05 20.59 8.94
7/21/2021 7:45:00 AM 16.53 61.754 0.089 7.04 25.78 8.97
7/21/2021 8:00:00 AM 16.51 61.718 0.09 7.07 23.19 8.99
7/21/2021 8:15:00 AM 16.49 61.682 0.09 7.05 21.95 9.01
7/21/2021 8:30:00 AM 16.46 61.628 0.091 7.08 23.41 9.02
7/21/2021 8:45:00 AM 16.45 61.61 0.091 7.09 20.08 9.04
7/21/2021 9:00:00 AM 16.44 61.592 0.092 7.08 18.93 9.08
7/21/2021 9:15:00 AM 16.43 61.574 0.092 7.09 18.77 9.09
7/21/2021 9:30:00 AM 16.42 61.556 0.093 7.08 16.24 9.11
7/21/2021 9:45:00 AM 16.41 61.538 0.093 7.1 16.79 9.12
7/21/2021 10:00:00 AM 16.42 61.556 0.093 7.1 16.36 9.15
7/21/2021 10:15:00 AM 16.41 61.538 0.094 7.13 16.38 9.16
7/21/2021 10:30:00 AM 16.4 61.52 0.094 7.14 15.42 9.16
7/21/2021 10:45:00 AM 16.41 61.538 0.094 7.14 15.84 9.19
7/21/2021 11:00:00 AM 16.44 61.592 0.095 7.15 15.48 9.21
7/21/2021 11:15:00 AM 16.46 61.628 0.095 7.16 14.3 9.23
7/21/2021 11:30:00 AM 16.49 61.682 0.095 7.16 14.89 9.24
7/21/2021 11:45:00 AM 16.5 61.7 0.096 7.18 14.47 9.25
7/21/2021 12:00:00 PM 16.51 61.718 0.096 7.18 14.39 9.25
7/21/2021 12:15:00 PM 16.51 61.718 0.096 7.17 13.61 9.26
7/21/2021 12:30:00 PM 16.51 61.718 0.097 7.18 13.27 9.26
7/21/2021 12:45:00 PM 16.53 61.754 0.097 7.19 12.86 9.27
7/21/2021 1:00:00 PM 16.53 61.754 0.097 7.19 13.28 9.26
7/21/2021 1:15:00 PM 16.53 61.754 0.097 7.2 13.17 9.27
7/21/2021 1:30:00 PM 16.53 61.754 0.098 7.2 13.66 9.26
7/21/2021 1:45:00 PM 16.58 61.844 0.098 7.2 12.72 9.29
7/21/2021 2:00:00 PM 16.6 61.88 0.098 7.22 12.17 9.3
7/21/2021 2:15:00 PM 16.67 62.006 0.098 7.21 12.5 9.32
7/21/2021 2:30:00 PM 16.69 62.042 0.099 7.22 12.83 9.32
7/21/2021 2:45:00 PM 16.81 62.258 0.099 7.22 11.84 9.33
7/21/2021 3:00:00 PM 16.81 62.258 0.099 7.24 12.03 9.32
7/21/2021 3:15:00 PM 16.86 62.348 0.099 7.25 11.63 9.32
7/21/2021 3:30:00 PM 16.9 62.42 0.1 7.25 12.92 9.33
7/21/2021 3:45:00 PM 16.9 62.42 0.1 7.21 12.88 9.32
7/21/2021 4:00:00 PM 16.92 62.456 0.1 7.26 12.95 9.3
7/21/2021 4:15:00 PM 16.92 62.456 0.1 7.26 12.78 9.29
7/21/2021 4:30:00 PM 16.95 62.51 0.101 7.26 12.71 9.3
7/21/2021 4:45:00 PM 16.99 62.582 0.101 7.24 12.46 9.29
7/21/2021 5:00:00 PM 17.02 62.636 0.101 7.27 11.76 9.29
7/21/2021 5:15:00 PM 17.07 62.726 0.101 7.25 11.87 9.29
7/21/2021 5:30:00 PM 17.1 62.78 0.101 7.27 12.2 9.26
7/21/2021 5:45:00 PM 17.09 62.762 0.101 7.26 11.7 9.24
7/21/2021 6:00:00 PM 17.06 62.708 0.102 7.26 11.42 9.21
7/21/2021 6:15:00 PM 17.02 62.636 0.102 7.26 11.88 9.19
7/21/2021 6:30:00 PM 16.99 62.582 0.102 7.26 11.9 9.18
7/21/2021 6:45:00 PM 16.96 62.528 0.102 7.25 12.34 9.17
7/21/2021 7:00:00 PM 16.92 62.456 0.102 7.26 11.43 9.17
7/21/2021 7:15:00 PM 16.89 62.402 0.102 7.25 11.36 9.16
7/21/2021 7:30:00 PM 16.85 62.33 0.102 7.25 11.3 9.15
7/21/2021 7:45:00 PM 16.81 62.258 0.103 7.25 11.27 9.14
7/21/2021 8:00:00 PM 16.77 62.186 0.103 7.25 11.77 9.15
7/21/2021 8:15:00 PM 16.72 62.096 0.103 7.25 11.32 9.15
7/21/2021 8:30:00 PM 16.68 62.024 0.103 7.25 11.37 9.15
7/21/2021 8:45:00 PM 16.63 61.934 0.103 7.25 11.6 9.14
7/21/2021 9:00:00 PM 16.58 61.844 0.103 7.25 11.56 9.15
7/21/2021 9:15:00 PM 16.54 61.772 0.104 7.25 11.24 9.15
7/21/2021 9:30:00 PM 16.49 61.682 0.104 7.24 12.24 9.16
7/21/2021 9:45:00 PM 16.44 61.592 0.104 7.24 12.88 9.17
7/21/2021 10:00:00 PM 16.39 61.502 0.104 7.24 13.04 9.17
7/21/2021 10:15:00 PM 16.34 61.412 0.104 7.23 13 9.19
7/21/2021 10:30:00 PM 16.28 61.304 0.104 7.23 12.54 9.19
7/21/2021 10:45:00 PM 16.22 61.196 0.104 7.24 13.58 9.2
7/21/2021 11:00:00 PM 16.15 61.07 0.105 7.23 13.78 9.21
7/21/2021 11:15:00 PM 16.09 60.962 0.105 7.24 12.6 9.23
7/21/2021 11:30:00 PM 16.03 60.854 0.105 7.23 13.91 9.24
7/21/2021 11:45:00 PM 15.96 60.728 0.105 7.23 13.77 9.24
7/22/2021 12:00:00 AM 15.9 60.62 0.105 7.23 13.46 9.27
7/22/2021 12:15:00 AM 15.83 60.494 0.105 7.23 13.73 9.28
7/22/2021 12:30:00 AM 15.77 60.386 0.105 7.23 13.25 9.29
7/22/2021 12:45:00 AM 15.7 60.26 0.105 7.23 15.88 9.31
7/22/2021 1:00:00 AM 15.63 60.134 0.106 7.18 13.95 9.32
7/22/2021 1:15:00 AM 15.57 60.026 0.106 7.19 13.92 9.33
7/22/2021 1:30:00 AM 15.5 59.9 0.106 7.22 12.56 9.35
7/22/2021 1:45:00 AM 15.43 59.774 0.106 7.21 13.82 9.36
7/22/2021 2:00:00 AM 15.37 59.666 0.106 7.23 13.69 9.37
7/22/2021 2:15:00 AM 15.3 59.54 0.106 7.19 13.36 9.38
7/22/2021 2:30:00 AM 15.24 59.432 0.106 7.23 13.59 9.4
7/22/2021 2:45:00 AM 15.17 59.306 0.106 7.22 14.05 9.42
7/22/2021 3:00:00 AM 15.11 59.198 0.106 7.22 14.88 9.44
7/22/2021 3:15:00 AM 15.05 59.09 0.107 7.21 13.65 9.45
7/22/2021 3:30:00 AM 14.99 58.982 0.107 7.22 13.35 9.45
7/22/2021 3:45:00 AM 14.93 58.874 0.107 7.21 14.36 9.47
7/22/2021 4:00:00 AM 14.87 58.766 0.107 7.23 13.89 9.48
7/22/2021 4:15:00 AM 14.81 58.658 0.107 7.2 14.07 9.49
7/22/2021 4:30:00 AM 14.76 58.568 0.107 7.23 12.71 9.5
7/22/2021 4:45:00 AM 14.7 58.46 0.107 7.22 13.13 9.51
7/22/2021 5:00:00 AM 14.64 58.352 0.107 7.23 12.97 9.53
7/22/2021 5:15:00 AM 14.58 58.244 0.107 7.19 11.87 9.54
7/22/2021 5:30:00 AM 14.53 58.154 0.107 7.23 12.98 9.55
7/22/2021 5:45:00 AM 14.48 58.064 0.108 7.23 13.52 9.57
7/22/2021 6:00:00 AM 14.42 57.956 0.108 7.18 12.83 9.58
7/22/2021 6:15:00 AM 14.37 57.866 0.108 7.22 13.63 9.59
7/22/2021 6:30:00 AM 14.33 57.794 0.108 7.22 13.24 9.61
7/22/2021 6:45:00 AM 14.29 57.722 0.108 7.24 13.32 9.63
7/22/2021 7:00:00 AM 14.25 57.65 0.108 7.2 12.85 9.65
7/22/2021 7:15:00 AM 14.22 57.596 0.108 7.24 13.4 9.67
7/22/2021 7:30:00 AM 14.2 57.56 0.108 7.24 11.95 9.7
7/22/2021 7:45:00 AM 14.18 57.524 0.108 7.25 13.02 9.71
7/22/2021 8:00:00 AM 14.17 57.506 0.108 7.23 12.9 9.74
7/22/2021 8:15:00 AM 14.17 57.506 0.108 7.26 12.08 9.76
7/22/2021 8:30:00 AM 14.19 57.542 0.108 7.22 13.53 9.78
7/22/2021 8:45:00 AM 14.21 57.578 0.108 7.27 11.76 9.8
7/22/2021 9:00:00 AM 14.25 57.65 0.108 7.23 12.14 9.82
7/22/2021 9:15:00 AM 14.32 57.776 0.108 7.24 12.41 9.82
7/22/2021 9:30:00 AM 14.39 57.902 0.108 7.29 12.32 9.83
7/22/2021 9:45:00 AM 14.46 58.028 0.108 7.29 12.06 9.84
7/22/2021 10:00:00 AM 14.54 58.172 0.109 7.29 11.69 9.85
7/22/2021 10:15:00 AM 14.62 58.316 0.109 7.3 11.48 9.85
7/22/2021 10:30:00 AM 14.71 58.478 0.109 7.31 11.65 9.85
7/22/2021 10:45:00 AM 14.81 58.658 0.109 7.32 11.8 9.85
7/22/2021 11:00:00 AM 14.93 58.874 0.109 7.3 10.98 9.85
7/22/2021 11:15:00 AM 15.01 59.018 0.109 7.33 11.09 9.84
7/22/2021 11:30:00 AM 15.14 59.252 0.109 7.32 10.74 9.84
7/22/2021 11:45:00 AM 15.26 59.468 0.109 7.35 11.17 9.83
7/22/2021 12:00:00 PM 15.35 59.63 0.109 7.35 10.91 9.81
7/22/2021 12:15:00 PM 15.45 59.81 0.109 7.35 10.61 9.81
7/22/2021 12:30:00 PM 15.53 59.954 0.109 7.36 11.16 9.79
7/22/2021 12:45:00 PM 15.61 60.098 0.11 7.33 11.23 9.79
7/22/2021 1:00:00 PM 15.73 60.314 0.11 7.36 10.86 9.78
7/22/2021 1:15:00 PM 15.86 60.548 0.11 7.37 10.37 9.77
7/22/2021 1:30:00 PM 15.92 60.656 0.11 7.37 10.23 9.76
7/22/2021 1:45:00 PM 16.04 60.872 0.11 7.38 10.91 9.75
7/22/2021 2:00:00 PM 16.12 61.016 0.11 7.38 10.1 9.74
7/22/2021 2:15:00 PM 16.2 61.16 0.11 7.38 9.68 9.73
7/22/2021 2:30:00 PM 16.27 61.286 0.11 7.4 9.87 9.72
7/22/2021 2:45:00 PM 16.38 61.484 0.11 7.4 9.81 9.7
7/22/2021 3:00:00 PM 16.49 61.682 0.11 7.41 9.61 9.69
7/22/2021 3:15:00 PM 16.57 61.826 0.11 7.4 10.28 9.67
7/22/2021 3:30:00 PM 16.57 61.826 0.11 7.38 11.33 9.63
7/22/2021 3:45:00 PM 16.62 61.916 0.111 7.4 9.36 9.61
7/22/2021 4:00:00 PM 16.61 61.898 0.111 7.37 8.83 9.59
7/22/2021 4:15:00 PM 16.63 61.934 0.111 7.38 9.81 9.54
7/22/2021 4:30:00 PM 16.66 61.988 0.111 7.38 9.07 9.53
7/22/2021 4:45:00 PM 16.62 61.916 0.111 7.38 8.94 9.5
7/22/2021 5:00:00 PM 16.66 61.988 0.111 7.36 8.15 9.5
7/22/2021 5:15:00 PM 16.66 61.988 0.111 7.38 8.43 9.48
7/22/2021 5:30:00 PM 16.68 62.024 0.111 7.37 8.12 9.47
7/22/2021 5:45:00 PM 16.68 62.024 0.112 7.37 7.95 9.45
7/22/2021 6:00:00 PM 16.67 62.006 0.112 7.37 7.8 9.44
7/22/2021 6:15:00 PM 16.66 61.988 0.112 7.36 7.39 9.41
7/22/2021 6:30:00 PM 16.65 61.97 0.112 7.36 7.12 9.39
7/22/2021 6:45:00 PM 16.66 61.988 0.112 7.35 8.42 9.37
7/22/2021 7:00:00 PM 16.65 61.97 0.112 7.35 7.27 9.36
7/22/2021 7:15:00 PM 16.64 61.952 0.112 7.35 7.47 9.34
7/22/2021 7:30:00 PM 16.61 61.898 0.113 7.34 7.01 9.33
7/22/2021 7:45:00 PM 16.58 61.844 0.113 7.33 6.91 9.31
7/22/2021 8:00:00 PM 16.55 61.79 0.113 7.33 7.19 9.3
7/22/2021 8:15:00 PM 16.52 61.736 0.113 7.34 6.64 9.28
7/22/2021 8:30:00 PM 16.49 61.682 0.113 7.33 7.22 9.27
7/22/2021 8:45:00 PM 16.45 61.61 0.113 7.33 6.69 9.26
7/22/2021 9:00:00 PM 16.4 61.52 0.114 7.33 7.03 9.25
7/22/2021 9:15:00 PM 16.35 61.43 0.114 7.33 6.65 9.26
7/22/2021 9:30:00 PM 16.31 61.358 0.114 7.33 7.09 9.25
7/22/2021 9:45:00 PM 16.27 61.286 0.114 7.32 8.5 9.25
7/22/2021 10:00:00 PM 16.23 61.214 0.114 7.32 8.32 9.25
7/22/2021 10:15:00 PM 16.18 61.124 0.114 7.32 8.1 9.26
7/22/2021 10:30:00 PM 16.12 61.016 0.114 7.31 7.39 9.26
7/22/2021 10:45:00 PM 16.07 60.926 0.115 7.31 7.59 9.27
7/22/2021 11:00:00 PM 16.02 60.836 0.115 7.32 7.57 9.28
7/22/2021 11:15:00 PM 15.97 60.746 0.115 7.31 7.78 9.28
7/22/2021 11:30:00 PM 15.92 60.656 0.115 7.3 7.46 9.29
7/22/2021 11:45:00 PM 15.88 60.584 0.115 7.31 8.06 9.31
7/23/2021 12:00:00 AM 15.83 60.494 0.115 7.31 8.04 9.31
7/23/2021 12:15:00 AM 15.77 60.386 0.115 7.31 7.66 9.32
7/23/2021 12:30:00 AM 15.71 60.278 0.116 7.3 7.7 9.33
7/23/2021 12:45:00 AM 15.65 60.17 0.116 7.3 7.57 9.34
7/23/2021 1:00:00 AM 15.59 60.062 0.116 7.29 8.23 9.36
7/23/2021 1:15:00 AM 15.53 59.954 0.116 7.3 7.76 9.38
7/23/2021 1:30:00 AM 15.47 59.846 0.116 7.29 7.55 9.38
7/23/2021 1:45:00 AM 15.4 59.72 0.116 7.3 7.4 9.39
7/23/2021 2:00:00 AM 15.33 59.594 0.116 7.3 7.24 9.4
7/23/2021 2:15:00 AM 15.26 59.468 0.117 7.29 7.59 9.41
7/23/2021 2:30:00 AM 15.19 59.342 0.117 7.29 7.38 9.43
7/23/2021 2:45:00 AM 15.13 59.234 0.117 7.29 7.42 9.44
7/23/2021 3:00:00 AM 15.06 59.108 0.117 7.29 7.77 9.46
7/23/2021 3:15:00 AM 14.99 58.982 0.117 7.29 8.26 9.47
7/23/2021 3:30:00 AM 14.92 58.856 0.117 7.29 7.69 9.49
7/23/2021 3:45:00 AM 14.86 58.748 0.117 7.3 7.57 9.5
7/23/2021 4:00:00 AM 14.8 58.64 0.118 7.29 7.74 9.51
7/23/2021 4:15:00 AM 14.74 58.532 0.118 7.27 7.48 9.52
7/23/2021 4:30:00 AM 14.68 58.424 0.118 7.29 7.06 9.53
7/23/2021 4:45:00 AM 14.62 58.316 0.118 7.29 6.89 9.54
7/23/2021 5:00:00 AM 14.56 58.208 0.118 7.29 7.56 9.57
7/23/2021 5:15:00 AM 14.5 58.1 0.118 7.28 7.24 9.57
7/23/2021 5:30:00 AM 14.45 58.01 0.118 7.3 7.26 9.59
7/23/2021 5:45:00 AM 14.4 57.92 0.118 7.29 7.17 9.6
7/23/2021 6:00:00 AM 14.35 57.83 0.119 7.29 7.48 9.61
7/23/2021 6:15:00 AM 14.3 57.74 0.119 7.27 7.36 9.63
7/23/2021 6:30:00 AM 14.26 57.668 0.119 7.3 6.89 9.64
7/23/2021 6:45:00 AM 14.22 57.596 0.119 7.3 7.26 9.66
7/23/2021 7:00:00 AM 14.19 57.542 0.119 7.29 7.28 9.69
7/23/2021 7:15:00 AM 14.16 57.488 0.119 7.31 7.11 9.71
7/23/2021 7:30:00 AM 14.14 57.452 0.119 7.3 7.13 9.73
7/23/2021 7:45:00 AM 14.12 57.416 0.119 7.3 6.6 9.75
7/23/2021 8:00:00 AM 14.11 57.398 0.119 7.3 6.73 9.77
7/23/2021 8:15:00 AM 14.11 57.398 0.119 7.32 6.3 9.78
7/23/2021 8:30:00 AM 14.12 57.416 0.119 7.31 7.01 9.79
7/23/2021 8:45:00 AM 14.15 57.47 0.12 7.33 6.15 9.81
7/23/2021 9:00:00 AM 14.18 57.524 0.12 7.32 6.08 9.82
7/23/2021 9:15:00 AM 14.23 57.614 0.12 7.3 5.99 9.84
7/23/2021 9:30:00 AM 14.3 57.74 0.12 7.34 23.4 9.86
7/23/2021 9:45:00 AM 14.37 57.866 0.12 7.32 15.58 9.87
7/23/2021 10:00:00 AM 14.46 58.028 0.12 7.34 16.42 9.87
7/23/2021 10:15:00 AM 14.56 58.208 0